<?xml version="1.0" encoding="UTF-8" standalone="no" ?>
<gpx xmlns="http://www.topografix.com/GPX/1/1" xmlns:xsi="http://www.w3.org/2001/XMLSchema-instance" xsi:schemaLocation="http://www.topografix.com/GPX/1/1 http://www.topografix.com/GPX/1/1/gpx.xsd" version="1.1" creator="VisuGPX - https://www.visugpx.com">
  <metadata>
    <name>Saint-Amour-Bellevue VTT</name>
  </metadata>
  <trk>
    <name><![CDATA[Saint-Amour-Bellevue VTTAE]]></name>
    <trkseg>
      <trkpt lat="46.2289" lon="4.74994">
        <ele>242.80000305176</ele>
        <time>2020-06-10T13:14:05.000Z</time>
      </trkpt>
      <trkpt lat="46.2289" lon="4.74994">
        <ele>243</ele>
        <time>2020-06-10T13:14:06.000Z</time>
      </trkpt>
      <trkpt lat="46.2289" lon="4.74994">
        <ele>242.80000305176</ele>
        <time>2020-06-10T13:14:07.000Z</time>
      </trkpt>
      <trkpt lat="46.22887" lon="4.74994">
        <ele>243</ele>
        <time>2020-06-10T13:14:17.000Z</time>
      </trkpt>
      <trkpt lat="46.22887" lon="4.74996">
        <ele>243</ele>
        <time>2020-06-10T13:14:18.000Z</time>
      </trkpt>
      <trkpt lat="46.22883" lon="4.75003">
        <ele>242.80000305176</ele>
        <time>2020-06-10T13:14:20.000Z</time>
      </trkpt>
      <trkpt lat="46.22844" lon="4.75088">
        <ele>242.39999389648</ele>
        <time>2020-06-10T13:14:33.000Z</time>
      </trkpt>
      <trkpt lat="46.22785" lon="4.75202">
        <ele>241.80000305176</ele>
        <time>2020-06-10T13:14:49.000Z</time>
      </trkpt>
      <trkpt lat="46.22712" lon="4.75362">
        <ele>241.60000610352</ele>
        <time>2020-06-10T13:15:09.000Z</time>
      </trkpt>
      <trkpt lat="46.22659" lon="4.75549">
        <ele>240</ele>
        <time>2020-06-10T13:15:30.000Z</time>
      </trkpt>
      <trkpt lat="46.22614" lon="4.75714">
        <ele>239.39999389648</ele>
        <time>2020-06-10T13:15:49.000Z</time>
      </trkpt>
      <trkpt lat="46.22568" lon="4.75876">
        <ele>238</ele>
        <time>2020-06-10T13:16:07.000Z</time>
      </trkpt>
      <trkpt lat="46.22521" lon="4.76043">
        <ele>236.19999694824</ele>
        <time>2020-06-10T13:16:26.000Z</time>
      </trkpt>
      <trkpt lat="46.22479" lon="4.76193">
        <ele>234.19999694824</ele>
        <time>2020-06-10T13:16:43.000Z</time>
      </trkpt>
      <trkpt lat="46.22448" lon="4.762">
        <ele>233.60000610352</ele>
        <time>2020-06-10T13:16:49.000Z</time>
      </trkpt>
      <trkpt lat="46.22335" lon="4.76131">
        <ele>231.80000305176</ele>
        <time>2020-06-10T13:17:07.000Z</time>
      </trkpt>
      <trkpt lat="46.22216" lon="4.76061">
        <ele>229</ele>
        <time>2020-06-10T13:17:23.000Z</time>
      </trkpt>
      <trkpt lat="46.2219" lon="4.76045">
        <ele>226.80000305176</ele>
        <time>2020-06-10T13:17:26.000Z</time>
      </trkpt>
      <trkpt lat="46.22145" lon="4.76019">
        <ele>223.80000305176</ele>
        <time>2020-06-10T13:17:31.000Z</time>
      </trkpt>
      <trkpt lat="46.22079" lon="4.7598">
        <ele>220.39999389648</ele>
        <time>2020-06-10T13:17:38.000Z</time>
      </trkpt>
      <trkpt lat="46.2202" lon="4.75947">
        <ele>217.60000610352</ele>
        <time>2020-06-10T13:17:44.000Z</time>
      </trkpt>
      <trkpt lat="46.22001" lon="4.75935">
        <ele>215.80000305176</ele>
        <time>2020-06-10T13:17:46.000Z</time>
      </trkpt>
      <trkpt lat="46.21992" lon="4.7593">
        <ele>215.80000305176</ele>
        <time>2020-06-10T13:17:47.000Z</time>
      </trkpt>
      <trkpt lat="46.21969" lon="4.75916">
        <ele>214.39999389648</ele>
        <time>2020-06-10T13:17:50.000Z</time>
      </trkpt>
      <trkpt lat="46.21958" lon="4.75907">
        <ele>213</ele>
        <time>2020-06-10T13:17:52.000Z</time>
      </trkpt>
      <trkpt lat="46.21956" lon="4.75878">
        <ele>212.39999389648</ele>
        <time>2020-06-10T13:17:57.000Z</time>
      </trkpt>
      <trkpt lat="46.22007" lon="4.75724">
        <ele>211.80000305176</ele>
        <time>2020-06-10T13:18:16.000Z</time>
      </trkpt>
      <trkpt lat="46.22002" lon="4.75707">
        <ele>212.19999694824</ele>
        <time>2020-06-10T13:18:19.000Z</time>
      </trkpt>
      <trkpt lat="46.21908" lon="4.75653">
        <ele>211.19999694824</ele>
        <time>2020-06-10T13:18:33.000Z</time>
      </trkpt>
      <trkpt lat="46.21834" lon="4.75611">
        <ele>208.19999694824</ele>
        <time>2020-06-10T13:18:43.000Z</time>
      </trkpt>
      <trkpt lat="46.21805" lon="4.75593">
        <ele>207.39999389648</ele>
        <time>2020-06-10T13:18:47.000Z</time>
      </trkpt>
      <trkpt lat="46.21788" lon="4.75577">
        <ele>206.39999389648</ele>
        <time>2020-06-10T13:18:52.000Z</time>
      </trkpt>
      <trkpt lat="46.21744" lon="4.75598">
        <ele>205.39999389648</ele>
        <time>2020-06-10T13:19:00.000Z</time>
      </trkpt>
      <trkpt lat="46.21645" lon="4.75633">
        <ele>202.80000305176</ele>
        <time>2020-06-10T13:19:14.000Z</time>
      </trkpt>
      <trkpt lat="46.21554" lon="4.75609">
        <ele>199.60000610352</ele>
        <time>2020-06-10T13:19:24.000Z</time>
      </trkpt>
      <trkpt lat="46.21494" lon="4.75621">
        <ele>195</ele>
        <time>2020-06-10T13:19:30.000Z</time>
      </trkpt>
      <trkpt lat="46.21476" lon="4.75634">
        <ele>193.80000305176</ele>
        <time>2020-06-10T13:19:32.000Z</time>
      </trkpt>
      <trkpt lat="46.21442" lon="4.75663">
        <ele>190.80000305176</ele>
        <time>2020-06-10T13:19:36.000Z</time>
      </trkpt>
      <trkpt lat="46.21419" lon="4.75686">
        <ele>189.19999694824</ele>
        <time>2020-06-10T13:19:39.000Z</time>
      </trkpt>
      <trkpt lat="46.21378" lon="4.75712">
        <ele>188.39999389648</ele>
        <time>2020-06-10T13:19:45.000Z</time>
      </trkpt>
      <trkpt lat="46.21364" lon="4.75704">
        <ele>188.39999389648</ele>
        <time>2020-06-10T13:19:47.000Z</time>
      </trkpt>
      <trkpt lat="46.21248" lon="4.75621">
        <ele>188.39999389648</ele>
        <time>2020-06-10T13:20:06.000Z</time>
      </trkpt>
      <trkpt lat="46.21168" lon="4.75565">
        <ele>190.80000305176</ele>
        <time>2020-06-10T13:20:21.000Z</time>
      </trkpt>
      <trkpt lat="46.21128" lon="4.75537">
        <ele>194.19999694824</ele>
        <time>2020-06-10T13:20:29.000Z</time>
      </trkpt>
      <trkpt lat="46.21101" lon="4.75517">
        <ele>197.39999389648</ele>
        <time>2020-06-10T13:20:35.000Z</time>
      </trkpt>
      <trkpt lat="46.21098" lon="4.75514">
        <ele>197.39999389648</ele>
        <time>2020-06-10T13:20:36.000Z</time>
      </trkpt>
      <trkpt lat="46.21085" lon="4.75531">
        <ele>199.39999389648</ele>
        <time>2020-06-10T13:20:41.000Z</time>
      </trkpt>
      <trkpt lat="46.2108" lon="4.75571">
        <ele>200.80000305176</ele>
        <time>2020-06-10T13:20:46.000Z</time>
      </trkpt>
      <trkpt lat="46.21059" lon="4.75629">
        <ele>201.19999694824</ele>
        <time>2020-06-10T13:20:54.000Z</time>
      </trkpt>
      <trkpt lat="46.21028" lon="4.7563">
        <ele>200.60000610352</ele>
        <time>2020-06-10T13:21:00.000Z</time>
      </trkpt>
      <trkpt lat="46.21017" lon="4.75625">
        <ele>200.39999389648</ele>
        <time>2020-06-10T13:21:02.000Z</time>
      </trkpt>
      <trkpt lat="46.21002" lon="4.75614">
        <ele>199.19999694824</ele>
        <time>2020-06-10T13:21:05.000Z</time>
      </trkpt>
      <trkpt lat="46.20992" lon="4.75605">
        <ele>198.80000305176</ele>
        <time>2020-06-10T13:21:07.000Z</time>
      </trkpt>
      <trkpt lat="46.20975" lon="4.75622">
        <ele>198</ele>
        <time>2020-06-10T13:21:14.000Z</time>
      </trkpt>
      <trkpt lat="46.20976" lon="4.7563">
        <ele>198</ele>
        <time>2020-06-10T13:21:15.000Z</time>
      </trkpt>
      <trkpt lat="46.20971" lon="4.75701">
        <ele>196.39999389648</ele>
        <time>2020-06-10T13:21:23.000Z</time>
      </trkpt>
      <trkpt lat="46.20966" lon="4.7572">
        <ele>196</ele>
        <time>2020-06-10T13:21:25.000Z</time>
      </trkpt>
      <trkpt lat="46.20933" lon="4.75835">
        <ele>193</ele>
        <time>2020-06-10T13:21:37.000Z</time>
      </trkpt>
      <trkpt lat="46.20881" lon="4.76009">
        <ele>190.19999694824</ele>
        <time>2020-06-10T13:21:56.000Z</time>
      </trkpt>
      <trkpt lat="46.20879" lon="4.76018">
        <ele>190.19999694824</ele>
        <time>2020-06-10T13:21:57.000Z</time>
      </trkpt>
      <trkpt lat="46.20868" lon="4.7604">
        <ele>190.39999389648</ele>
        <time>2020-06-10T13:22:01.000Z</time>
      </trkpt>
      <trkpt lat="46.20789" lon="4.76102">
        <ele>190.39999389648</ele>
        <time>2020-06-10T13:22:15.000Z</time>
      </trkpt>
      <trkpt lat="46.20747" lon="4.76169">
        <ele>189.39999389648</ele>
        <time>2020-06-10T13:22:25.000Z</time>
      </trkpt>
      <trkpt lat="46.20708" lon="4.76235">
        <ele>189.39999389648</ele>
        <time>2020-06-10T13:22:35.000Z</time>
      </trkpt>
      <trkpt lat="46.20692" lon="4.7626">
        <ele>189.60000610352</ele>
        <time>2020-06-10T13:22:39.000Z</time>
      </trkpt>
      <trkpt lat="46.20641" lon="4.76363">
        <ele>188.80000305176</ele>
        <time>2020-06-10T13:22:54.000Z</time>
      </trkpt>
      <trkpt lat="46.20577" lon="4.76481">
        <ele>187.19999694824</ele>
        <time>2020-06-10T13:23:11.000Z</time>
      </trkpt>
      <trkpt lat="46.20531" lon="4.76562">
        <ele>185.80000305176</ele>
        <time>2020-06-10T13:23:25.000Z</time>
      </trkpt>
      <trkpt lat="46.20528" lon="4.76563">
        <ele>185.80000305176</ele>
        <time>2020-06-10T13:23:26.000Z</time>
      </trkpt>
      <trkpt lat="46.20478" lon="4.76524">
        <ele>183.19999694824</ele>
        <time>2020-06-10T13:23:36.000Z</time>
      </trkpt>
      <trkpt lat="46.2043" lon="4.76482">
        <ele>180.19999694824</ele>
        <time>2020-06-10T13:23:45.000Z</time>
      </trkpt>
      <trkpt lat="46.20361" lon="4.76419">
        <ele>177.80000305176</ele>
        <time>2020-06-10T13:23:59.000Z</time>
      </trkpt>
      <trkpt lat="46.20308" lon="4.7637">
        <ele>176.39999389648</ele>
        <time>2020-06-10T13:24:13.000Z</time>
      </trkpt>
      <trkpt lat="46.20271" lon="4.76336">
        <ele>175.60000610352</ele>
        <time>2020-06-10T13:24:24.000Z</time>
      </trkpt>
      <trkpt lat="46.20241" lon="4.7631">
        <ele>174.39999389648</ele>
        <time>2020-06-10T13:24:35.000Z</time>
      </trkpt>
      <trkpt lat="46.20218" lon="4.76291">
        <ele>174</ele>
        <time>2020-06-10T13:24:45.000Z</time>
      </trkpt>
      <trkpt lat="46.20218" lon="4.76291">
        <ele>174</ele>
        <time>2020-06-10T13:24:47.000Z</time>
      </trkpt>
      <trkpt lat="46.20213" lon="4.76285">
        <ele>174.19999694824</ele>
        <time>2020-06-10T13:24:56.000Z</time>
      </trkpt>
      <trkpt lat="46.20189" lon="4.76263">
        <ele>174</ele>
        <time>2020-06-10T13:25:07.000Z</time>
      </trkpt>
      <trkpt lat="46.20167" lon="4.76243">
        <ele>172.80000305176</ele>
        <time>2020-06-10T13:25:16.000Z</time>
      </trkpt>
      <trkpt lat="46.20159" lon="4.76238">
        <ele>172.60000610352</ele>
        <time>2020-06-10T13:25:24.000Z</time>
      </trkpt>
      <trkpt lat="46.20129" lon="4.76209">
        <ele>172.60000610352</ele>
        <time>2020-06-10T13:25:37.000Z</time>
      </trkpt>
      <trkpt lat="46.201" lon="4.76183">
        <ele>172.60000610352</ele>
        <time>2020-06-10T13:25:50.000Z</time>
      </trkpt>
      <trkpt lat="46.20066" lon="4.76154">
        <ele>172.39999389648</ele>
        <time>2020-06-10T13:26:03.000Z</time>
      </trkpt>
      <trkpt lat="46.20034" lon="4.76126">
        <ele>172.19999694824</ele>
        <time>2020-06-10T13:26:15.000Z</time>
      </trkpt>
      <trkpt lat="46.19992" lon="4.76089">
        <ele>172.39999389648</ele>
        <time>2020-06-10T13:26:30.000Z</time>
      </trkpt>
      <trkpt lat="46.19959" lon="4.76067">
        <ele>172.80000305176</ele>
        <time>2020-06-10T13:26:41.000Z</time>
      </trkpt>
      <trkpt lat="46.19951" lon="4.76063">
        <ele>173.39999389648</ele>
        <time>2020-06-10T13:26:50.000Z</time>
      </trkpt>
      <trkpt lat="46.19948" lon="4.7606">
        <ele>175.19999694824</ele>
        <time>2020-06-10T13:35:09.000Z</time>
      </trkpt>
      <trkpt lat="46.19945" lon="4.76059">
        <ele>175.19999694824</ele>
        <time>2020-06-10T13:35:14.000Z</time>
      </trkpt>
      <trkpt lat="46.19937" lon="4.76056">
        <ele>175.19999694824</ele>
        <time>2020-06-10T13:35:18.000Z</time>
      </trkpt>
      <trkpt lat="46.19921" lon="4.76043">
        <ele>175.19999694824</ele>
        <time>2020-06-10T13:35:22.000Z</time>
      </trkpt>
      <trkpt lat="46.19883" lon="4.76011">
        <ele>174.60000610352</ele>
        <time>2020-06-10T13:35:29.000Z</time>
      </trkpt>
      <trkpt lat="46.19805" lon="4.75945">
        <ele>172.39999389648</ele>
        <time>2020-06-10T13:35:43.000Z</time>
      </trkpt>
      <trkpt lat="46.19746" lon="4.75881">
        <ele>172.39999389648</ele>
        <time>2020-06-10T13:35:56.000Z</time>
      </trkpt>
      <trkpt lat="46.19701" lon="4.75802">
        <ele>175</ele>
        <time>2020-06-10T13:36:10.000Z</time>
      </trkpt>
      <trkpt lat="46.19679" lon="4.75773">
        <ele>177.39999389648</ele>
        <time>2020-06-10T13:36:17.000Z</time>
      </trkpt>
      <trkpt lat="46.19622" lon="4.75726">
        <ele>178.39999389648</ele>
        <time>2020-06-10T13:36:29.000Z</time>
      </trkpt>
      <trkpt lat="46.19579" lon="4.75724">
        <ele>177.80000305176</ele>
        <time>2020-06-10T13:36:36.000Z</time>
      </trkpt>
      <trkpt lat="46.19549" lon="4.7573">
        <ele>176.60000610352</ele>
        <time>2020-06-10T13:36:41.000Z</time>
      </trkpt>
      <trkpt lat="46.19524" lon="4.7572">
        <ele>176.19999694824</ele>
        <time>2020-06-10T13:36:45.000Z</time>
      </trkpt>
      <trkpt lat="46.19407" lon="4.75614">
        <ele>173.39999389648</ele>
        <time>2020-06-10T13:37:06.000Z</time>
      </trkpt>
      <trkpt lat="46.19328" lon="4.75536">
        <ele>172.80000305176</ele>
        <time>2020-06-10T13:37:21.000Z</time>
      </trkpt>
      <trkpt lat="46.19309" lon="4.75515">
        <ele>172.60000610352</ele>
        <time>2020-06-10T13:37:25.000Z</time>
      </trkpt>
      <trkpt lat="46.19295" lon="4.75502">
        <ele>172.80000305176</ele>
        <time>2020-06-10T13:37:28.000Z</time>
      </trkpt>
      <trkpt lat="46.19285" lon="4.75467">
        <ele>173</ele>
        <time>2020-06-10T13:37:33.000Z</time>
      </trkpt>
      <trkpt lat="46.19289" lon="4.75334">
        <ele>172.19999694824</ele>
        <time>2020-06-10T13:37:47.000Z</time>
      </trkpt>
      <trkpt lat="46.19276" lon="4.7522">
        <ele>172.60000610352</ele>
        <time>2020-06-10T13:38:01.000Z</time>
      </trkpt>
      <trkpt lat="46.19276" lon="4.75184">
        <ele>173.60000610352</ele>
        <time>2020-06-10T13:38:05.000Z</time>
      </trkpt>
      <trkpt lat="46.19269" lon="4.75142">
        <ele>173.80000305176</ele>
        <time>2020-06-10T13:38:10.000Z</time>
      </trkpt>
      <trkpt lat="46.19289" lon="4.75054">
        <ele>173.80000305176</ele>
        <time>2020-06-10T13:38:21.000Z</time>
      </trkpt>
      <trkpt lat="46.19346" lon="4.74924">
        <ele>174.19999694824</ele>
        <time>2020-06-10T13:38:39.000Z</time>
      </trkpt>
      <trkpt lat="46.19352" lon="4.7491">
        <ele>174.39999389648</ele>
        <time>2020-06-10T13:38:41.000Z</time>
      </trkpt>
      <trkpt lat="46.19359" lon="4.74868">
        <ele>174.60000610352</ele>
        <time>2020-06-10T13:38:46.000Z</time>
      </trkpt>
      <trkpt lat="46.19365" lon="4.7469">
        <ele>176.19999694824</ele>
        <time>2020-06-10T13:39:07.000Z</time>
      </trkpt>
      <trkpt lat="46.19384" lon="4.7455">
        <ele>176.80000305176</ele>
        <time>2020-06-10T13:39:24.000Z</time>
      </trkpt>
      <trkpt lat="46.19387" lon="4.74535">
        <ele>177</ele>
        <time>2020-06-10T13:39:26.000Z</time>
      </trkpt>
      <trkpt lat="46.19419" lon="4.74403">
        <ele>177.19999694824</ele>
        <time>2020-06-10T13:39:43.000Z</time>
      </trkpt>
      <trkpt lat="46.19411" lon="4.74332">
        <ele>177.19999694824</ele>
        <time>2020-06-10T13:39:52.000Z</time>
      </trkpt>
      <trkpt lat="46.19388" lon="4.74296">
        <ele>177.39999389648</ele>
        <time>2020-06-10T13:39:58.000Z</time>
      </trkpt>
      <trkpt lat="46.19291" lon="4.74216">
        <ele>180.19999694824</ele>
        <time>2020-06-10T13:40:17.000Z</time>
      </trkpt>
      <trkpt lat="46.19286" lon="4.74212">
        <ele>180.19999694824</ele>
        <time>2020-06-10T13:40:18.000Z</time>
      </trkpt>
      <trkpt lat="46.19267" lon="4.74181">
        <ele>180.39999389648</ele>
        <time>2020-06-10T13:40:23.000Z</time>
      </trkpt>
      <trkpt lat="46.19265" lon="4.74174">
        <ele>180.39999389648</ele>
        <time>2020-06-10T13:40:24.000Z</time>
      </trkpt>
      <trkpt lat="46.19255" lon="4.74119">
        <ele>180.39999389648</ele>
        <time>2020-06-10T13:40:31.000Z</time>
      </trkpt>
      <trkpt lat="46.19253" lon="4.74112">
        <ele>180.39999389648</ele>
        <time>2020-06-10T13:40:32.000Z</time>
      </trkpt>
      <trkpt lat="46.1925" lon="4.74105">
        <ele>180.39999389648</ele>
        <time>2020-06-10T13:40:33.000Z</time>
      </trkpt>
      <trkpt lat="46.19235" lon="4.74069">
        <ele>180.60000610352</ele>
        <time>2020-06-10T13:40:38.000Z</time>
      </trkpt>
      <trkpt lat="46.19232" lon="4.74054">
        <ele>181.39999389648</ele>
        <time>2020-06-10T13:40:40.000Z</time>
      </trkpt>
      <trkpt lat="46.19239" lon="4.73983">
        <ele>183</ele>
        <time>2020-06-10T13:40:51.000Z</time>
      </trkpt>
      <trkpt lat="46.19239" lon="4.73982">
        <ele>183</ele>
        <time>2020-06-10T13:40:52.000Z</time>
      </trkpt>
      <trkpt lat="46.19223" lon="4.73973">
        <ele>184</ele>
        <time>2020-06-10T13:40:59.000Z</time>
      </trkpt>
      <trkpt lat="46.19219" lon="4.73976">
        <ele>184.39999389648</ele>
        <time>2020-06-10T13:41:00.000Z</time>
      </trkpt>
      <trkpt lat="46.19217" lon="4.73981">
        <ele>184.39999389648</ele>
        <time>2020-06-10T13:41:01.000Z</time>
      </trkpt>
      <trkpt lat="46.19216" lon="4.73987">
        <ele>184.60000610352</ele>
        <time>2020-06-10T13:41:02.000Z</time>
      </trkpt>
      <trkpt lat="46.19215" lon="4.73993">
        <ele>184.60000610352</ele>
        <time>2020-06-10T13:41:03.000Z</time>
      </trkpt>
      <trkpt lat="46.19215" lon="4.74">
        <ele>184.80000305176</ele>
        <time>2020-06-10T13:41:04.000Z</time>
      </trkpt>
      <trkpt lat="46.19211" lon="4.74035">
        <ele>184.80000305176</ele>
        <time>2020-06-10T13:41:09.000Z</time>
      </trkpt>
      <trkpt lat="46.19213" lon="4.74063">
        <ele>184.80000305176</ele>
        <time>2020-06-10T13:41:13.000Z</time>
      </trkpt>
      <trkpt lat="46.19217" lon="4.74093">
        <ele>184.60000610352</ele>
        <time>2020-06-10T13:41:17.000Z</time>
      </trkpt>
      <trkpt lat="46.19225" lon="4.74141">
        <ele>184.19999694824</ele>
        <time>2020-06-10T13:41:23.000Z</time>
      </trkpt>
      <trkpt lat="46.19219" lon="4.74182">
        <ele>183.80000305176</ele>
        <time>2020-06-10T13:41:28.000Z</time>
      </trkpt>
      <trkpt lat="46.19209" lon="4.74209">
        <ele>183.60000610352</ele>
        <time>2020-06-10T13:41:32.000Z</time>
      </trkpt>
      <trkpt lat="46.19205" lon="4.74215">
        <ele>183.60000610352</ele>
        <time>2020-06-10T13:41:33.000Z</time>
      </trkpt>
      <trkpt lat="46.19201" lon="4.74218">
        <ele>183.60000610352</ele>
        <time>2020-06-10T13:41:34.000Z</time>
      </trkpt>
      <trkpt lat="46.19196" lon="4.7422">
        <ele>183.60000610352</ele>
        <time>2020-06-10T13:41:35.000Z</time>
      </trkpt>
      <trkpt lat="46.1919" lon="4.7422">
        <ele>183.60000610352</ele>
        <time>2020-06-10T13:41:36.000Z</time>
      </trkpt>
      <trkpt lat="46.19078" lon="4.74218">
        <ele>186.39999389648</ele>
        <time>2020-06-10T13:41:56.000Z</time>
      </trkpt>
      <trkpt lat="46.18972" lon="4.74208">
        <ele>189</ele>
        <time>2020-06-10T13:42:15.000Z</time>
      </trkpt>
      <trkpt lat="46.18895" lon="4.74197">
        <ele>189</ele>
        <time>2020-06-10T13:42:28.000Z</time>
      </trkpt>
      <trkpt lat="46.18819" lon="4.7418">
        <ele>188.80000305176</ele>
        <time>2020-06-10T13:42:40.000Z</time>
      </trkpt>
      <trkpt lat="46.18786" lon="4.74172">
        <ele>188.19999694824</ele>
        <time>2020-06-10T13:42:48.000Z</time>
      </trkpt>
      <trkpt lat="46.18714" lon="4.7414">
        <ele>187.19999694824</ele>
        <time>2020-06-10T13:43:01.000Z</time>
      </trkpt>
      <trkpt lat="46.18671" lon="4.74117">
        <ele>186.80000305176</ele>
        <time>2020-06-10T13:43:09.000Z</time>
      </trkpt>
      <trkpt lat="46.18656" lon="4.7411">
        <ele>186.80000305176</ele>
        <time>2020-06-10T13:43:12.000Z</time>
      </trkpt>
      <trkpt lat="46.18655" lon="4.74083">
        <ele>187.60000610352</ele>
        <time>2020-06-10T13:43:18.000Z</time>
      </trkpt>
      <trkpt lat="46.18692" lon="4.74032">
        <ele>187.39999389648</ele>
        <time>2020-06-10T13:43:27.000Z</time>
      </trkpt>
      <trkpt lat="46.18702" lon="4.74011">
        <ele>187.19999694824</ele>
        <time>2020-06-10T13:43:35.000Z</time>
      </trkpt>
      <trkpt lat="46.18695" lon="4.74001">
        <ele>189.60000610352</ele>
        <time>2020-06-10T13:43:43.000Z</time>
      </trkpt>
      <trkpt lat="46.18687" lon="4.74">
        <ele>189.80000305176</ele>
        <time>2020-06-10T13:43:45.000Z</time>
      </trkpt>
      <trkpt lat="46.18618" lon="4.73991">
        <ele>189.80000305176</ele>
        <time>2020-06-10T13:43:58.000Z</time>
      </trkpt>
      <trkpt lat="46.1861" lon="4.73969">
        <ele>190</ele>
        <time>2020-06-10T13:44:03.000Z</time>
      </trkpt>
      <trkpt lat="46.18613" lon="4.73946">
        <ele>190</ele>
        <time>2020-06-10T13:44:06.000Z</time>
      </trkpt>
      <trkpt lat="46.18616" lon="4.7392">
        <ele>190</ele>
        <time>2020-06-10T13:44:09.000Z</time>
      </trkpt>
      <trkpt lat="46.18612" lon="4.73886">
        <ele>190.19999694824</ele>
        <time>2020-06-10T13:44:13.000Z</time>
      </trkpt>
      <trkpt lat="46.18598" lon="4.73835">
        <ele>190.39999389648</ele>
        <time>2020-06-10T13:44:20.000Z</time>
      </trkpt>
      <trkpt lat="46.18595" lon="4.73752">
        <ele>193.60000610352</ele>
        <time>2020-06-10T13:44:31.000Z</time>
      </trkpt>
      <trkpt lat="46.18596" lon="4.73745">
        <ele>194</ele>
        <time>2020-06-10T13:44:32.000Z</time>
      </trkpt>
      <trkpt lat="46.18603" lon="4.73703">
        <ele>195</ele>
        <time>2020-06-10T13:44:38.000Z</time>
      </trkpt>
      <trkpt lat="46.18608" lon="4.73682">
        <ele>195.39999389648</ele>
        <time>2020-06-10T13:44:41.000Z</time>
      </trkpt>
      <trkpt lat="46.18613" lon="4.73653">
        <ele>196.39999389648</ele>
        <time>2020-06-10T13:44:45.000Z</time>
      </trkpt>
      <trkpt lat="46.18619" lon="4.73609">
        <ele>197</ele>
        <time>2020-06-10T13:44:51.000Z</time>
      </trkpt>
      <trkpt lat="46.18616" lon="4.73565">
        <ele>198.39999389648</ele>
        <time>2020-06-10T13:44:59.000Z</time>
      </trkpt>
      <trkpt lat="46.18602" lon="4.7355">
        <ele>199.39999389648</ele>
        <time>2020-06-10T13:45:03.000Z</time>
      </trkpt>
      <trkpt lat="46.18588" lon="4.73545">
        <ele>200.39999389648</ele>
        <time>2020-06-10T13:45:06.000Z</time>
      </trkpt>
      <trkpt lat="46.18543" lon="4.7354">
        <ele>201.39999389648</ele>
        <time>2020-06-10T13:45:14.000Z</time>
      </trkpt>
      <trkpt lat="46.18534" lon="4.73535">
        <ele>201.39999389648</ele>
        <time>2020-06-10T13:45:16.000Z</time>
      </trkpt>
      <trkpt lat="46.18509" lon="4.73525">
        <ele>200.60000610352</ele>
        <time>2020-06-10T13:45:21.000Z</time>
      </trkpt>
      <trkpt lat="46.18412" lon="4.73504">
        <ele>197.39999389648</ele>
        <time>2020-06-10T13:45:35.000Z</time>
      </trkpt>
      <trkpt lat="46.18398" lon="4.73501">
        <ele>196</ele>
        <time>2020-06-10T13:45:38.000Z</time>
      </trkpt>
      <trkpt lat="46.18395" lon="4.73495">
        <ele>195.19999694824</ele>
        <time>2020-06-10T13:45:40.000Z</time>
      </trkpt>
      <trkpt lat="46.18397" lon="4.73487">
        <ele>194.80000305176</ele>
        <time>2020-06-10T13:45:42.000Z</time>
      </trkpt>
      <trkpt lat="46.184" lon="4.73482">
        <ele>194.60000610352</ele>
        <time>2020-06-10T13:45:43.000Z</time>
      </trkpt>
      <trkpt lat="46.18419" lon="4.73448">
        <ele>194.39999389648</ele>
        <time>2020-06-10T13:45:49.000Z</time>
      </trkpt>
      <trkpt lat="46.18417" lon="4.73418">
        <ele>194.39999389648</ele>
        <time>2020-06-10T13:45:54.000Z</time>
      </trkpt>
      <trkpt lat="46.18406" lon="4.7339">
        <ele>194.80000305176</ele>
        <time>2020-06-10T13:45:59.000Z</time>
      </trkpt>
      <trkpt lat="46.18385" lon="4.73369">
        <ele>195</ele>
        <time>2020-06-10T13:46:04.000Z</time>
      </trkpt>
      <trkpt lat="46.18375" lon="4.73364">
        <ele>195</ele>
        <time>2020-06-10T13:46:06.000Z</time>
      </trkpt>
      <trkpt lat="46.18358" lon="4.7338">
        <ele>195.19999694824</ele>
        <time>2020-06-10T13:46:11.000Z</time>
      </trkpt>
      <trkpt lat="46.18354" lon="4.73394">
        <ele>195.19999694824</ele>
        <time>2020-06-10T13:46:13.000Z</time>
      </trkpt>
      <trkpt lat="46.18325" lon="4.7341">
        <ele>196.39999389648</ele>
        <time>2020-06-10T13:46:20.000Z</time>
      </trkpt>
      <trkpt lat="46.18315" lon="4.73407">
        <ele>196.80000305176</ele>
        <time>2020-06-10T13:46:22.000Z</time>
      </trkpt>
      <trkpt lat="46.18291" lon="4.73397">
        <ele>198</ele>
        <time>2020-06-10T13:46:27.000Z</time>
      </trkpt>
      <trkpt lat="46.18273" lon="4.73382">
        <ele>199.60000610352</ele>
        <time>2020-06-10T13:46:31.000Z</time>
      </trkpt>
      <trkpt lat="46.18242" lon="4.73341">
        <ele>201.60000610352</ele>
        <time>2020-06-10T13:46:38.000Z</time>
      </trkpt>
      <trkpt lat="46.18188" lon="4.73308">
        <ele>203.80000305176</ele>
        <time>2020-06-10T13:46:50.000Z</time>
      </trkpt>
      <trkpt lat="46.18187" lon="4.73308">
        <ele>204</ele>
        <time>2020-06-10T13:46:51.000Z</time>
      </trkpt>
      <trkpt lat="46.18181" lon="4.73312">
        <ele>204.39999389648</ele>
        <time>2020-06-10T13:46:54.000Z</time>
      </trkpt>
      <trkpt lat="46.1817" lon="4.73307">
        <ele>204.80000305176</ele>
        <time>2020-06-10T13:47:00.000Z</time>
      </trkpt>
      <trkpt lat="46.18169" lon="4.73304">
        <ele>205.19999694824</ele>
        <time>2020-06-10T13:47:08.000Z</time>
      </trkpt>
      <trkpt lat="46.18163" lon="4.73299">
        <ele>205.80000305176</ele>
        <time>2020-06-10T13:47:17.000Z</time>
      </trkpt>
      <trkpt lat="46.1816" lon="4.73296">
        <ele>205.80000305176</ele>
        <time>2020-06-10T13:47:18.000Z</time>
      </trkpt>
      <trkpt lat="46.18139" lon="4.73282">
        <ele>205.80000305176</ele>
        <time>2020-06-10T13:47:23.000Z</time>
      </trkpt>
      <trkpt lat="46.18124" lon="4.73274">
        <ele>205.80000305176</ele>
        <time>2020-06-10T13:47:26.000Z</time>
      </trkpt>
      <trkpt lat="46.18071" lon="4.7324">
        <ele>205.60000610352</ele>
        <time>2020-06-10T13:47:37.000Z</time>
      </trkpt>
      <trkpt lat="46.1806" lon="4.73216">
        <ele>205.60000610352</ele>
        <time>2020-06-10T13:47:43.000Z</time>
      </trkpt>
      <trkpt lat="46.18024" lon="4.73205">
        <ele>206.39999389648</ele>
        <time>2020-06-10T13:47:53.000Z</time>
      </trkpt>
      <trkpt lat="46.17975" lon="4.73207">
        <ele>206.19999694824</ele>
        <time>2020-06-10T13:48:02.000Z</time>
      </trkpt>
      <trkpt lat="46.17959" lon="4.73209">
        <ele>206</ele>
        <time>2020-06-10T13:48:06.000Z</time>
      </trkpt>
      <trkpt lat="46.17937" lon="4.7321">
        <ele>205.60000610352</ele>
        <time>2020-06-10T13:48:10.000Z</time>
      </trkpt>
      <trkpt lat="46.17868" lon="4.73201">
        <ele>205</ele>
        <time>2020-06-10T13:48:22.000Z</time>
      </trkpt>
      <trkpt lat="46.17795" lon="4.7317">
        <ele>204.19999694824</ele>
        <time>2020-06-10T13:48:35.000Z</time>
      </trkpt>
      <trkpt lat="46.1779" lon="4.73166">
        <ele>204.19999694824</ele>
        <time>2020-06-10T13:48:36.000Z</time>
      </trkpt>
      <trkpt lat="46.17759" lon="4.7315">
        <ele>204.60000610352</ele>
        <time>2020-06-10T13:48:46.000Z</time>
      </trkpt>
      <trkpt lat="46.17758" lon="4.7315">
        <ele>204.60000610352</ele>
        <time>2020-06-10T13:48:47.000Z</time>
      </trkpt>
      <trkpt lat="46.17758" lon="4.73113">
        <ele>205</ele>
        <time>2020-06-10T13:48:54.000Z</time>
      </trkpt>
      <trkpt lat="46.1774" lon="4.73096">
        <ele>205.60000610352</ele>
        <time>2020-06-10T13:48:59.000Z</time>
      </trkpt>
      <trkpt lat="46.17719" lon="4.73096">
        <ele>206</ele>
        <time>2020-06-10T13:49:03.000Z</time>
      </trkpt>
      <trkpt lat="46.17714" lon="4.73095">
        <ele>206</ele>
        <time>2020-06-10T13:49:04.000Z</time>
      </trkpt>
      <trkpt lat="46.1771" lon="4.73092">
        <ele>205.80000305176</ele>
        <time>2020-06-10T13:49:05.000Z</time>
      </trkpt>
      <trkpt lat="46.17707" lon="4.73086">
        <ele>205.80000305176</ele>
        <time>2020-06-10T13:49:06.000Z</time>
      </trkpt>
      <trkpt lat="46.17705" lon="4.73079">
        <ele>205.80000305176</ele>
        <time>2020-06-10T13:49:07.000Z</time>
      </trkpt>
      <trkpt lat="46.17684" lon="4.73015">
        <ele>205.19999694824</ele>
        <time>2020-06-10T13:49:15.000Z</time>
      </trkpt>
      <trkpt lat="46.17681" lon="4.73007">
        <ele>204.80000305176</ele>
        <time>2020-06-10T13:49:16.000Z</time>
      </trkpt>
      <trkpt lat="46.17675" lon="4.72983">
        <ele>204.19999694824</ele>
        <time>2020-06-10T13:49:19.000Z</time>
      </trkpt>
      <trkpt lat="46.17655" lon="4.72933">
        <ele>203.19999694824</ele>
        <time>2020-06-10T13:49:26.000Z</time>
      </trkpt>
      <trkpt lat="46.17642" lon="4.72904">
        <ele>202.19999694824</ele>
        <time>2020-06-10T13:49:31.000Z</time>
      </trkpt>
      <trkpt lat="46.1761" lon="4.72824">
        <ele>198.60000610352</ele>
        <time>2020-06-10T13:49:41.000Z</time>
      </trkpt>
      <trkpt lat="46.176" lon="4.728">
        <ele>196.60000610352</ele>
        <time>2020-06-10T13:49:45.000Z</time>
      </trkpt>
      <trkpt lat="46.17577" lon="4.72724">
        <ele>195</ele>
        <time>2020-06-10T13:49:56.000Z</time>
      </trkpt>
      <trkpt lat="46.17576" lon="4.72719">
        <ele>195</ele>
        <time>2020-06-10T13:49:57.000Z</time>
      </trkpt>
      <trkpt lat="46.17548" lon="4.72712">
        <ele>195</ele>
        <time>2020-06-10T13:50:03.000Z</time>
      </trkpt>
      <trkpt lat="46.1749" lon="4.72686">
        <ele>193</ele>
        <time>2020-06-10T13:50:13.000Z</time>
      </trkpt>
      <trkpt lat="46.17487" lon="4.72682">
        <ele>192.60000610352</ele>
        <time>2020-06-10T13:50:14.000Z</time>
      </trkpt>
      <trkpt lat="46.17485" lon="4.72676">
        <ele>192.39999389648</ele>
        <time>2020-06-10T13:50:15.000Z</time>
      </trkpt>
      <trkpt lat="46.17481" lon="4.72664">
        <ele>191.60000610352</ele>
        <time>2020-06-10T13:50:17.000Z</time>
      </trkpt>
      <trkpt lat="46.17478" lon="4.72659">
        <ele>191.39999389648</ele>
        <time>2020-06-10T13:50:18.000Z</time>
      </trkpt>
      <trkpt lat="46.17474" lon="4.72654">
        <ele>191.19999694824</ele>
        <time>2020-06-10T13:50:19.000Z</time>
      </trkpt>
      <trkpt lat="46.17455" lon="4.72635">
        <ele>190.80000305176</ele>
        <time>2020-06-10T13:50:23.000Z</time>
      </trkpt>
      <trkpt lat="46.17442" lon="4.72616">
        <ele>190.60000610352</ele>
        <time>2020-06-10T13:50:26.000Z</time>
      </trkpt>
      <trkpt lat="46.17435" lon="4.72602">
        <ele>190.60000610352</ele>
        <time>2020-06-10T13:50:28.000Z</time>
      </trkpt>
      <trkpt lat="46.17362" lon="4.7252">
        <ele>192.39999389648</ele>
        <time>2020-06-10T13:50:43.000Z</time>
      </trkpt>
      <trkpt lat="46.17302" lon="4.72482">
        <ele>195.80000305176</ele>
        <time>2020-06-10T13:50:54.000Z</time>
      </trkpt>
      <trkpt lat="46.17256" lon="4.72461">
        <ele>198.80000305176</ele>
        <time>2020-06-10T13:51:02.000Z</time>
      </trkpt>
      <trkpt lat="46.17204" lon="4.72431">
        <ele>200.80000305176</ele>
        <time>2020-06-10T13:51:14.000Z</time>
      </trkpt>
      <trkpt lat="46.17191" lon="4.72427">
        <ele>201.60000610352</ele>
        <time>2020-06-10T13:51:17.000Z</time>
      </trkpt>
      <trkpt lat="46.17078" lon="4.72388">
        <ele>204.80000305176</ele>
        <time>2020-06-10T13:51:36.000Z</time>
      </trkpt>
      <trkpt lat="46.17048" lon="4.72381">
        <ele>205.39999389648</ele>
        <time>2020-06-10T13:51:41.000Z</time>
      </trkpt>
      <trkpt lat="46.17024" lon="4.72383">
        <ele>205.60000610352</ele>
        <time>2020-06-10T13:51:45.000Z</time>
      </trkpt>
      <trkpt lat="46.17001" lon="4.72381">
        <ele>206.19999694824</ele>
        <time>2020-06-10T13:51:49.000Z</time>
      </trkpt>
      <trkpt lat="46.16919" lon="4.72347">
        <ele>206.80000305176</ele>
        <time>2020-06-10T13:52:03.000Z</time>
      </trkpt>
      <trkpt lat="46.16911" lon="4.72344">
        <ele>206.80000305176</ele>
        <time>2020-06-10T13:52:05.000Z</time>
      </trkpt>
      <trkpt lat="46.16902" lon="4.72364">
        <ele>207.19999694824</ele>
        <time>2020-06-10T13:52:10.000Z</time>
      </trkpt>
      <trkpt lat="46.16911" lon="4.72528">
        <ele>207.39999389648</ele>
        <time>2020-06-10T13:52:27.000Z</time>
      </trkpt>
      <trkpt lat="46.16912" lon="4.72558">
        <ele>206.80000305176</ele>
        <time>2020-06-10T13:52:30.000Z</time>
      </trkpt>
      <trkpt lat="46.16926" lon="4.72681">
        <ele>205.39999389648</ele>
        <time>2020-06-10T13:52:43.000Z</time>
      </trkpt>
      <trkpt lat="46.16923" lon="4.72718">
        <ele>205.19999694824</ele>
        <time>2020-06-10T13:52:47.000Z</time>
      </trkpt>
      <trkpt lat="46.16904" lon="4.72747">
        <ele>204.80000305176</ele>
        <time>2020-06-10T13:52:54.000Z</time>
      </trkpt>
      <trkpt lat="46.16886" lon="4.72743">
        <ele>204.60000610352</ele>
        <time>2020-06-10T13:52:57.000Z</time>
      </trkpt>
      <trkpt lat="46.16845" lon="4.72719">
        <ele>203.60000610352</ele>
        <time>2020-06-10T13:53:04.000Z</time>
      </trkpt>
      <trkpt lat="46.16827" lon="4.72715">
        <ele>203.19999694824</ele>
        <time>2020-06-10T13:53:07.000Z</time>
      </trkpt>
      <trkpt lat="46.1679" lon="4.72714">
        <ele>203</ele>
        <time>2020-06-10T13:53:13.000Z</time>
      </trkpt>
      <trkpt lat="46.16748" lon="4.72734">
        <ele>202.80000305176</ele>
        <time>2020-06-10T13:53:22.000Z</time>
      </trkpt>
      <trkpt lat="46.16735" lon="4.72733">
        <ele>202.80000305176</ele>
        <time>2020-06-10T13:53:25.000Z</time>
      </trkpt>
      <trkpt lat="46.16691" lon="4.72721">
        <ele>202.39999389648</ele>
        <time>2020-06-10T13:53:32.000Z</time>
      </trkpt>
      <trkpt lat="46.16614" lon="4.72684">
        <ele>201.19999694824</ele>
        <time>2020-06-10T13:53:45.000Z</time>
      </trkpt>
      <trkpt lat="46.16547" lon="4.72676">
        <ele>199.19999694824</ele>
        <time>2020-06-10T13:53:57.000Z</time>
      </trkpt>
      <trkpt lat="46.16532" lon="4.72687">
        <ele>198.60000610352</ele>
        <time>2020-06-10T13:54:02.000Z</time>
      </trkpt>
      <trkpt lat="46.16515" lon="4.72679">
        <ele>198.19999694824</ele>
        <time>2020-06-10T13:54:05.000Z</time>
      </trkpt>
      <trkpt lat="46.16442" lon="4.72677">
        <ele>196.19999694824</ele>
        <time>2020-06-10T13:54:17.000Z</time>
      </trkpt>
      <trkpt lat="46.16381" lon="4.72687">
        <ele>194</ele>
        <time>2020-06-10T13:54:27.000Z</time>
      </trkpt>
      <trkpt lat="46.1635" lon="4.72691">
        <ele>193</ele>
        <time>2020-06-10T13:54:33.000Z</time>
      </trkpt>
      <trkpt lat="46.16339" lon="4.72691">
        <ele>192.80000305176</ele>
        <time>2020-06-10T13:54:35.000Z</time>
      </trkpt>
      <trkpt lat="46.16261" lon="4.72671">
        <ele>192.60000610352</ele>
        <time>2020-06-10T13:54:49.000Z</time>
      </trkpt>
      <trkpt lat="46.16242" lon="4.72661">
        <ele>192.80000305176</ele>
        <time>2020-06-10T13:54:53.000Z</time>
      </trkpt>
      <trkpt lat="46.1621" lon="4.72642">
        <ele>194.19999694824</ele>
        <time>2020-06-10T13:55:03.000Z</time>
      </trkpt>
      <trkpt lat="46.16205" lon="4.7264">
        <ele>195.19999694824</ele>
        <time>2020-06-10T13:55:08.000Z</time>
      </trkpt>
      <trkpt lat="46.16203" lon="4.72641">
        <ele>196.60000610352</ele>
        <time>2020-06-10T13:55:15.000Z</time>
      </trkpt>
      <trkpt lat="46.16197" lon="4.72638">
        <ele>196.60000610352</ele>
        <time>2020-06-10T13:55:18.000Z</time>
      </trkpt>
      <trkpt lat="46.16159" lon="4.72622">
        <ele>196.19999694824</ele>
        <time>2020-06-10T13:55:27.000Z</time>
      </trkpt>
      <trkpt lat="46.16123" lon="4.7263">
        <ele>195.39999389648</ele>
        <time>2020-06-10T13:55:34.000Z</time>
      </trkpt>
      <trkpt lat="46.16107" lon="4.72637">
        <ele>195.39999389648</ele>
        <time>2020-06-10T13:55:38.000Z</time>
      </trkpt>
      <trkpt lat="46.161" lon="4.7264">
        <ele>195.60000610352</ele>
        <time>2020-06-10T13:55:41.000Z</time>
      </trkpt>
      <trkpt lat="46.16097" lon="4.72593">
        <ele>197.19999694824</ele>
        <time>2020-06-10T13:55:49.000Z</time>
      </trkpt>
      <trkpt lat="46.16097" lon="4.72584">
        <ele>197.19999694824</ele>
        <time>2020-06-10T13:55:50.000Z</time>
      </trkpt>
      <trkpt lat="46.16105" lon="4.72482">
        <ele>196.80000305176</ele>
        <time>2020-06-10T13:56:03.000Z</time>
      </trkpt>
      <trkpt lat="46.16117" lon="4.72384">
        <ele>199.60000610352</ele>
        <time>2020-06-10T13:56:15.000Z</time>
      </trkpt>
      <trkpt lat="46.16118" lon="4.72358">
        <ele>200</ele>
        <time>2020-06-10T13:56:18.000Z</time>
      </trkpt>
      <trkpt lat="46.16118" lon="4.72336">
        <ele>200.60000610352</ele>
        <time>2020-06-10T13:56:21.000Z</time>
      </trkpt>
      <trkpt lat="46.16092" lon="4.72317">
        <ele>201.60000610352</ele>
        <time>2020-06-10T13:56:27.000Z</time>
      </trkpt>
      <trkpt lat="46.16062" lon="4.72312">
        <ele>203.80000305176</ele>
        <time>2020-06-10T13:56:32.000Z</time>
      </trkpt>
      <trkpt lat="46.16004" lon="4.72299">
        <ele>206.60000610352</ele>
        <time>2020-06-10T13:56:42.000Z</time>
      </trkpt>
      <trkpt lat="46.15974" lon="4.72289">
        <ele>208.19999694824</ele>
        <time>2020-06-10T13:56:47.000Z</time>
      </trkpt>
      <trkpt lat="46.15963" lon="4.72282">
        <ele>208.80000305176</ele>
        <time>2020-06-10T13:56:49.000Z</time>
      </trkpt>
      <trkpt lat="46.15931" lon="4.72256">
        <ele>210.60000610352</ele>
        <time>2020-06-10T13:56:55.000Z</time>
      </trkpt>
      <trkpt lat="46.15851" lon="4.72236">
        <ele>212.60000610352</ele>
        <time>2020-06-10T13:57:09.000Z</time>
      </trkpt>
      <trkpt lat="46.1585" lon="4.72239">
        <ele>213</ele>
        <time>2020-06-10T13:57:14.000Z</time>
      </trkpt>
      <trkpt lat="46.15879" lon="4.72248">
        <ele>213.39999389648</ele>
        <time>2020-06-10T13:57:23.000Z</time>
      </trkpt>
      <trkpt lat="46.15878" lon="4.72245">
        <ele>213.80000305176</ele>
        <time>2020-06-10T13:57:27.000Z</time>
      </trkpt>
      <trkpt lat="46.15846" lon="4.72237">
        <ele>213.80000305176</ele>
        <time>2020-06-10T13:57:36.000Z</time>
      </trkpt>
      <trkpt lat="46.15842" lon="4.72234">
        <ele>214.19999694824</ele>
        <time>2020-06-10T13:57:41.000Z</time>
      </trkpt>
      <trkpt lat="46.15836" lon="4.72233">
        <ele>214.19999694824</ele>
        <time>2020-06-10T13:57:44.000Z</time>
      </trkpt>
      <trkpt lat="46.1579" lon="4.72217">
        <ele>214.19999694824</ele>
        <time>2020-06-10T13:57:54.000Z</time>
      </trkpt>
      <trkpt lat="46.15796" lon="4.72193">
        <ele>214</ele>
        <time>2020-06-10T13:58:00.000Z</time>
      </trkpt>
      <trkpt lat="46.15804" lon="4.7218">
        <ele>213.80000305176</ele>
        <time>2020-06-10T13:58:02.000Z</time>
      </trkpt>
      <trkpt lat="46.15852" lon="4.72143">
        <ele>211.80000305176</ele>
        <time>2020-06-10T13:58:11.000Z</time>
      </trkpt>
      <trkpt lat="46.15869" lon="4.72122">
        <ele>211.60000610352</ele>
        <time>2020-06-10T13:58:16.000Z</time>
      </trkpt>
      <trkpt lat="46.15868" lon="4.72107">
        <ele>211.80000305176</ele>
        <time>2020-06-10T13:58:19.000Z</time>
      </trkpt>
      <trkpt lat="46.15861" lon="4.72045">
        <ele>214.60000610352</ele>
        <time>2020-06-10T13:58:27.000Z</time>
      </trkpt>
      <trkpt lat="46.15861" lon="4.7203">
        <ele>214.80000305176</ele>
        <time>2020-06-10T13:58:29.000Z</time>
      </trkpt>
      <trkpt lat="46.15862" lon="4.72022">
        <ele>214.80000305176</ele>
        <time>2020-06-10T13:58:30.000Z</time>
      </trkpt>
      <trkpt lat="46.15865" lon="4.71911">
        <ele>216.39999389648</ele>
        <time>2020-06-10T13:58:44.000Z</time>
      </trkpt>
      <trkpt lat="46.15863" lon="4.7189">
        <ele>216.80000305176</ele>
        <time>2020-06-10T13:58:47.000Z</time>
      </trkpt>
      <trkpt lat="46.15866" lon="4.71836">
        <ele>217.80000305176</ele>
        <time>2020-06-10T13:58:54.000Z</time>
      </trkpt>
      <trkpt lat="46.15881" lon="4.71785">
        <ele>218.60000610352</ele>
        <time>2020-06-10T13:59:01.000Z</time>
      </trkpt>
      <trkpt lat="46.15901" lon="4.71753">
        <ele>218.60000610352</ele>
        <time>2020-06-10T13:59:07.000Z</time>
      </trkpt>
      <trkpt lat="46.15928" lon="4.71636">
        <ele>218.19999694824</ele>
        <time>2020-06-10T13:59:23.000Z</time>
      </trkpt>
      <trkpt lat="46.15925" lon="4.71626">
        <ele>218.19999694824</ele>
        <time>2020-06-10T13:59:25.000Z</time>
      </trkpt>
      <trkpt lat="46.15918" lon="4.71596">
        <ele>218.19999694824</ele>
        <time>2020-06-10T13:59:29.000Z</time>
      </trkpt>
      <trkpt lat="46.15902" lon="4.71513">
        <ele>218.80000305176</ele>
        <time>2020-06-10T13:59:39.000Z</time>
      </trkpt>
      <trkpt lat="46.15875" lon="4.7146">
        <ele>219.60000610352</ele>
        <time>2020-06-10T13:59:48.000Z</time>
      </trkpt>
      <trkpt lat="46.15848" lon="4.71356">
        <ele>221</ele>
        <time>2020-06-10T14:00:01.000Z</time>
      </trkpt>
      <trkpt lat="46.15844" lon="4.7134">
        <ele>221.19999694824</ele>
        <time>2020-06-10T14:00:03.000Z</time>
      </trkpt>
      <trkpt lat="46.15837" lon="4.71301">
        <ele>221.19999694824</ele>
        <time>2020-06-10T14:00:08.000Z</time>
      </trkpt>
      <trkpt lat="46.15839" lon="4.7119">
        <ele>224.60000610352</ele>
        <time>2020-06-10T14:00:21.000Z</time>
      </trkpt>
      <trkpt lat="46.15835" lon="4.71085">
        <ele>226.60000610352</ele>
        <time>2020-06-10T14:00:34.000Z</time>
      </trkpt>
      <trkpt lat="46.15825" lon="4.71059">
        <ele>227.39999389648</ele>
        <time>2020-06-10T14:00:39.000Z</time>
      </trkpt>
      <trkpt lat="46.15815" lon="4.71052">
        <ele>227.60000610352</ele>
        <time>2020-06-10T14:00:41.000Z</time>
      </trkpt>
      <trkpt lat="46.15799" lon="4.71034">
        <ele>228</ele>
        <time>2020-06-10T14:00:45.000Z</time>
      </trkpt>
      <trkpt lat="46.1571" lon="4.70983">
        <ele>227.60000610352</ele>
        <time>2020-06-10T14:01:00.000Z</time>
      </trkpt>
      <trkpt lat="46.15599" lon="4.70914">
        <ele>225.60000610352</ele>
        <time>2020-06-10T14:01:19.000Z</time>
      </trkpt>
      <trkpt lat="46.15523" lon="4.70848">
        <ele>224.60000610352</ele>
        <time>2020-06-10T14:01:33.000Z</time>
      </trkpt>
      <trkpt lat="46.15422" lon="4.70768">
        <ele>221.80000305176</ele>
        <time>2020-06-10T14:01:52.000Z</time>
      </trkpt>
      <trkpt lat="46.15409" lon="4.70759">
        <ele>221.19999694824</ele>
        <time>2020-06-10T14:01:55.000Z</time>
      </trkpt>
      <trkpt lat="46.15389" lon="4.70771">
        <ele>220.60000610352</ele>
        <time>2020-06-10T14:01:59.000Z</time>
      </trkpt>
      <trkpt lat="46.15375" lon="4.70793">
        <ele>220.19999694824</ele>
        <time>2020-06-10T14:02:02.000Z</time>
      </trkpt>
      <trkpt lat="46.15363" lon="4.70859">
        <ele>217.60000610352</ele>
        <time>2020-06-10T14:02:09.000Z</time>
      </trkpt>
      <trkpt lat="46.15359" lon="4.70908">
        <ele>217</ele>
        <time>2020-06-10T14:02:14.000Z</time>
      </trkpt>
      <trkpt lat="46.15352" lon="4.71044">
        <ele>218.39999389648</ele>
        <time>2020-06-10T14:02:29.000Z</time>
      </trkpt>
      <trkpt lat="46.15352" lon="4.71062">
        <ele>218.60000610352</ele>
        <time>2020-06-10T14:02:31.000Z</time>
      </trkpt>
      <trkpt lat="46.15361" lon="4.71104">
        <ele>218.80000305176</ele>
        <time>2020-06-10T14:02:36.000Z</time>
      </trkpt>
      <trkpt lat="46.15411" lon="4.71197">
        <ele>219</ele>
        <time>2020-06-10T14:02:51.000Z</time>
      </trkpt>
      <trkpt lat="46.15413" lon="4.712">
        <ele>219</ele>
        <time>2020-06-10T14:02:52.000Z</time>
      </trkpt>
      <trkpt lat="46.15441" lon="4.71257">
        <ele>219.19999694824</ele>
        <time>2020-06-10T14:03:01.000Z</time>
      </trkpt>
      <trkpt lat="46.1544" lon="4.71295">
        <ele>219.80000305176</ele>
        <time>2020-06-10T14:03:09.000Z</time>
      </trkpt>
      <trkpt lat="46.15425" lon="4.71289">
        <ele>220</ele>
        <time>2020-06-10T14:03:13.000Z</time>
      </trkpt>
      <trkpt lat="46.15423" lon="4.7129">
        <ele>220.80000305176</ele>
        <time>2020-06-10T14:03:20.000Z</time>
      </trkpt>
      <trkpt lat="46.15432" lon="4.71292">
        <ele>221</ele>
        <time>2020-06-10T14:03:26.000Z</time>
      </trkpt>
      <trkpt lat="46.1544" lon="4.71296">
        <ele>221</ele>
        <time>2020-06-10T14:03:29.000Z</time>
      </trkpt>
      <trkpt lat="46.1544" lon="4.71314">
        <ele>220.80000305176</ele>
        <time>2020-06-10T14:03:33.000Z</time>
      </trkpt>
      <trkpt lat="46.15437" lon="4.71329">
        <ele>220.60000610352</ele>
        <time>2020-06-10T14:03:36.000Z</time>
      </trkpt>
      <trkpt lat="46.15423" lon="4.71332">
        <ele>220.39999389648</ele>
        <time>2020-06-10T14:03:40.000Z</time>
      </trkpt>
      <trkpt lat="46.15308" lon="4.71295">
        <ele>218.19999694824</ele>
        <time>2020-06-10T14:03:59.000Z</time>
      </trkpt>
      <trkpt lat="46.15218" lon="4.71269">
        <ele>216</ele>
        <time>2020-06-10T14:04:14.000Z</time>
      </trkpt>
      <trkpt lat="46.1521" lon="4.71269">
        <ele>215.39999389648</ele>
        <time>2020-06-10T14:04:17.000Z</time>
      </trkpt>
      <trkpt lat="46.15208" lon="4.71272">
        <ele>215.19999694824</ele>
        <time>2020-06-10T14:04:18.000Z</time>
      </trkpt>
      <trkpt lat="46.15206" lon="4.71278">
        <ele>215.19999694824</ele>
        <time>2020-06-10T14:04:19.000Z</time>
      </trkpt>
      <trkpt lat="46.15205" lon="4.71284">
        <ele>215.19999694824</ele>
        <time>2020-06-10T14:04:20.000Z</time>
      </trkpt>
      <trkpt lat="46.15204" lon="4.71292">
        <ele>215.19999694824</ele>
        <time>2020-06-10T14:04:21.000Z</time>
      </trkpt>
      <trkpt lat="46.15192" lon="4.71354">
        <ele>214.39999389648</ele>
        <time>2020-06-10T14:04:29.000Z</time>
      </trkpt>
      <trkpt lat="46.15173" lon="4.71394">
        <ele>213</ele>
        <time>2020-06-10T14:04:37.000Z</time>
      </trkpt>
      <trkpt lat="46.15153" lon="4.715">
        <ele>211</ele>
        <time>2020-06-10T14:04:50.000Z</time>
      </trkpt>
      <trkpt lat="46.1516" lon="4.71531">
        <ele>210.80000305176</ele>
        <time>2020-06-10T14:04:55.000Z</time>
      </trkpt>
      <trkpt lat="46.15197" lon="4.71605">
        <ele>211.19999694824</ele>
        <time>2020-06-10T14:05:07.000Z</time>
      </trkpt>
      <trkpt lat="46.15195" lon="4.71632">
        <ele>211.60000610352</ele>
        <time>2020-06-10T14:05:11.000Z</time>
      </trkpt>
      <trkpt lat="46.15164" lon="4.71787">
        <ele>212.80000305176</ele>
        <time>2020-06-10T14:05:29.000Z</time>
      </trkpt>
      <trkpt lat="46.15153" lon="4.71905">
        <ele>213.19999694824</ele>
        <time>2020-06-10T14:05:43.000Z</time>
      </trkpt>
      <trkpt lat="46.15151" lon="4.71926">
        <ele>213.19999694824</ele>
        <time>2020-06-10T14:05:46.000Z</time>
      </trkpt>
      <trkpt lat="46.15122" lon="4.71919">
        <ele>212.80000305176</ele>
        <time>2020-06-10T14:05:54.000Z</time>
      </trkpt>
      <trkpt lat="46.15113" lon="4.71913">
        <ele>212.60000610352</ele>
        <time>2020-06-10T14:05:56.000Z</time>
      </trkpt>
      <trkpt lat="46.15066" lon="4.7184">
        <ele>211.80000305176</ele>
        <time>2020-06-10T14:06:07.000Z</time>
      </trkpt>
      <trkpt lat="46.14999" lon="4.71718">
        <ele>210.19999694824</ele>
        <time>2020-06-10T14:06:23.000Z</time>
      </trkpt>
      <trkpt lat="46.14981" lon="4.71697">
        <ele>209.60000610352</ele>
        <time>2020-06-10T14:06:26.000Z</time>
      </trkpt>
      <trkpt lat="46.1495" lon="4.71681">
        <ele>208.39999389648</ele>
        <time>2020-06-10T14:06:30.000Z</time>
      </trkpt>
      <trkpt lat="46.14903" lon="4.7168">
        <ele>206.80000305176</ele>
        <time>2020-06-10T14:06:35.000Z</time>
      </trkpt>
      <trkpt lat="46.14871" lon="4.71666">
        <ele>204.39999389648</ele>
        <time>2020-06-10T14:06:39.000Z</time>
      </trkpt>
      <trkpt lat="46.14857" lon="4.71654">
        <ele>201.60000610352</ele>
        <time>2020-06-10T14:06:42.000Z</time>
      </trkpt>
      <trkpt lat="46.14853" lon="4.71624">
        <ele>200.60000610352</ele>
        <time>2020-06-10T14:06:47.000Z</time>
      </trkpt>
      <trkpt lat="46.14854" lon="4.71546">
        <ele>200.60000610352</ele>
        <time>2020-06-10T14:06:56.000Z</time>
      </trkpt>
      <trkpt lat="46.14846" lon="4.71498">
        <ele>201.19999694824</ele>
        <time>2020-06-10T14:07:02.000Z</time>
      </trkpt>
      <trkpt lat="46.14848" lon="4.71456">
        <ele>203.60000610352</ele>
        <time>2020-06-10T14:07:07.000Z</time>
      </trkpt>
      <trkpt lat="46.14852" lon="4.71378">
        <ele>204.80000305176</ele>
        <time>2020-06-10T14:07:17.000Z</time>
      </trkpt>
      <trkpt lat="46.14853" lon="4.71366">
        <ele>205.19999694824</ele>
        <time>2020-06-10T14:07:19.000Z</time>
      </trkpt>
      <trkpt lat="46.1484" lon="4.71348">
        <ele>207</ele>
        <time>2020-06-10T14:07:24.000Z</time>
      </trkpt>
      <trkpt lat="46.14826" lon="4.71294">
        <ele>208.39999389648</ele>
        <time>2020-06-10T14:07:33.000Z</time>
      </trkpt>
      <trkpt lat="46.14815" lon="4.71158">
        <ele>207</ele>
        <time>2020-06-10T14:07:49.000Z</time>
      </trkpt>
      <trkpt lat="46.14802" lon="4.71043">
        <ele>208.39999389648</ele>
        <time>2020-06-10T14:08:03.000Z</time>
      </trkpt>
      <trkpt lat="46.14792" lon="4.7095">
        <ele>209</ele>
        <time>2020-06-10T14:08:16.000Z</time>
      </trkpt>
      <trkpt lat="46.14766" lon="4.70902">
        <ele>210</ele>
        <time>2020-06-10T14:08:26.000Z</time>
      </trkpt>
      <trkpt lat="46.14763" lon="4.70896">
        <ele>210</ele>
        <time>2020-06-10T14:08:27.000Z</time>
      </trkpt>
      <trkpt lat="46.14757" lon="4.7086">
        <ele>210.19999694824</ele>
        <time>2020-06-10T14:08:32.000Z</time>
      </trkpt>
      <trkpt lat="46.14749" lon="4.70806">
        <ele>210</ele>
        <time>2020-06-10T14:08:39.000Z</time>
      </trkpt>
      <trkpt lat="46.14717" lon="4.70718">
        <ele>210.80000305176</ele>
        <time>2020-06-10T14:08:51.000Z</time>
      </trkpt>
      <trkpt lat="46.14661" lon="4.70567">
        <ele>212.60000610352</ele>
        <time>2020-06-10T14:09:11.000Z</time>
      </trkpt>
      <trkpt lat="46.14624" lon="4.70478">
        <ele>214.19999694824</ele>
        <time>2020-06-10T14:09:24.000Z</time>
      </trkpt>
      <trkpt lat="46.14592" lon="4.70379">
        <ele>215</ele>
        <time>2020-06-10T14:09:37.000Z</time>
      </trkpt>
      <trkpt lat="46.14558" lon="4.7032">
        <ele>216.39999389648</ele>
        <time>2020-06-10T14:09:47.000Z</time>
      </trkpt>
      <trkpt lat="46.14486" lon="4.70304">
        <ele>218.60000610352</ele>
        <time>2020-06-10T14:10:01.000Z</time>
      </trkpt>
      <trkpt lat="46.14482" lon="4.70304">
        <ele>218.80000305176</ele>
        <time>2020-06-10T14:10:02.000Z</time>
      </trkpt>
      <trkpt lat="46.14478" lon="4.70276">
        <ele>219.39999389648</ele>
        <time>2020-06-10T14:10:09.000Z</time>
      </trkpt>
      <trkpt lat="46.14476" lon="4.70265">
        <ele>219.60000610352</ele>
        <time>2020-06-10T14:10:11.000Z</time>
      </trkpt>
      <trkpt lat="46.14448" lon="4.70137">
        <ele>220</ele>
        <time>2020-06-10T14:10:27.000Z</time>
      </trkpt>
      <trkpt lat="46.14441" lon="4.70107">
        <ele>220.19999694824</ele>
        <time>2020-06-10T14:10:31.000Z</time>
      </trkpt>
      <trkpt lat="46.14424" lon="4.70005">
        <ele>223.39999389648</ele>
        <time>2020-06-10T14:10:44.000Z</time>
      </trkpt>
      <trkpt lat="46.14421" lon="4.69987">
        <ele>224</ele>
        <time>2020-06-10T14:10:47.000Z</time>
      </trkpt>
      <trkpt lat="46.14433" lon="4.69973">
        <ele>225</ele>
        <time>2020-06-10T14:10:51.000Z</time>
      </trkpt>
      <trkpt lat="46.14447" lon="4.69945">
        <ele>225.80000305176</ele>
        <time>2020-06-10T14:10:57.000Z</time>
      </trkpt>
      <trkpt lat="46.14448" lon="4.6993">
        <ele>226</ele>
        <time>2020-06-10T14:10:59.000Z</time>
      </trkpt>
      <trkpt lat="46.14457" lon="4.69902">
        <ele>226.19999694824</ele>
        <time>2020-06-10T14:11:03.000Z</time>
      </trkpt>
      <trkpt lat="46.14495" lon="4.69828">
        <ele>226.80000305176</ele>
        <time>2020-06-10T14:11:17.000Z</time>
      </trkpt>
      <trkpt lat="46.14506" lon="4.69808">
        <ele>227.19999694824</ele>
        <time>2020-06-10T14:11:23.000Z</time>
      </trkpt>
      <trkpt lat="46.14543" lon="4.69739">
        <ele>227.39999389648</ele>
        <time>2020-06-10T14:11:35.000Z</time>
      </trkpt>
      <trkpt lat="46.14545" lon="4.69731">
        <ele>227.39999389648</ele>
        <time>2020-06-10T14:11:37.000Z</time>
      </trkpt>
      <trkpt lat="46.14543" lon="4.69727">
        <ele>227.39999389648</ele>
        <time>2020-06-10T14:11:38.000Z</time>
      </trkpt>
      <trkpt lat="46.14541" lon="4.69725">
        <ele>227.39999389648</ele>
        <time>2020-06-10T14:11:39.000Z</time>
      </trkpt>
      <trkpt lat="46.14537" lon="4.69723">
        <ele>227.39999389648</ele>
        <time>2020-06-10T14:11:40.000Z</time>
      </trkpt>
      <trkpt lat="46.14533" lon="4.69721">
        <ele>227.19999694824</ele>
        <time>2020-06-10T14:11:41.000Z</time>
      </trkpt>
      <trkpt lat="46.1453" lon="4.6972">
        <ele>227.19999694824</ele>
        <time>2020-06-10T14:11:42.000Z</time>
      </trkpt>
      <trkpt lat="46.14537" lon="4.69697">
        <ele>227.19999694824</ele>
        <time>2020-06-10T14:11:50.000Z</time>
      </trkpt>
      <trkpt lat="46.14537" lon="4.69693">
        <ele>227</ele>
        <time>2020-06-10T14:11:51.000Z</time>
      </trkpt>
      <trkpt lat="46.14526" lon="4.69677">
        <ele>226.39999389648</ele>
        <time>2020-06-10T14:11:56.000Z</time>
      </trkpt>
      <trkpt lat="46.14519" lon="4.69641">
        <ele>224.60000610352</ele>
        <time>2020-06-10T14:12:06.000Z</time>
      </trkpt>
      <trkpt lat="46.14526" lon="4.69637">
        <ele>224.39999389648</ele>
        <time>2020-06-10T14:12:08.000Z</time>
      </trkpt>
      <trkpt lat="46.14538" lon="4.69629">
        <ele>224.19999694824</ele>
        <time>2020-06-10T14:12:12.000Z</time>
      </trkpt>
      <trkpt lat="46.14563" lon="4.69649">
        <ele>222.19999694824</ele>
        <time>2020-06-10T14:12:22.000Z</time>
      </trkpt>
      <trkpt lat="46.14583" lon="4.69665">
        <ele>222.60000610352</ele>
        <time>2020-06-10T14:12:32.000Z</time>
      </trkpt>
      <trkpt lat="46.14587" lon="4.69666">
        <ele>222.60000610352</ele>
        <time>2020-06-10T14:12:34.000Z</time>
      </trkpt>
      <trkpt lat="46.14591" lon="4.69657">
        <ele>222.80000305176</ele>
        <time>2020-06-10T14:12:38.000Z</time>
      </trkpt>
      <trkpt lat="46.14577" lon="4.69564">
        <ele>224.60000610352</ele>
        <time>2020-06-10T14:12:51.000Z</time>
      </trkpt>
      <trkpt lat="46.14564" lon="4.69483">
        <ele>225.80000305176</ele>
        <time>2020-06-10T14:13:01.000Z</time>
      </trkpt>
      <trkpt lat="46.14543" lon="4.69355">
        <ele>227.80000305176</ele>
        <time>2020-06-10T14:13:18.000Z</time>
      </trkpt>
      <trkpt lat="46.14526" lon="4.69243">
        <ele>229.80000305176</ele>
        <time>2020-06-10T14:13:33.000Z</time>
      </trkpt>
      <trkpt lat="46.14521" lon="4.69219">
        <ele>230.19999694824</ele>
        <time>2020-06-10T14:13:37.000Z</time>
      </trkpt>
      <trkpt lat="46.14506" lon="4.69124">
        <ele>233.19999694824</ele>
        <time>2020-06-10T14:13:51.000Z</time>
      </trkpt>
      <trkpt lat="46.14485" lon="4.69125">
        <ele>234.39999389648</ele>
        <time>2020-06-10T14:13:57.000Z</time>
      </trkpt>
      <trkpt lat="46.14415" lon="4.69168">
        <ele>235</ele>
        <time>2020-06-10T14:14:10.000Z</time>
      </trkpt>
      <trkpt lat="46.14378" lon="4.69189">
        <ele>234</ele>
        <time>2020-06-10T14:14:17.000Z</time>
      </trkpt>
      <trkpt lat="46.14364" lon="4.69147">
        <ele>232.60000610352</ele>
        <time>2020-06-10T14:14:24.000Z</time>
      </trkpt>
      <trkpt lat="46.14378" lon="4.6908">
        <ele>231.80000305176</ele>
        <time>2020-06-10T14:14:33.000Z</time>
      </trkpt>
      <trkpt lat="46.14387" lon="4.69059">
        <ele>231.60000610352</ele>
        <time>2020-06-10T14:14:36.000Z</time>
      </trkpt>
      <trkpt lat="46.14405" lon="4.68971">
        <ele>234.80000305176</ele>
        <time>2020-06-10T14:14:47.000Z</time>
      </trkpt>
      <trkpt lat="46.14411" lon="4.6893">
        <ele>236</ele>
        <time>2020-06-10T14:14:52.000Z</time>
      </trkpt>
      <trkpt lat="46.14413" lon="4.68914">
        <ele>236.39999389648</ele>
        <time>2020-06-10T14:14:54.000Z</time>
      </trkpt>
      <trkpt lat="46.14431" lon="4.68816">
        <ele>239.39999389648</ele>
        <time>2020-06-10T14:15:07.000Z</time>
      </trkpt>
      <trkpt lat="46.1443" lon="4.68811">
        <ele>240.19999694824</ele>
        <time>2020-06-10T14:15:09.000Z</time>
      </trkpt>
      <trkpt lat="46.14427" lon="4.68811">
        <ele>240.60000610352</ele>
        <time>2020-06-10T14:15:10.000Z</time>
      </trkpt>
      <trkpt lat="46.14423" lon="4.68812">
        <ele>240.80000305176</ele>
        <time>2020-06-10T14:15:11.000Z</time>
      </trkpt>
      <trkpt lat="46.14418" lon="4.68814">
        <ele>241</ele>
        <time>2020-06-10T14:15:12.000Z</time>
      </trkpt>
      <trkpt lat="46.14413" lon="4.68816">
        <ele>241.39999389648</ele>
        <time>2020-06-10T14:15:13.000Z</time>
      </trkpt>
      <trkpt lat="46.14351" lon="4.68831">
        <ele>242.19999694824</ele>
        <time>2020-06-10T14:15:25.000Z</time>
      </trkpt>
      <trkpt lat="46.14347" lon="4.68794">
        <ele>241.19999694824</ele>
        <time>2020-06-10T14:15:31.000Z</time>
      </trkpt>
      <trkpt lat="46.14348" lon="4.68726">
        <ele>239.60000610352</ele>
        <time>2020-06-10T14:15:39.000Z</time>
      </trkpt>
      <trkpt lat="46.14347" lon="4.6864">
        <ele>240.19999694824</ele>
        <time>2020-06-10T14:15:51.000Z</time>
      </trkpt>
      <trkpt lat="46.14353" lon="4.68612">
        <ele>241.39999389648</ele>
        <time>2020-06-10T14:15:58.000Z</time>
      </trkpt>
      <trkpt lat="46.14339" lon="4.68599">
        <ele>242</ele>
        <time>2020-06-10T14:16:03.000Z</time>
      </trkpt>
      <trkpt lat="46.1433" lon="4.68595">
        <ele>242</ele>
        <time>2020-06-10T14:16:05.000Z</time>
      </trkpt>
      <trkpt lat="46.14263" lon="4.68574">
        <ele>243.60000610352</ele>
        <time>2020-06-10T14:16:19.000Z</time>
      </trkpt>
      <trkpt lat="46.14261" lon="4.68574">
        <ele>243.60000610352</ele>
        <time>2020-06-10T14:16:20.000Z</time>
      </trkpt>
      <trkpt lat="46.14256" lon="4.68586">
        <ele>244.39999389648</ele>
        <time>2020-06-10T14:16:24.000Z</time>
      </trkpt>
      <trkpt lat="46.14246" lon="4.68662">
        <ele>246.19999694824</ele>
        <time>2020-06-10T14:16:34.000Z</time>
      </trkpt>
      <trkpt lat="46.14239" lon="4.68693">
        <ele>246.19999694824</ele>
        <time>2020-06-10T14:16:39.000Z</time>
      </trkpt>
      <trkpt lat="46.14226" lon="4.68695">
        <ele>246</ele>
        <time>2020-06-10T14:16:43.000Z</time>
      </trkpt>
      <trkpt lat="46.14173" lon="4.68665">
        <ele>246.39999389648</ele>
        <time>2020-06-10T14:16:55.000Z</time>
      </trkpt>
      <trkpt lat="46.14161" lon="4.68659">
        <ele>247.19999694824</ele>
        <time>2020-06-10T14:16:58.000Z</time>
      </trkpt>
      <trkpt lat="46.14153" lon="4.68655">
        <ele>248</ele>
        <time>2020-06-10T14:17:00.000Z</time>
      </trkpt>
      <trkpt lat="46.14145" lon="4.68648">
        <ele>248.60000610352</ele>
        <time>2020-06-10T14:17:03.000Z</time>
      </trkpt>
      <trkpt lat="46.1415" lon="4.68575">
        <ele>250</ele>
        <time>2020-06-10T14:17:14.000Z</time>
      </trkpt>
      <trkpt lat="46.1415" lon="4.68569">
        <ele>250</ele>
        <time>2020-06-10T14:17:15.000Z</time>
      </trkpt>
      <trkpt lat="46.14141" lon="4.68545">
        <ele>250.19999694824</ele>
        <time>2020-06-10T14:17:22.000Z</time>
      </trkpt>
      <trkpt lat="46.14108" lon="4.68555">
        <ele>251.60000610352</ele>
        <time>2020-06-10T14:17:28.000Z</time>
      </trkpt>
      <trkpt lat="46.14057" lon="4.68528">
        <ele>253</ele>
        <time>2020-06-10T14:17:38.000Z</time>
      </trkpt>
      <trkpt lat="46.13992" lon="4.6848">
        <ele>254.39999389648</ele>
        <time>2020-06-10T14:17:52.000Z</time>
      </trkpt>
      <trkpt lat="46.13987" lon="4.68475">
        <ele>254.39999389648</ele>
        <time>2020-06-10T14:17:55.000Z</time>
      </trkpt>
      <trkpt lat="46.13959" lon="4.68518">
        <ele>254</ele>
        <time>2020-06-10T14:18:04.000Z</time>
      </trkpt>
      <trkpt lat="46.1391" lon="4.68609">
        <ele>251</ele>
        <time>2020-06-10T14:18:15.000Z</time>
      </trkpt>
      <trkpt lat="46.13872" lon="4.68685">
        <ele>247.39999389648</ele>
        <time>2020-06-10T14:18:23.000Z</time>
      </trkpt>
      <trkpt lat="46.13869" lon="4.68691">
        <ele>246.80000305176</ele>
        <time>2020-06-10T14:18:24.000Z</time>
      </trkpt>
      <trkpt lat="46.13852" lon="4.68694">
        <ele>245</ele>
        <time>2020-06-10T14:18:28.000Z</time>
      </trkpt>
      <trkpt lat="46.13813" lon="4.68676">
        <ele>243.80000305176</ele>
        <time>2020-06-10T14:18:35.000Z</time>
      </trkpt>
      <trkpt lat="46.13787" lon="4.68654">
        <ele>239.60000610352</ele>
        <time>2020-06-10T14:18:41.000Z</time>
      </trkpt>
      <trkpt lat="46.13781" lon="4.68653">
        <ele>239.19999694824</ele>
        <time>2020-06-10T14:18:42.000Z</time>
      </trkpt>
      <trkpt lat="46.13768" lon="4.68653">
        <ele>238.19999694824</ele>
        <time>2020-06-10T14:18:44.000Z</time>
      </trkpt>
      <trkpt lat="46.13708" lon="4.68657">
        <ele>235</ele>
        <time>2020-06-10T14:18:52.000Z</time>
      </trkpt>
      <trkpt lat="46.13673" lon="4.68659">
        <ele>230.80000305176</ele>
        <time>2020-06-10T14:18:57.000Z</time>
      </trkpt>
      <trkpt lat="46.13666" lon="4.6866">
        <ele>230.60000610352</ele>
        <time>2020-06-10T14:18:58.000Z</time>
      </trkpt>
      <trkpt lat="46.13639" lon="4.68663">
        <ele>229</ele>
        <time>2020-06-10T14:19:02.000Z</time>
      </trkpt>
      <trkpt lat="46.13617" lon="4.68666">
        <ele>228.39999389648</ele>
        <time>2020-06-10T14:19:05.000Z</time>
      </trkpt>
      <trkpt lat="46.13572" lon="4.68668">
        <ele>226.39999389648</ele>
        <time>2020-06-10T14:19:12.000Z</time>
      </trkpt>
      <trkpt lat="46.13552" lon="4.68673">
        <ele>223.80000305176</ele>
        <time>2020-06-10T14:19:17.000Z</time>
      </trkpt>
      <trkpt lat="46.13547" lon="4.68669">
        <ele>223.60000610352</ele>
        <time>2020-06-10T14:19:18.000Z</time>
      </trkpt>
      <trkpt lat="46.13512" lon="4.6865">
        <ele>223.19999694824</ele>
        <time>2020-06-10T14:19:25.000Z</time>
      </trkpt>
      <trkpt lat="46.13504" lon="4.68651">
        <ele>223.39999389648</ele>
        <time>2020-06-10T14:19:27.000Z</time>
      </trkpt>
      <trkpt lat="46.13491" lon="4.68644">
        <ele>223.39999389648</ele>
        <time>2020-06-10T14:19:30.000Z</time>
      </trkpt>
      <trkpt lat="46.13457" lon="4.68633">
        <ele>224.39999389648</ele>
        <time>2020-06-10T14:19:40.000Z</time>
      </trkpt>
      <trkpt lat="46.13458" lon="4.68633">
        <ele>224.60000610352</ele>
        <time>2020-06-10T14:19:43.000Z</time>
      </trkpt>
      <trkpt lat="46.13444" lon="4.68628">
        <ele>225.19999694824</ele>
        <time>2020-06-10T14:20:01.000Z</time>
      </trkpt>
      <trkpt lat="46.13401" lon="4.68629">
        <ele>225.80000305176</ele>
        <time>2020-06-10T14:20:13.000Z</time>
      </trkpt>
      <trkpt lat="46.13372" lon="4.6863">
        <ele>226.39999389648</ele>
        <time>2020-06-10T14:20:21.000Z</time>
      </trkpt>
      <trkpt lat="46.13364" lon="4.68643">
        <ele>227.39999389648</ele>
        <time>2020-06-10T14:20:25.000Z</time>
      </trkpt>
      <trkpt lat="46.1334" lon="4.68717">
        <ele>229.60000610352</ele>
        <time>2020-06-10T14:20:40.000Z</time>
      </trkpt>
      <trkpt lat="46.13334" lon="4.68736">
        <ele>229.60000610352</ele>
        <time>2020-06-10T14:20:43.000Z</time>
      </trkpt>
      <trkpt lat="46.13317" lon="4.68809">
        <ele>228.60000610352</ele>
        <time>2020-06-10T14:20:54.000Z</time>
      </trkpt>
      <trkpt lat="46.1331" lon="4.68865">
        <ele>227.60000610352</ele>
        <time>2020-06-10T14:21:04.000Z</time>
      </trkpt>
      <trkpt lat="46.13272" lon="4.6888">
        <ele>226.80000305176</ele>
        <time>2020-06-10T14:21:12.000Z</time>
      </trkpt>
      <trkpt lat="46.13216" lon="4.68865">
        <ele>227.19999694824</ele>
        <time>2020-06-10T14:21:22.000Z</time>
      </trkpt>
      <trkpt lat="46.13205" lon="4.68845">
        <ele>229</ele>
        <time>2020-06-10T14:21:26.000Z</time>
      </trkpt>
      <trkpt lat="46.13204" lon="4.68823">
        <ele>230</ele>
        <time>2020-06-10T14:21:29.000Z</time>
      </trkpt>
      <trkpt lat="46.13199" lon="4.68758">
        <ele>233.39999389648</ele>
        <time>2020-06-10T14:21:38.000Z</time>
      </trkpt>
      <trkpt lat="46.13198" lon="4.68751">
        <ele>233.80000305176</ele>
        <time>2020-06-10T14:21:39.000Z</time>
      </trkpt>
      <trkpt lat="46.13197" lon="4.68689">
        <ele>237.19999694824</ele>
        <time>2020-06-10T14:21:47.000Z</time>
      </trkpt>
      <trkpt lat="46.132" lon="4.68673">
        <ele>238.39999389648</ele>
        <time>2020-06-10T14:21:49.000Z</time>
      </trkpt>
      <trkpt lat="46.13213" lon="4.68549">
        <ele>241.19999694824</ele>
        <time>2020-06-10T14:22:04.000Z</time>
      </trkpt>
      <trkpt lat="46.13216" lon="4.68525">
        <ele>241.39999389648</ele>
        <time>2020-06-10T14:22:07.000Z</time>
      </trkpt>
      <trkpt lat="46.13217" lon="4.68511">
        <ele>242.39999389648</ele>
        <time>2020-06-10T14:22:09.000Z</time>
      </trkpt>
      <trkpt lat="46.13219" lon="4.68497">
        <ele>242.80000305176</ele>
        <time>2020-06-10T14:22:11.000Z</time>
      </trkpt>
      <trkpt lat="46.13226" lon="4.68481">
        <ele>244</ele>
        <time>2020-06-10T14:22:14.000Z</time>
      </trkpt>
      <trkpt lat="46.13272" lon="4.68372">
        <ele>245.19999694824</ele>
        <time>2020-06-10T14:22:29.000Z</time>
      </trkpt>
      <trkpt lat="46.13301" lon="4.68242">
        <ele>247</ele>
        <time>2020-06-10T14:22:45.000Z</time>
      </trkpt>
      <trkpt lat="46.13322" lon="4.68182">
        <ele>248.60000610352</ele>
        <time>2020-06-10T14:22:53.000Z</time>
      </trkpt>
      <trkpt lat="46.13327" lon="4.68158">
        <ele>249</ele>
        <time>2020-06-10T14:22:56.000Z</time>
      </trkpt>
      <trkpt lat="46.13334" lon="4.68109">
        <ele>249.80000305176</ele>
        <time>2020-06-10T14:23:02.000Z</time>
      </trkpt>
      <trkpt lat="46.13382" lon="4.68023">
        <ele>251.60000610352</ele>
        <time>2020-06-10T14:23:15.000Z</time>
      </trkpt>
      <trkpt lat="46.13424" lon="4.6789">
        <ele>254</ele>
        <time>2020-06-10T14:23:32.000Z</time>
      </trkpt>
      <trkpt lat="46.1346" lon="4.67726">
        <ele>256.20001220703</ele>
        <time>2020-06-10T14:23:52.000Z</time>
      </trkpt>
      <trkpt lat="46.13485" lon="4.67612">
        <ele>259.20001220703</ele>
        <time>2020-06-10T14:24:06.000Z</time>
      </trkpt>
      <trkpt lat="46.13496" lon="4.67565">
        <ele>260.39999389648</ele>
        <time>2020-06-10T14:24:16.000Z</time>
      </trkpt>
      <trkpt lat="46.13495" lon="4.67565">
        <ele>261.60000610352</ele>
        <time>2020-06-10T14:24:19.000Z</time>
      </trkpt>
      <trkpt lat="46.13498" lon="4.67553">
        <ele>262.79998779297</ele>
        <time>2020-06-10T14:24:23.000Z</time>
      </trkpt>
      <trkpt lat="46.13499" lon="4.67528">
        <ele>262.79998779297</ele>
        <time>2020-06-10T14:24:27.000Z</time>
      </trkpt>
      <trkpt lat="46.1349" lon="4.67392">
        <ele>262.39999389648</ele>
        <time>2020-06-10T14:24:43.000Z</time>
      </trkpt>
      <trkpt lat="46.13502" lon="4.67254">
        <ele>260.39999389648</ele>
        <time>2020-06-10T14:24:58.000Z</time>
      </trkpt>
      <trkpt lat="46.13508" lon="4.67233">
        <ele>259.39999389648</ele>
        <time>2020-06-10T14:25:02.000Z</time>
      </trkpt>
      <trkpt lat="46.13508" lon="4.67228">
        <ele>259.60000610352</ele>
        <time>2020-06-10T14:25:09.000Z</time>
      </trkpt>
      <trkpt lat="46.13517" lon="4.67222">
        <ele>260.79998779297</ele>
        <time>2020-06-10T14:25:19.000Z</time>
      </trkpt>
      <trkpt lat="46.13563" lon="4.67155">
        <ele>258.39999389648</ele>
        <time>2020-06-10T14:25:30.000Z</time>
      </trkpt>
      <trkpt lat="46.13568" lon="4.67147">
        <ele>258.20001220703</ele>
        <time>2020-06-10T14:25:31.000Z</time>
      </trkpt>
      <trkpt lat="46.13573" lon="4.67093">
        <ele>257.39999389648</ele>
        <time>2020-06-10T14:25:36.000Z</time>
      </trkpt>
      <trkpt lat="46.13568" lon="4.67056">
        <ele>255.39999389648</ele>
        <time>2020-06-10T14:25:40.000Z</time>
      </trkpt>
      <trkpt lat="46.13579" lon="4.66951">
        <ele>257.60000610352</ele>
        <time>2020-06-10T14:25:53.000Z</time>
      </trkpt>
      <trkpt lat="46.13581" lon="4.66931">
        <ele>259.20001220703</ele>
        <time>2020-06-10T14:25:56.000Z</time>
      </trkpt>
      <trkpt lat="46.13565" lon="4.66922">
        <ele>260.20001220703</ele>
        <time>2020-06-10T14:26:01.000Z</time>
      </trkpt>
      <trkpt lat="46.13553" lon="4.66923">
        <ele>260.20001220703</ele>
        <time>2020-06-10T14:26:03.000Z</time>
      </trkpt>
      <trkpt lat="46.13541" lon="4.66926">
        <ele>260.20001220703</ele>
        <time>2020-06-10T14:26:05.000Z</time>
      </trkpt>
      <trkpt lat="46.13443" lon="4.66936">
        <ele>257.20001220703</ele>
        <time>2020-06-10T14:26:20.000Z</time>
      </trkpt>
      <trkpt lat="46.13348" lon="4.66945">
        <ele>256</ele>
        <time>2020-06-10T14:26:34.000Z</time>
      </trkpt>
      <trkpt lat="46.13341" lon="4.66946">
        <ele>255.80000305176</ele>
        <time>2020-06-10T14:26:35.000Z</time>
      </trkpt>
      <trkpt lat="46.13265" lon="4.66953">
        <ele>253</ele>
        <time>2020-06-10T14:26:46.000Z</time>
      </trkpt>
      <trkpt lat="46.13224" lon="4.66957">
        <ele>252</ele>
        <time>2020-06-10T14:26:52.000Z</time>
      </trkpt>
      <trkpt lat="46.13143" lon="4.66962">
        <ele>250.39999389648</ele>
        <time>2020-06-10T14:27:05.000Z</time>
      </trkpt>
      <trkpt lat="46.13039" lon="4.66968">
        <ele>253.39999389648</ele>
        <time>2020-06-10T14:27:22.000Z</time>
      </trkpt>
      <trkpt lat="46.12991" lon="4.66975">
        <ele>255.19999694824</ele>
        <time>2020-06-10T14:27:32.000Z</time>
      </trkpt>
      <trkpt lat="46.12989" lon="4.6698">
        <ele>255.39999389648</ele>
        <time>2020-06-10T14:27:33.000Z</time>
      </trkpt>
      <trkpt lat="46.12958" lon="4.67075">
        <ele>255.19999694824</ele>
        <time>2020-06-10T14:27:46.000Z</time>
      </trkpt>
      <trkpt lat="46.12948" lon="4.67141">
        <ele>253.80000305176</ele>
        <time>2020-06-10T14:27:54.000Z</time>
      </trkpt>
      <trkpt lat="46.12938" lon="4.67164">
        <ele>253</ele>
        <time>2020-06-10T14:27:57.000Z</time>
      </trkpt>
      <trkpt lat="46.12866" lon="4.67235">
        <ele>249.19999694824</ele>
        <time>2020-06-10T14:28:07.000Z</time>
      </trkpt>
      <trkpt lat="46.12841" lon="4.67254">
        <ele>245.39999389648</ele>
        <time>2020-06-10T14:28:11.000Z</time>
      </trkpt>
      <trkpt lat="46.12832" lon="4.6726">
        <ele>241.39999389648</ele>
        <time>2020-06-10T14:28:14.000Z</time>
      </trkpt>
      <trkpt lat="46.1283" lon="4.67263">
        <ele>238.19999694824</ele>
        <time>2020-06-10T14:28:16.000Z</time>
      </trkpt>
      <trkpt lat="46.12828" lon="4.67265">
        <ele>235.60000610352</ele>
        <time>2020-06-10T14:28:20.000Z</time>
      </trkpt>
      <trkpt lat="46.12809" lon="4.67287">
        <ele>234.39999389648</ele>
        <time>2020-06-10T14:28:28.000Z</time>
      </trkpt>
      <trkpt lat="46.12796" lon="4.673">
        <ele>231.39999389648</ele>
        <time>2020-06-10T14:28:35.000Z</time>
      </trkpt>
      <trkpt lat="46.12796" lon="4.67301">
        <ele>228.39999389648</ele>
        <time>2020-06-10T14:28:39.000Z</time>
      </trkpt>
      <trkpt lat="46.12789" lon="4.67303">
        <ele>225.80000305176</ele>
        <time>2020-06-10T14:28:52.000Z</time>
      </trkpt>
      <trkpt lat="46.12787" lon="4.67299">
        <ele>225.39999389648</ele>
        <time>2020-06-10T14:28:58.000Z</time>
      </trkpt>
      <trkpt lat="46.1278" lon="4.67294">
        <ele>225.39999389648</ele>
        <time>2020-06-10T14:29:04.000Z</time>
      </trkpt>
      <trkpt lat="46.12765" lon="4.67278">
        <ele>225.39999389648</ele>
        <time>2020-06-10T14:29:08.000Z</time>
      </trkpt>
      <trkpt lat="46.12736" lon="4.67229">
        <ele>224.39999389648</ele>
        <time>2020-06-10T14:29:15.000Z</time>
      </trkpt>
      <trkpt lat="46.12712" lon="4.67148">
        <ele>221</ele>
        <time>2020-06-10T14:29:24.000Z</time>
      </trkpt>
      <trkpt lat="46.12666" lon="4.66987">
        <ele>219.80000305176</ele>
        <time>2020-06-10T14:29:43.000Z</time>
      </trkpt>
      <trkpt lat="46.12619" lon="4.66845">
        <ele>220</ele>
        <time>2020-06-10T14:30:00.000Z</time>
      </trkpt>
      <trkpt lat="46.12598" lon="4.66789">
        <ele>220</ele>
        <time>2020-06-10T14:30:07.000Z</time>
      </trkpt>
      <trkpt lat="46.12548" lon="4.66752">
        <ele>220.19999694824</ele>
        <time>2020-06-10T14:30:17.000Z</time>
      </trkpt>
      <trkpt lat="46.12454" lon="4.66773">
        <ele>219.39999389648</ele>
        <time>2020-06-10T14:30:31.000Z</time>
      </trkpt>
      <trkpt lat="46.12366" lon="4.66802">
        <ele>219.80000305176</ele>
        <time>2020-06-10T14:30:45.000Z</time>
      </trkpt>
      <trkpt lat="46.12271" lon="4.6683">
        <ele>218.80000305176</ele>
        <time>2020-06-10T14:31:00.000Z</time>
      </trkpt>
      <trkpt lat="46.12226" lon="4.66844">
        <ele>218.60000610352</ele>
        <time>2020-06-10T14:31:07.000Z</time>
      </trkpt>
      <trkpt lat="46.12165" lon="4.66863">
        <ele>219.19999694824</ele>
        <time>2020-06-10T14:31:17.000Z</time>
      </trkpt>
      <trkpt lat="46.12097" lon="4.66884">
        <ele>221.19999694824</ele>
        <time>2020-06-10T14:31:29.000Z</time>
      </trkpt>
      <trkpt lat="46.12083" lon="4.66892">
        <ele>221.39999389648</ele>
        <time>2020-06-10T14:31:32.000Z</time>
      </trkpt>
      <trkpt lat="46.12016" lon="4.66966">
        <ele>223</ele>
        <time>2020-06-10T14:31:46.000Z</time>
      </trkpt>
      <trkpt lat="46.11984" lon="4.67062">
        <ele>224.39999389648</ele>
        <time>2020-06-10T14:31:58.000Z</time>
      </trkpt>
      <trkpt lat="46.1198" lon="4.67114">
        <ele>225.39999389648</ele>
        <time>2020-06-10T14:32:04.000Z</time>
      </trkpt>
      <trkpt lat="46.11971" lon="4.67142">
        <ele>226.60000610352</ele>
        <time>2020-06-10T14:32:10.000Z</time>
      </trkpt>
      <trkpt lat="46.11969" lon="4.67141">
        <ele>228.60000610352</ele>
        <time>2020-06-10T14:32:16.000Z</time>
      </trkpt>
      <trkpt lat="46.11954" lon="4.67149">
        <ele>230.19999694824</ele>
        <time>2020-06-10T14:32:52.000Z</time>
      </trkpt>
      <trkpt lat="46.11938" lon="4.6715">
        <ele>230.19999694824</ele>
        <time>2020-06-10T14:32:55.000Z</time>
      </trkpt>
      <trkpt lat="46.11866" lon="4.67199">
        <ele>229.80000305176</ele>
        <time>2020-06-10T14:33:08.000Z</time>
      </trkpt>
      <trkpt lat="46.11823" lon="4.67279">
        <ele>233.19999694824</ele>
        <time>2020-06-10T14:33:20.000Z</time>
      </trkpt>
      <trkpt lat="46.11797" lon="4.67315">
        <ele>236.60000610352</ele>
        <time>2020-06-10T14:33:26.000Z</time>
      </trkpt>
      <trkpt lat="46.11767" lon="4.67342">
        <ele>239.80000305176</ele>
        <time>2020-06-10T14:33:32.000Z</time>
      </trkpt>
      <trkpt lat="46.11757" lon="4.67349">
        <ele>240.60000610352</ele>
        <time>2020-06-10T14:33:34.000Z</time>
      </trkpt>
      <trkpt lat="46.1172" lon="4.67367">
        <ele>243.80000305176</ele>
        <time>2020-06-10T14:33:41.000Z</time>
      </trkpt>
      <trkpt lat="46.11716" lon="4.67369">
        <ele>244.19999694824</ele>
        <time>2020-06-10T14:33:42.000Z</time>
      </trkpt>
      <trkpt lat="46.11713" lon="4.6735">
        <ele>246.19999694824</ele>
        <time>2020-06-10T14:33:47.000Z</time>
      </trkpt>
      <trkpt lat="46.11729" lon="4.67308">
        <ele>248.19999694824</ele>
        <time>2020-06-10T14:33:53.000Z</time>
      </trkpt>
      <trkpt lat="46.11754" lon="4.67174">
        <ele>247.80000305176</ele>
        <time>2020-06-10T14:34:09.000Z</time>
      </trkpt>
      <trkpt lat="46.11755" lon="4.67166">
        <ele>247.80000305176</ele>
        <time>2020-06-10T14:34:10.000Z</time>
      </trkpt>
      <trkpt lat="46.11766" lon="4.67072">
        <ele>247.39999389648</ele>
        <time>2020-06-10T14:34:22.000Z</time>
      </trkpt>
      <trkpt lat="46.11773" lon="4.67012">
        <ele>245.80000305176</ele>
        <time>2020-06-10T14:34:29.000Z</time>
      </trkpt>
      <trkpt lat="46.11774" lon="4.66951">
        <ele>245.19999694824</ele>
        <time>2020-06-10T14:34:36.000Z</time>
      </trkpt>
      <trkpt lat="46.11772" lon="4.66927">
        <ele>245</ele>
        <time>2020-06-10T14:34:39.000Z</time>
      </trkpt>
      <trkpt lat="46.11777" lon="4.66867">
        <ele>244.39999389648</ele>
        <time>2020-06-10T14:34:46.000Z</time>
      </trkpt>
      <trkpt lat="46.11778" lon="4.66824">
        <ele>244.39999389648</ele>
        <time>2020-06-10T14:34:51.000Z</time>
      </trkpt>
      <trkpt lat="46.11773" lon="4.6678">
        <ele>244.39999389648</ele>
        <time>2020-06-10T14:34:56.000Z</time>
      </trkpt>
      <trkpt lat="46.1177" lon="4.66645">
        <ele>244.19999694824</ele>
        <time>2020-06-10T14:35:11.000Z</time>
      </trkpt>
      <trkpt lat="46.11763" lon="4.66602">
        <ele>244.19999694824</ele>
        <time>2020-06-10T14:35:16.000Z</time>
      </trkpt>
      <trkpt lat="46.11775" lon="4.66557">
        <ele>244.19999694824</ele>
        <time>2020-06-10T14:35:22.000Z</time>
      </trkpt>
      <trkpt lat="46.11777" lon="4.66522">
        <ele>244.19999694824</ele>
        <time>2020-06-10T14:35:30.000Z</time>
      </trkpt>
      <trkpt lat="46.11776" lon="4.66522">
        <ele>244.19999694824</ele>
        <time>2020-06-10T14:35:32.000Z</time>
      </trkpt>
      <trkpt lat="46.11777" lon="4.66515">
        <ele>246.80000305176</ele>
        <time>2020-06-10T14:36:46.000Z</time>
      </trkpt>
      <trkpt lat="46.11783" lon="4.66435">
        <ele>245.80000305176</ele>
        <time>2020-06-10T14:37:01.000Z</time>
      </trkpt>
      <trkpt lat="46.11777" lon="4.6638">
        <ele>246.39999389648</ele>
        <time>2020-06-10T14:37:08.000Z</time>
      </trkpt>
      <trkpt lat="46.11786" lon="4.66283">
        <ele>247.80000305176</ele>
        <time>2020-06-10T14:37:21.000Z</time>
      </trkpt>
      <trkpt lat="46.11786" lon="4.66268">
        <ele>247.39999389648</ele>
        <time>2020-06-10T14:37:23.000Z</time>
      </trkpt>
      <trkpt lat="46.11787" lon="4.6623">
        <ele>246.60000610352</ele>
        <time>2020-06-10T14:37:28.000Z</time>
      </trkpt>
      <trkpt lat="46.11791" lon="4.66203">
        <ele>246</ele>
        <time>2020-06-10T14:37:32.000Z</time>
      </trkpt>
      <trkpt lat="46.11788" lon="4.66175">
        <ele>245.80000305176</ele>
        <time>2020-06-10T14:37:36.000Z</time>
      </trkpt>
      <trkpt lat="46.11755" lon="4.66073">
        <ele>248.19999694824</ele>
        <time>2020-06-10T14:37:51.000Z</time>
      </trkpt>
      <trkpt lat="46.11752" lon="4.66047">
        <ele>250.80000305176</ele>
        <time>2020-06-10T14:37:55.000Z</time>
      </trkpt>
      <trkpt lat="46.11748" lon="4.66025">
        <ele>252.60000610352</ele>
        <time>2020-06-10T14:37:58.000Z</time>
      </trkpt>
      <trkpt lat="46.11742" lon="4.65998">
        <ele>254.39999389648</ele>
        <time>2020-06-10T14:38:02.000Z</time>
      </trkpt>
      <trkpt lat="46.11737" lon="4.65958">
        <ele>255.39999389648</ele>
        <time>2020-06-10T14:38:08.000Z</time>
      </trkpt>
      <trkpt lat="46.11732" lon="4.65938">
        <ele>255.80000305176</ele>
        <time>2020-06-10T14:38:11.000Z</time>
      </trkpt>
      <trkpt lat="46.11729" lon="4.65932">
        <ele>256</ele>
        <time>2020-06-10T14:38:12.000Z</time>
      </trkpt>
      <trkpt lat="46.11724" lon="4.65922">
        <ele>256.20001220703</ele>
        <time>2020-06-10T14:38:14.000Z</time>
      </trkpt>
      <trkpt lat="46.11723" lon="4.65916">
        <ele>256.39999389648</ele>
        <time>2020-06-10T14:38:15.000Z</time>
      </trkpt>
      <trkpt lat="46.11718" lon="4.65865">
        <ele>259.60000610352</ele>
        <time>2020-06-10T14:38:25.000Z</time>
      </trkpt>
      <trkpt lat="46.11718" lon="4.65845">
        <ele>259.79998779297</ele>
        <time>2020-06-10T14:38:28.000Z</time>
      </trkpt>
      <trkpt lat="46.11706" lon="4.65787">
        <ele>260</ele>
        <time>2020-06-10T14:38:37.000Z</time>
      </trkpt>
      <trkpt lat="46.11704" lon="4.65781">
        <ele>260</ele>
        <time>2020-06-10T14:38:38.000Z</time>
      </trkpt>
      <trkpt lat="46.11701" lon="4.65774">
        <ele>260</ele>
        <time>2020-06-10T14:38:39.000Z</time>
      </trkpt>
      <trkpt lat="46.11691" lon="4.65757">
        <ele>260.20001220703</ele>
        <time>2020-06-10T14:38:42.000Z</time>
      </trkpt>
      <trkpt lat="46.11688" lon="4.65751">
        <ele>260.20001220703</ele>
        <time>2020-06-10T14:38:43.000Z</time>
      </trkpt>
      <trkpt lat="46.11684" lon="4.65745">
        <ele>260.20001220703</ele>
        <time>2020-06-10T14:38:44.000Z</time>
      </trkpt>
      <trkpt lat="46.11661" lon="4.65705">
        <ele>263</ele>
        <time>2020-06-10T14:38:52.000Z</time>
      </trkpt>
      <trkpt lat="46.11658" lon="4.657">
        <ele>263.60000610352</ele>
        <time>2020-06-10T14:38:54.000Z</time>
      </trkpt>
      <trkpt lat="46.11662" lon="4.65659">
        <ele>266.60000610352</ele>
        <time>2020-06-10T14:39:02.000Z</time>
      </trkpt>
      <trkpt lat="46.11672" lon="4.65634">
        <ele>266</ele>
        <time>2020-06-10T14:39:10.000Z</time>
      </trkpt>
      <trkpt lat="46.11675" lon="4.65632">
        <ele>265.79998779297</ele>
        <time>2020-06-10T14:39:11.000Z</time>
      </trkpt>
      <trkpt lat="46.11679" lon="4.6563">
        <ele>265.20001220703</ele>
        <time>2020-06-10T14:39:12.000Z</time>
      </trkpt>
      <trkpt lat="46.11688" lon="4.65625">
        <ele>264.20001220703</ele>
        <time>2020-06-10T14:39:14.000Z</time>
      </trkpt>
      <trkpt lat="46.11704" lon="4.65616">
        <ele>263.20001220703</ele>
        <time>2020-06-10T14:39:18.000Z</time>
      </trkpt>
      <trkpt lat="46.1171" lon="4.65607">
        <ele>261.39999389648</ele>
        <time>2020-06-10T14:39:22.000Z</time>
      </trkpt>
      <trkpt lat="46.11714" lon="4.65601">
        <ele>259.60000610352</ele>
        <time>2020-06-10T14:39:24.000Z</time>
      </trkpt>
      <trkpt lat="46.11708" lon="4.65566">
        <ele>258.20001220703</ele>
        <time>2020-06-10T14:39:30.000Z</time>
      </trkpt>
      <trkpt lat="46.11702" lon="4.65543">
        <ele>257.60000610352</ele>
        <time>2020-06-10T14:39:33.000Z</time>
      </trkpt>
      <trkpt lat="46.11662" lon="4.65419">
        <ele>256.39999389648</ele>
        <time>2020-06-10T14:39:50.000Z</time>
      </trkpt>
      <trkpt lat="46.11656" lon="4.65398">
        <ele>256.39999389648</ele>
        <time>2020-06-10T14:39:53.000Z</time>
      </trkpt>
      <trkpt lat="46.11662" lon="4.65351">
        <ele>256</ele>
        <time>2020-06-10T14:40:02.000Z</time>
      </trkpt>
      <trkpt lat="46.11667" lon="4.65339">
        <ele>256</ele>
        <time>2020-06-10T14:40:04.000Z</time>
      </trkpt>
      <trkpt lat="46.11695" lon="4.65316">
        <ele>256.39999389648</ele>
        <time>2020-06-10T14:40:13.000Z</time>
      </trkpt>
      <trkpt lat="46.11705" lon="4.65304">
        <ele>256.60000610352</ele>
        <time>2020-06-10T14:40:16.000Z</time>
      </trkpt>
      <trkpt lat="46.11711" lon="4.65292">
        <ele>256.60000610352</ele>
        <time>2020-06-10T14:40:18.000Z</time>
      </trkpt>
      <trkpt lat="46.11715" lon="4.65254">
        <ele>256.60000610352</ele>
        <time>2020-06-10T14:40:23.000Z</time>
      </trkpt>
      <trkpt lat="46.11702" lon="4.65202">
        <ele>252.39999389648</ele>
        <time>2020-06-10T14:40:28.000Z</time>
      </trkpt>
      <trkpt lat="46.11701" lon="4.65191">
        <ele>251.60000610352</ele>
        <time>2020-06-10T14:40:29.000Z</time>
      </trkpt>
      <trkpt lat="46.11702" lon="4.65181">
        <ele>250.60000610352</ele>
        <time>2020-06-10T14:40:30.000Z</time>
      </trkpt>
      <trkpt lat="46.11703" lon="4.65172">
        <ele>250</ele>
        <time>2020-06-10T14:40:31.000Z</time>
      </trkpt>
      <trkpt lat="46.11704" lon="4.65165">
        <ele>249</ele>
        <time>2020-06-10T14:40:32.000Z</time>
      </trkpt>
      <trkpt lat="46.11705" lon="4.65157">
        <ele>248.60000610352</ele>
        <time>2020-06-10T14:40:33.000Z</time>
      </trkpt>
      <trkpt lat="46.11705" lon="4.65149">
        <ele>248.39999389648</ele>
        <time>2020-06-10T14:40:34.000Z</time>
      </trkpt>
      <trkpt lat="46.11704" lon="4.65143">
        <ele>248.19999694824</ele>
        <time>2020-06-10T14:40:35.000Z</time>
      </trkpt>
      <trkpt lat="46.11701" lon="4.65138">
        <ele>248.19999694824</ele>
        <time>2020-06-10T14:40:36.000Z</time>
      </trkpt>
      <trkpt lat="46.11698" lon="4.65133">
        <ele>248.19999694824</ele>
        <time>2020-06-10T14:40:37.000Z</time>
      </trkpt>
      <trkpt lat="46.11695" lon="4.65129">
        <ele>248.19999694824</ele>
        <time>2020-06-10T14:40:38.000Z</time>
      </trkpt>
      <trkpt lat="46.11692" lon="4.65123">
        <ele>248.19999694824</ele>
        <time>2020-06-10T14:40:39.000Z</time>
      </trkpt>
      <trkpt lat="46.11689" lon="4.65118">
        <ele>248.19999694824</ele>
        <time>2020-06-10T14:40:40.000Z</time>
      </trkpt>
      <trkpt lat="46.11687" lon="4.65111">
        <ele>248.19999694824</ele>
        <time>2020-06-10T14:40:41.000Z</time>
      </trkpt>
      <trkpt lat="46.11685" lon="4.65105">
        <ele>248.60000610352</ele>
        <time>2020-06-10T14:40:42.000Z</time>
      </trkpt>
      <trkpt lat="46.11684" lon="4.65098">
        <ele>249</ele>
        <time>2020-06-10T14:40:43.000Z</time>
      </trkpt>
      <trkpt lat="46.11683" lon="4.65091">
        <ele>249.39999389648</ele>
        <time>2020-06-10T14:40:44.000Z</time>
      </trkpt>
      <trkpt lat="46.1168" lon="4.6507">
        <ele>250.39999389648</ele>
        <time>2020-06-10T14:40:47.000Z</time>
      </trkpt>
      <trkpt lat="46.11677" lon="4.65044">
        <ele>252.80000305176</ele>
        <time>2020-06-10T14:40:51.000Z</time>
      </trkpt>
      <trkpt lat="46.11676" lon="4.65037">
        <ele>253</ele>
        <time>2020-06-10T14:40:52.000Z</time>
      </trkpt>
      <trkpt lat="46.11676" lon="4.65031">
        <ele>253.39999389648</ele>
        <time>2020-06-10T14:40:53.000Z</time>
      </trkpt>
      <trkpt lat="46.11677" lon="4.65024">
        <ele>254.60000610352</ele>
        <time>2020-06-10T14:40:54.000Z</time>
      </trkpt>
      <trkpt lat="46.11678" lon="4.65018">
        <ele>255</ele>
        <time>2020-06-10T14:40:55.000Z</time>
      </trkpt>
      <trkpt lat="46.1168" lon="4.65011">
        <ele>255.60000610352</ele>
        <time>2020-06-10T14:40:56.000Z</time>
      </trkpt>
      <trkpt lat="46.11691" lon="4.64987">
        <ele>257.39999389648</ele>
        <time>2020-06-10T14:41:00.000Z</time>
      </trkpt>
      <trkpt lat="46.11695" lon="4.64981">
        <ele>257.60000610352</ele>
        <time>2020-06-10T14:41:01.000Z</time>
      </trkpt>
      <trkpt lat="46.11715" lon="4.64918">
        <ele>257.20001220703</ele>
        <time>2020-06-10T14:41:11.000Z</time>
      </trkpt>
      <trkpt lat="46.11714" lon="4.64911">
        <ele>257</ele>
        <time>2020-06-10T14:41:12.000Z</time>
      </trkpt>
      <trkpt lat="46.11712" lon="4.64897">
        <ele>256.60000610352</ele>
        <time>2020-06-10T14:41:14.000Z</time>
      </trkpt>
      <trkpt lat="46.11703" lon="4.64872">
        <ele>256.39999389648</ele>
        <time>2020-06-10T14:41:19.000Z</time>
      </trkpt>
      <trkpt lat="46.11702" lon="4.64861">
        <ele>256.60000610352</ele>
        <time>2020-06-10T14:41:21.000Z</time>
      </trkpt>
      <trkpt lat="46.11696" lon="4.64818">
        <ele>258</ele>
        <time>2020-06-10T14:41:27.000Z</time>
      </trkpt>
      <trkpt lat="46.11691" lon="4.64796">
        <ele>258.39999389648</ele>
        <time>2020-06-10T14:41:30.000Z</time>
      </trkpt>
      <trkpt lat="46.11678" lon="4.64774">
        <ele>258.60000610352</ele>
        <time>2020-06-10T14:41:34.000Z</time>
      </trkpt>
      <trkpt lat="46.11658" lon="4.64759">
        <ele>259</ele>
        <time>2020-06-10T14:41:39.000Z</time>
      </trkpt>
      <trkpt lat="46.11645" lon="4.6477">
        <ele>261.60000610352</ele>
        <time>2020-06-10T14:41:43.000Z</time>
      </trkpt>
      <trkpt lat="46.11626" lon="4.64789">
        <ele>265.20001220703</ele>
        <time>2020-06-10T14:41:49.000Z</time>
      </trkpt>
      <trkpt lat="46.11619" lon="4.64796">
        <ele>266</ele>
        <time>2020-06-10T14:41:51.000Z</time>
      </trkpt>
      <trkpt lat="46.11601" lon="4.64813">
        <ele>267.60000610352</ele>
        <time>2020-06-10T14:41:56.000Z</time>
      </trkpt>
      <trkpt lat="46.11576" lon="4.64861">
        <ele>271.20001220703</ele>
        <time>2020-06-10T14:42:05.000Z</time>
      </trkpt>
      <trkpt lat="46.11549" lon="4.64902">
        <ele>274.39999389648</ele>
        <time>2020-06-10T14:42:13.000Z</time>
      </trkpt>
      <trkpt lat="46.1154" lon="4.64912">
        <ele>275.79998779297</ele>
        <time>2020-06-10T14:42:16.000Z</time>
      </trkpt>
      <trkpt lat="46.11521" lon="4.649">
        <ele>277.39999389648</ele>
        <time>2020-06-10T14:42:21.000Z</time>
      </trkpt>
      <trkpt lat="46.11487" lon="4.64894">
        <ele>280.60000610352</ele>
        <time>2020-06-10T14:42:28.000Z</time>
      </trkpt>
      <trkpt lat="46.11473" lon="4.64898">
        <ele>281.60000610352</ele>
        <time>2020-06-10T14:42:31.000Z</time>
      </trkpt>
      <trkpt lat="46.11455" lon="4.64898">
        <ele>284</ele>
        <time>2020-06-10T14:42:36.000Z</time>
      </trkpt>
      <trkpt lat="46.11451" lon="4.64897">
        <ele>284.39999389648</ele>
        <time>2020-06-10T14:42:37.000Z</time>
      </trkpt>
      <trkpt lat="46.11433" lon="4.64905">
        <ele>286.39999389648</ele>
        <time>2020-06-10T14:42:41.000Z</time>
      </trkpt>
      <trkpt lat="46.11408" lon="4.6491">
        <ele>288.79998779297</ele>
        <time>2020-06-10T14:42:46.000Z</time>
      </trkpt>
      <trkpt lat="46.11361" lon="4.64913">
        <ele>292.20001220703</ele>
        <time>2020-06-10T14:42:55.000Z</time>
      </trkpt>
      <trkpt lat="46.11319" lon="4.64917">
        <ele>295.39999389648</ele>
        <time>2020-06-10T14:43:03.000Z</time>
      </trkpt>
      <trkpt lat="46.11309" lon="4.64919">
        <ele>296.60000610352</ele>
        <time>2020-06-10T14:43:05.000Z</time>
      </trkpt>
      <trkpt lat="46.1129" lon="4.64919">
        <ele>298.79998779297</ele>
        <time>2020-06-10T14:43:10.000Z</time>
      </trkpt>
      <trkpt lat="46.11256" lon="4.64873">
        <ele>301.60000610352</ele>
        <time>2020-06-10T14:43:19.000Z</time>
      </trkpt>
      <trkpt lat="46.11236" lon="4.64843">
        <ele>301.60000610352</ele>
        <time>2020-06-10T14:43:24.000Z</time>
      </trkpt>
      <trkpt lat="46.11162" lon="4.64759">
        <ele>302.79998779297</ele>
        <time>2020-06-10T14:43:39.000Z</time>
      </trkpt>
      <trkpt lat="46.11156" lon="4.64753">
        <ele>303</ele>
        <time>2020-06-10T14:43:40.000Z</time>
      </trkpt>
      <trkpt lat="46.11139" lon="4.6472">
        <ele>303.39999389648</ele>
        <time>2020-06-10T14:43:45.000Z</time>
      </trkpt>
      <trkpt lat="46.1112" lon="4.64697">
        <ele>304.60000610352</ele>
        <time>2020-06-10T14:43:50.000Z</time>
      </trkpt>
      <trkpt lat="46.11098" lon="4.64678">
        <ele>308.20001220703</ele>
        <time>2020-06-10T14:43:56.000Z</time>
      </trkpt>
      <trkpt lat="46.1109" lon="4.64674">
        <ele>311.39999389648</ele>
        <time>2020-06-10T14:43:59.000Z</time>
      </trkpt>
      <trkpt lat="46.11083" lon="4.64671">
        <ele>313.39999389648</ele>
        <time>2020-06-10T14:44:03.000Z</time>
      </trkpt>
      <trkpt lat="46.11074" lon="4.64672">
        <ele>314.60000610352</ele>
        <time>2020-06-10T14:44:07.000Z</time>
      </trkpt>
      <trkpt lat="46.11061" lon="4.6472">
        <ele>315.60000610352</ele>
        <time>2020-06-10T14:44:16.000Z</time>
      </trkpt>
      <trkpt lat="46.11025" lon="4.64741">
        <ele>319</ele>
        <time>2020-06-10T14:44:25.000Z</time>
      </trkpt>
      <trkpt lat="46.11003" lon="4.64754">
        <ele>321.39999389648</ele>
        <time>2020-06-10T14:44:31.000Z</time>
      </trkpt>
      <trkpt lat="46.10972" lon="4.64761">
        <ele>325</ele>
        <time>2020-06-10T14:44:38.000Z</time>
      </trkpt>
      <trkpt lat="46.10925" lon="4.64773">
        <ele>328.39999389648</ele>
        <time>2020-06-10T14:44:49.000Z</time>
      </trkpt>
      <trkpt lat="46.10886" lon="4.6476">
        <ele>332.39999389648</ele>
        <time>2020-06-10T14:44:58.000Z</time>
      </trkpt>
      <trkpt lat="46.10876" lon="4.64755">
        <ele>333.39999389648</ele>
        <time>2020-06-10T14:45:01.000Z</time>
      </trkpt>
      <trkpt lat="46.10878" lon="4.64771">
        <ele>336</ele>
        <time>2020-06-10T14:45:07.000Z</time>
      </trkpt>
      <trkpt lat="46.10889" lon="4.64793">
        <ele>338</ele>
        <time>2020-06-10T14:45:12.000Z</time>
      </trkpt>
      <trkpt lat="46.10905" lon="4.64823">
        <ele>340.60000610352</ele>
        <time>2020-06-10T14:45:19.000Z</time>
      </trkpt>
      <trkpt lat="46.10896" lon="4.6483">
        <ele>343</ele>
        <time>2020-06-10T14:45:24.000Z</time>
      </trkpt>
      <trkpt lat="46.10885" lon="4.64823">
        <ele>344.39999389648</ele>
        <time>2020-06-10T14:45:27.000Z</time>
      </trkpt>
      <trkpt lat="46.10852" lon="4.64825">
        <ele>347.60000610352</ele>
        <time>2020-06-10T14:45:36.000Z</time>
      </trkpt>
      <trkpt lat="46.1083" lon="4.64847">
        <ele>351</ele>
        <time>2020-06-10T14:45:43.000Z</time>
      </trkpt>
      <trkpt lat="46.10828" lon="4.64851">
        <ele>351.60000610352</ele>
        <time>2020-06-10T14:45:44.000Z</time>
      </trkpt>
      <trkpt lat="46.10838" lon="4.64868">
        <ele>355</ele>
        <time>2020-06-10T14:45:50.000Z</time>
      </trkpt>
      <trkpt lat="46.10855" lon="4.6488">
        <ele>357.60000610352</ele>
        <time>2020-06-10T14:45:55.000Z</time>
      </trkpt>
      <trkpt lat="46.10916" lon="4.64902">
        <ele>361</ele>
        <time>2020-06-10T14:46:09.000Z</time>
      </trkpt>
      <trkpt lat="46.10965" lon="4.6494">
        <ele>364.20001220703</ele>
        <time>2020-06-10T14:46:23.000Z</time>
      </trkpt>
      <trkpt lat="46.10966" lon="4.64944">
        <ele>364.39999389648</ele>
        <time>2020-06-10T14:46:24.000Z</time>
      </trkpt>
      <trkpt lat="46.10948" lon="4.64949">
        <ele>367.39999389648</ele>
        <time>2020-06-10T14:46:31.000Z</time>
      </trkpt>
      <trkpt lat="46.10921" lon="4.6495">
        <ele>370.79998779297</ele>
        <time>2020-06-10T14:46:38.000Z</time>
      </trkpt>
      <trkpt lat="46.10894" lon="4.64954">
        <ele>374</ele>
        <time>2020-06-10T14:46:45.000Z</time>
      </trkpt>
      <trkpt lat="46.10886" lon="4.64952">
        <ele>374.79998779297</ele>
        <time>2020-06-10T14:46:47.000Z</time>
      </trkpt>
      <trkpt lat="46.10878" lon="4.64949">
        <ele>375.60000610352</ele>
        <time>2020-06-10T14:46:49.000Z</time>
      </trkpt>
      <trkpt lat="46.10874" lon="4.64948">
        <ele>376</ele>
        <time>2020-06-10T14:46:50.000Z</time>
      </trkpt>
      <trkpt lat="46.1087" lon="4.64948">
        <ele>376.60000610352</ele>
        <time>2020-06-10T14:46:51.000Z</time>
      </trkpt>
      <trkpt lat="46.10849" lon="4.64941">
        <ele>377.60000610352</ele>
        <time>2020-06-10T14:46:56.000Z</time>
      </trkpt>
      <trkpt lat="46.10845" lon="4.6494">
        <ele>377.60000610352</ele>
        <time>2020-06-10T14:46:57.000Z</time>
      </trkpt>
      <trkpt lat="46.10827" lon="4.64939">
        <ele>377.60000610352</ele>
        <time>2020-06-10T14:47:02.000Z</time>
      </trkpt>
      <trkpt lat="46.10811" lon="4.64929">
        <ele>377.60000610352</ele>
        <time>2020-06-10T14:47:07.000Z</time>
      </trkpt>
      <trkpt lat="46.10748" lon="4.64884">
        <ele>374.39999389648</ele>
        <time>2020-06-10T14:47:20.000Z</time>
      </trkpt>
      <trkpt lat="46.10717" lon="4.64868">
        <ele>371</ele>
        <time>2020-06-10T14:47:28.000Z</time>
      </trkpt>
      <trkpt lat="46.10715" lon="4.64869">
        <ele>370.79998779297</ele>
        <time>2020-06-10T14:47:29.000Z</time>
      </trkpt>
      <trkpt lat="46.10711" lon="4.64871">
        <ele>369.20001220703</ele>
        <time>2020-06-10T14:47:36.000Z</time>
      </trkpt>
      <trkpt lat="46.10713" lon="4.64882">
        <ele>368.60000610352</ele>
        <time>2020-06-10T14:47:44.000Z</time>
      </trkpt>
      <trkpt lat="46.10719" lon="4.64909">
        <ele>368.79998779297</ele>
        <time>2020-06-10T14:47:51.000Z</time>
      </trkpt>
      <trkpt lat="46.10709" lon="4.64935">
        <ele>372.39999389648</ele>
        <time>2020-06-10T14:47:58.000Z</time>
      </trkpt>
      <trkpt lat="46.10693" lon="4.6495">
        <ele>375.79998779297</ele>
        <time>2020-06-10T14:48:03.000Z</time>
      </trkpt>
      <trkpt lat="46.10634" lon="4.65006">
        <ele>378.39999389648</ele>
        <time>2020-06-10T14:48:20.000Z</time>
      </trkpt>
      <trkpt lat="46.10619" lon="4.65019">
        <ele>379.39999389648</ele>
        <time>2020-06-10T14:48:24.000Z</time>
      </trkpt>
      <trkpt lat="46.10583" lon="4.65049">
        <ele>382.79998779297</ele>
        <time>2020-06-10T14:48:34.000Z</time>
      </trkpt>
      <trkpt lat="46.10566" lon="4.65059">
        <ele>384.60000610352</ele>
        <time>2020-06-10T14:48:39.000Z</time>
      </trkpt>
      <trkpt lat="46.10533" lon="4.65062">
        <ele>385.39999389648</ele>
        <time>2020-06-10T14:48:46.000Z</time>
      </trkpt>
      <trkpt lat="46.1051" lon="4.65067">
        <ele>384</ele>
        <time>2020-06-10T14:48:52.000Z</time>
      </trkpt>
      <trkpt lat="46.10455" lon="4.65134">
        <ele>386.20001220703</ele>
        <time>2020-06-10T14:49:10.000Z</time>
      </trkpt>
      <trkpt lat="46.10452" lon="4.65137">
        <ele>386.79998779297</ele>
        <time>2020-06-10T14:49:11.000Z</time>
      </trkpt>
      <trkpt lat="46.10431" lon="4.65163">
        <ele>389.79998779297</ele>
        <time>2020-06-10T14:49:18.000Z</time>
      </trkpt>
      <trkpt lat="46.10426" lon="4.65172">
        <ele>390.60000610352</ele>
        <time>2020-06-10T14:49:20.000Z</time>
      </trkpt>
      <trkpt lat="46.1042" lon="4.65187">
        <ele>392.20001220703</ele>
        <time>2020-06-10T14:49:23.000Z</time>
      </trkpt>
      <trkpt lat="46.10415" lon="4.6521">
        <ele>394.39999389648</ele>
        <time>2020-06-10T14:49:27.000Z</time>
      </trkpt>
      <trkpt lat="46.1042" lon="4.65256">
        <ele>397.39999389648</ele>
        <time>2020-06-10T14:49:35.000Z</time>
      </trkpt>
      <trkpt lat="46.10429" lon="4.65293">
        <ele>400.79998779297</ele>
        <time>2020-06-10T14:49:42.000Z</time>
      </trkpt>
      <trkpt lat="46.10439" lon="4.6533">
        <ele>404.20001220703</ele>
        <time>2020-06-10T14:49:49.000Z</time>
      </trkpt>
      <trkpt lat="46.10449" lon="4.65367">
        <ele>407.39999389648</ele>
        <time>2020-06-10T14:49:56.000Z</time>
      </trkpt>
      <trkpt lat="46.10455" lon="4.65394">
        <ele>410</ele>
        <time>2020-06-10T14:50:01.000Z</time>
      </trkpt>
      <trkpt lat="46.1047" lon="4.65453">
        <ele>413.20001220703</ele>
        <time>2020-06-10T14:50:12.000Z</time>
      </trkpt>
      <trkpt lat="46.10479" lon="4.65488">
        <ele>416.60000610352</ele>
        <time>2020-06-10T14:50:20.000Z</time>
      </trkpt>
      <trkpt lat="46.10489" lon="4.65505">
        <ele>420</ele>
        <time>2020-06-10T14:50:28.000Z</time>
      </trkpt>
      <trkpt lat="46.10494" lon="4.65506">
        <ele>422.39999389648</ele>
        <time>2020-06-10T14:50:37.000Z</time>
      </trkpt>
      <trkpt lat="46.10488" lon="4.65494">
        <ele>423.20001220703</ele>
        <time>2020-06-10T14:50:48.000Z</time>
      </trkpt>
      <trkpt lat="46.10483" lon="4.65486">
        <ele>423.20001220703</ele>
        <time>2020-06-10T14:50:50.000Z</time>
      </trkpt>
      <trkpt lat="46.10479" lon="4.65474">
        <ele>423.20001220703</ele>
        <time>2020-06-10T14:50:52.000Z</time>
      </trkpt>
      <trkpt lat="46.1046" lon="4.65401">
        <ele>420</ele>
        <time>2020-06-10T14:51:01.000Z</time>
      </trkpt>
      <trkpt lat="46.10452" lon="4.65369">
        <ele>415.60000610352</ele>
        <time>2020-06-10T14:51:07.000Z</time>
      </trkpt>
      <trkpt lat="46.10449" lon="4.65364">
        <ele>414</ele>
        <time>2020-06-10T14:51:10.000Z</time>
      </trkpt>
      <trkpt lat="46.10448" lon="4.65388">
        <ele>412.39999389648</ele>
        <time>2020-06-10T14:51:16.000Z</time>
      </trkpt>
      <trkpt lat="46.10459" lon="4.65477">
        <ele>410.20001220703</ele>
        <time>2020-06-10T14:51:28.000Z</time>
      </trkpt>
      <trkpt lat="46.10474" lon="4.65586">
        <ele>407.60000610352</ele>
        <time>2020-06-10T14:51:43.000Z</time>
      </trkpt>
      <trkpt lat="46.10476" lon="4.65593">
        <ele>407.60000610352</ele>
        <time>2020-06-10T14:51:44.000Z</time>
      </trkpt>
      <trkpt lat="46.10505" lon="4.65665">
        <ele>406</ele>
        <time>2020-06-10T14:51:55.000Z</time>
      </trkpt>
      <trkpt lat="46.10521" lon="4.65687">
        <ele>404.39999389648</ele>
        <time>2020-06-10T14:52:00.000Z</time>
      </trkpt>
      <trkpt lat="46.10509" lon="4.65697">
        <ele>402</ele>
        <time>2020-06-10T14:52:06.000Z</time>
      </trkpt>
      <trkpt lat="46.10495" lon="4.65688">
        <ele>401</ele>
        <time>2020-06-10T14:52:09.000Z</time>
      </trkpt>
      <trkpt lat="46.10466" lon="4.65657">
        <ele>397.60000610352</ele>
        <time>2020-06-10T14:52:15.000Z</time>
      </trkpt>
      <trkpt lat="46.10454" lon="4.6564">
        <ele>394.60000610352</ele>
        <time>2020-06-10T14:52:18.000Z</time>
      </trkpt>
      <trkpt lat="46.1044" lon="4.65613">
        <ele>393.20001220703</ele>
        <time>2020-06-10T14:52:22.000Z</time>
      </trkpt>
      <trkpt lat="46.10433" lon="4.65601">
        <ele>392.79998779297</ele>
        <time>2020-06-10T14:52:24.000Z</time>
      </trkpt>
      <trkpt lat="46.10418" lon="4.65569">
        <ele>391</ele>
        <time>2020-06-10T14:52:31.000Z</time>
      </trkpt>
      <trkpt lat="46.10412" lon="4.65575">
        <ele>388.60000610352</ele>
        <time>2020-06-10T14:52:37.000Z</time>
      </trkpt>
      <trkpt lat="46.10412" lon="4.65618">
        <ele>385.79998779297</ele>
        <time>2020-06-10T14:52:48.000Z</time>
      </trkpt>
      <trkpt lat="46.10412" lon="4.65619">
        <ele>383.79998779297</ele>
        <time>2020-06-10T14:52:51.000Z</time>
      </trkpt>
      <trkpt lat="46.1041" lon="4.65627">
        <ele>382.79998779297</ele>
        <time>2020-06-10T14:52:55.000Z</time>
      </trkpt>
      <trkpt lat="46.10404" lon="4.65662">
        <ele>379.79998779297</ele>
        <time>2020-06-10T14:53:06.000Z</time>
      </trkpt>
      <trkpt lat="46.10406" lon="4.6567">
        <ele>378.39999389648</ele>
        <time>2020-06-10T14:53:08.000Z</time>
      </trkpt>
      <trkpt lat="46.10409" lon="4.65691">
        <ele>375</ele>
        <time>2020-06-10T14:53:12.000Z</time>
      </trkpt>
      <trkpt lat="46.10411" lon="4.65699">
        <ele>374.39999389648</ele>
        <time>2020-06-10T14:53:14.000Z</time>
      </trkpt>
      <trkpt lat="46.10391" lon="4.6569">
        <ele>371</ele>
        <time>2020-06-10T14:53:22.000Z</time>
      </trkpt>
      <trkpt lat="46.10382" lon="4.65675">
        <ele>369.60000610352</ele>
        <time>2020-06-10T14:53:25.000Z</time>
      </trkpt>
      <trkpt lat="46.10366" lon="4.65639">
        <ele>365.79998779297</ele>
        <time>2020-06-10T14:53:31.000Z</time>
      </trkpt>
      <trkpt lat="46.10347" lon="4.65574">
        <ele>363.20001220703</ele>
        <time>2020-06-10T14:53:42.000Z</time>
      </trkpt>
      <trkpt lat="46.10346" lon="4.65572">
        <ele>362.20001220703</ele>
        <time>2020-06-10T14:53:47.000Z</time>
      </trkpt>
      <trkpt lat="46.10343" lon="4.65558">
        <ele>362</ele>
        <time>2020-06-10T14:53:52.000Z</time>
      </trkpt>
      <trkpt lat="46.10342" lon="4.65553">
        <ele>362</ele>
        <time>2020-06-10T14:53:53.000Z</time>
      </trkpt>
      <trkpt lat="46.10318" lon="4.65507">
        <ele>359.79998779297</ele>
        <time>2020-06-10T14:54:07.000Z</time>
      </trkpt>
      <trkpt lat="46.10315" lon="4.65509">
        <ele>358.79998779297</ele>
        <time>2020-06-10T14:54:09.000Z</time>
      </trkpt>
      <trkpt lat="46.10315" lon="4.65522">
        <ele>356</ele>
        <time>2020-06-10T14:54:15.000Z</time>
      </trkpt>
      <trkpt lat="46.10317" lon="4.65558">
        <ele>353.39999389648</ele>
        <time>2020-06-10T14:54:25.000Z</time>
      </trkpt>
      <trkpt lat="46.10321" lon="4.65638">
        <ele>351.39999389648</ele>
        <time>2020-06-10T14:54:37.000Z</time>
      </trkpt>
      <trkpt lat="46.10321" lon="4.65651">
        <ele>351.20001220703</ele>
        <time>2020-06-10T14:54:39.000Z</time>
      </trkpt>
      <trkpt lat="46.10313" lon="4.65693">
        <ele>349</ele>
        <time>2020-06-10T14:54:45.000Z</time>
      </trkpt>
      <trkpt lat="46.10306" lon="4.65756">
        <ele>345.60000610352</ele>
        <time>2020-06-10T14:54:52.000Z</time>
      </trkpt>
      <trkpt lat="46.10307" lon="4.65778">
        <ele>341.39999389648</ele>
        <time>2020-06-10T14:54:56.000Z</time>
      </trkpt>
      <trkpt lat="46.10311" lon="4.65803">
        <ele>338.20001220703</ele>
        <time>2020-06-10T14:55:01.000Z</time>
      </trkpt>
      <trkpt lat="46.10316" lon="4.65839">
        <ele>335</ele>
        <time>2020-06-10T14:55:11.000Z</time>
      </trkpt>
      <trkpt lat="46.10316" lon="4.65839">
        <ele>334</ele>
        <time>2020-06-10T14:55:12.000Z</time>
      </trkpt>
      <trkpt lat="46.10319" lon="4.65843">
        <ele>332.60000610352</ele>
        <time>2020-06-10T14:55:17.000Z</time>
      </trkpt>
      <trkpt lat="46.10318" lon="4.65845">
        <ele>332.60000610352</ele>
        <time>2020-06-10T14:55:18.000Z</time>
      </trkpt>
      <trkpt lat="46.10311" lon="4.65855">
        <ele>332.39999389648</ele>
        <time>2020-06-10T14:55:22.000Z</time>
      </trkpt>
      <trkpt lat="46.10309" lon="4.65858">
        <ele>332.39999389648</ele>
        <time>2020-06-10T14:55:23.000Z</time>
      </trkpt>
      <trkpt lat="46.10291" lon="4.65879">
        <ele>328.39999389648</ele>
        <time>2020-06-10T14:55:33.000Z</time>
      </trkpt>
      <trkpt lat="46.1029" lon="4.65881">
        <ele>328.39999389648</ele>
        <time>2020-06-10T14:55:34.000Z</time>
      </trkpt>
      <trkpt lat="46.10284" lon="4.6589">
        <ele>324.60000610352</ele>
        <time>2020-06-10T14:55:38.000Z</time>
      </trkpt>
      <trkpt lat="46.10283" lon="4.65897">
        <ele>323.20001220703</ele>
        <time>2020-06-10T14:55:40.000Z</time>
      </trkpt>
      <trkpt lat="46.10287" lon="4.6591">
        <ele>322</ele>
        <time>2020-06-10T14:55:43.000Z</time>
      </trkpt>
      <trkpt lat="46.10299" lon="4.6593">
        <ele>320.20001220703</ele>
        <time>2020-06-10T14:55:47.000Z</time>
      </trkpt>
      <trkpt lat="46.10307" lon="4.65941">
        <ele>319</ele>
        <time>2020-06-10T14:55:49.000Z</time>
      </trkpt>
      <trkpt lat="46.10331" lon="4.65965">
        <ele>315.39999389648</ele>
        <time>2020-06-10T14:55:54.000Z</time>
      </trkpt>
      <trkpt lat="46.1034" lon="4.65975">
        <ele>314</ele>
        <time>2020-06-10T14:55:56.000Z</time>
      </trkpt>
      <trkpt lat="46.10347" lon="4.65988">
        <ele>312.79998779297</ele>
        <time>2020-06-10T14:55:58.000Z</time>
      </trkpt>
      <trkpt lat="46.10348" lon="4.66021">
        <ele>311</ele>
        <time>2020-06-10T14:56:02.000Z</time>
      </trkpt>
      <trkpt lat="46.10359" lon="4.66071">
        <ele>309.79998779297</ele>
        <time>2020-06-10T14:56:12.000Z</time>
      </trkpt>
      <trkpt lat="46.10375" lon="4.66115">
        <ele>311.20001220703</ele>
        <time>2020-06-10T14:56:21.000Z</time>
      </trkpt>
      <trkpt lat="46.10386" lon="4.66136">
        <ele>314.39999389648</ele>
        <time>2020-06-10T14:56:26.000Z</time>
      </trkpt>
      <trkpt lat="46.10388" lon="4.66142">
        <ele>315.39999389648</ele>
        <time>2020-06-10T14:56:28.000Z</time>
      </trkpt>
      <trkpt lat="46.10376" lon="4.66164">
        <ele>318.39999389648</ele>
        <time>2020-06-10T14:56:33.000Z</time>
      </trkpt>
      <trkpt lat="46.10372" lon="4.66171">
        <ele>318.39999389648</ele>
        <time>2020-06-10T14:56:34.000Z</time>
      </trkpt>
      <trkpt lat="46.10332" lon="4.66294">
        <ele>314.20001220703</ele>
        <time>2020-06-10T14:56:45.000Z</time>
      </trkpt>
      <trkpt lat="46.10328" lon="4.66321">
        <ele>310.79998779297</ele>
        <time>2020-06-10T14:56:47.000Z</time>
      </trkpt>
      <trkpt lat="46.10326" lon="4.66336">
        <ele>310.79998779297</ele>
        <time>2020-06-10T14:56:48.000Z</time>
      </trkpt>
      <trkpt lat="46.10321" lon="4.66365">
        <ele>306.60000610352</ele>
        <time>2020-06-10T14:56:50.000Z</time>
      </trkpt>
      <trkpt lat="46.10316" lon="4.66408">
        <ele>302.60000610352</ele>
        <time>2020-06-10T14:56:53.000Z</time>
      </trkpt>
      <trkpt lat="46.10307" lon="4.66466">
        <ele>299.60000610352</ele>
        <time>2020-06-10T14:56:57.000Z</time>
      </trkpt>
      <trkpt lat="46.10304" lon="4.66504">
        <ele>295.60000610352</ele>
        <time>2020-06-10T14:57:00.000Z</time>
      </trkpt>
      <trkpt lat="46.10304" lon="4.66531">
        <ele>293.39999389648</ele>
        <time>2020-06-10T14:57:02.000Z</time>
      </trkpt>
      <trkpt lat="46.10311" lon="4.6657">
        <ele>288.60000610352</ele>
        <time>2020-06-10T14:57:05.000Z</time>
      </trkpt>
      <trkpt lat="46.10319" lon="4.66595">
        <ele>286.79998779297</ele>
        <time>2020-06-10T14:57:07.000Z</time>
      </trkpt>
      <trkpt lat="46.10339" lon="4.66641">
        <ele>282</ele>
        <time>2020-06-10T14:57:11.000Z</time>
      </trkpt>
      <trkpt lat="46.10343" lon="4.66652">
        <ele>278.39999389648</ele>
        <time>2020-06-10T14:57:13.000Z</time>
      </trkpt>
      <trkpt lat="46.10332" lon="4.66655">
        <ele>273.79998779297</ele>
        <time>2020-06-10T14:57:18.000Z</time>
      </trkpt>
      <trkpt lat="46.10328" lon="4.66652">
        <ele>273.60000610352</ele>
        <time>2020-06-10T14:57:19.000Z</time>
      </trkpt>
      <trkpt lat="46.10302" lon="4.66633">
        <ele>273.39999389648</ele>
        <time>2020-06-10T14:57:25.000Z</time>
      </trkpt>
      <trkpt lat="46.10229" lon="4.666">
        <ele>272.39999389648</ele>
        <time>2020-06-10T14:57:39.000Z</time>
      </trkpt>
      <trkpt lat="46.10205" lon="4.66601">
        <ele>271.20001220703</ele>
        <time>2020-06-10T14:57:47.000Z</time>
      </trkpt>
      <trkpt lat="46.10195" lon="4.6661">
        <ele>271</ele>
        <time>2020-06-10T14:57:50.000Z</time>
      </trkpt>
      <trkpt lat="46.10184" lon="4.6661">
        <ele>271</ele>
        <time>2020-06-10T14:57:52.000Z</time>
      </trkpt>
      <trkpt lat="46.1017" lon="4.66611">
        <ele>270.60000610352</ele>
        <time>2020-06-10T14:57:55.000Z</time>
      </trkpt>
      <trkpt lat="46.10161" lon="4.66624">
        <ele>269.20001220703</ele>
        <time>2020-06-10T14:57:59.000Z</time>
      </trkpt>
      <trkpt lat="46.10154" lon="4.66661">
        <ele>266.39999389648</ele>
        <time>2020-06-10T14:58:04.000Z</time>
      </trkpt>
      <trkpt lat="46.10137" lon="4.66742">
        <ele>262.39999389648</ele>
        <time>2020-06-10T14:58:13.000Z</time>
      </trkpt>
      <trkpt lat="46.10133" lon="4.66758">
        <ele>259.60000610352</ele>
        <time>2020-06-10T14:58:21.000Z</time>
      </trkpt>
      <trkpt lat="46.10133" lon="4.66758">
        <ele>259.39999389648</ele>
        <time>2020-06-10T14:58:22.000Z</time>
      </trkpt>
      <trkpt lat="46.10136" lon="4.6677">
        <ele>259.39999389648</ele>
        <time>2020-06-10T14:58:28.000Z</time>
      </trkpt>
      <trkpt lat="46.10137" lon="4.66775">
        <ele>259.39999389648</ele>
        <time>2020-06-10T14:58:29.000Z</time>
      </trkpt>
      <trkpt lat="46.10134" lon="4.668">
        <ele>259.39999389648</ele>
        <time>2020-06-10T14:58:33.000Z</time>
      </trkpt>
      <trkpt lat="46.10128" lon="4.66836">
        <ele>258.60000610352</ele>
        <time>2020-06-10T14:58:38.000Z</time>
      </trkpt>
      <trkpt lat="46.10104" lon="4.66966">
        <ele>256.60000610352</ele>
        <time>2020-06-10T14:58:55.000Z</time>
      </trkpt>
      <trkpt lat="46.10078" lon="4.67108">
        <ele>254.60000610352</ele>
        <time>2020-06-10T14:59:11.000Z</time>
      </trkpt>
      <trkpt lat="46.1006" lon="4.67227">
        <ele>251.80000305176</ele>
        <time>2020-06-10T14:59:25.000Z</time>
      </trkpt>
      <trkpt lat="46.10056" lon="4.67241">
        <ele>251.60000610352</ele>
        <time>2020-06-10T14:59:27.000Z</time>
      </trkpt>
      <trkpt lat="46.10042" lon="4.67316">
        <ele>251.39999389648</ele>
        <time>2020-06-10T14:59:37.000Z</time>
      </trkpt>
      <trkpt lat="46.1003" lon="4.67385">
        <ele>250.60000610352</ele>
        <time>2020-06-10T14:59:45.000Z</time>
      </trkpt>
      <trkpt lat="46.10006" lon="4.67491">
        <ele>250</ele>
        <time>2020-06-10T14:59:58.000Z</time>
      </trkpt>
      <trkpt lat="46.10003" lon="4.67499">
        <ele>250</ele>
        <time>2020-06-10T14:59:59.000Z</time>
      </trkpt>
      <trkpt lat="46.09963" lon="4.67585">
        <ele>249.19999694824</ele>
        <time>2020-06-10T15:00:11.000Z</time>
      </trkpt>
      <trkpt lat="46.09959" lon="4.67591">
        <ele>249</ele>
        <time>2020-06-10T15:00:12.000Z</time>
      </trkpt>
      <trkpt lat="46.09948" lon="4.67612">
        <ele>248.80000305176</ele>
        <time>2020-06-10T15:00:15.000Z</time>
      </trkpt>
      <trkpt lat="46.0993" lon="4.67714">
        <ele>245</ele>
        <time>2020-06-10T15:00:26.000Z</time>
      </trkpt>
      <trkpt lat="46.09929" lon="4.67724">
        <ele>245</ele>
        <time>2020-06-10T15:00:27.000Z</time>
      </trkpt>
      <trkpt lat="46.09929" lon="4.67778">
        <ele>241.60000610352</ele>
        <time>2020-06-10T15:00:32.000Z</time>
      </trkpt>
      <trkpt lat="46.09929" lon="4.67797">
        <ele>240.19999694824</ele>
        <time>2020-06-10T15:00:34.000Z</time>
      </trkpt>
      <trkpt lat="46.09938" lon="4.67832">
        <ele>238</ele>
        <time>2020-06-10T15:00:38.000Z</time>
      </trkpt>
      <trkpt lat="46.09949" lon="4.67878">
        <ele>235.60000610352</ele>
        <time>2020-06-10T15:00:44.000Z</time>
      </trkpt>
      <trkpt lat="46.09951" lon="4.67907">
        <ele>234</ele>
        <time>2020-06-10T15:00:47.000Z</time>
      </trkpt>
      <trkpt lat="46.09953" lon="4.67971">
        <ele>231.60000610352</ele>
        <time>2020-06-10T15:00:53.000Z</time>
      </trkpt>
      <trkpt lat="46.09952" lon="4.68011">
        <ele>228.19999694824</ele>
        <time>2020-06-10T15:00:57.000Z</time>
      </trkpt>
      <trkpt lat="46.09951" lon="4.68045">
        <ele>225</ele>
        <time>2020-06-10T15:01:01.000Z</time>
      </trkpt>
      <trkpt lat="46.09949" lon="4.68061">
        <ele>221.80000305176</ele>
        <time>2020-06-10T15:01:07.000Z</time>
      </trkpt>
      <trkpt lat="46.0994" lon="4.68091">
        <ele>220.60000610352</ele>
        <time>2020-06-10T15:01:15.000Z</time>
      </trkpt>
      <trkpt lat="46.0993" lon="4.68142">
        <ele>219.60000610352</ele>
        <time>2020-06-10T15:01:21.000Z</time>
      </trkpt>
      <trkpt lat="46.09931" lon="4.68176">
        <ele>218</ele>
        <time>2020-06-10T15:01:25.000Z</time>
      </trkpt>
      <trkpt lat="46.09927" lon="4.6824">
        <ele>214</ele>
        <time>2020-06-10T15:01:32.000Z</time>
      </trkpt>
      <trkpt lat="46.09922" lon="4.68296">
        <ele>211.80000305176</ele>
        <time>2020-06-10T15:01:38.000Z</time>
      </trkpt>
      <trkpt lat="46.0992" lon="4.68333">
        <ele>211.19999694824</ele>
        <time>2020-06-10T15:01:42.000Z</time>
      </trkpt>
      <trkpt lat="46.09914" lon="4.68368">
        <ele>211</ele>
        <time>2020-06-10T15:01:46.000Z</time>
      </trkpt>
      <trkpt lat="46.09909" lon="4.68384">
        <ele>210.80000305176</ele>
        <time>2020-06-10T15:01:48.000Z</time>
      </trkpt>
      <trkpt lat="46.09866" lon="4.68462">
        <ele>209.60000610352</ele>
        <time>2020-06-10T15:01:59.000Z</time>
      </trkpt>
      <trkpt lat="46.09853" lon="4.68521">
        <ele>209</ele>
        <time>2020-06-10T15:02:06.000Z</time>
      </trkpt>
      <trkpt lat="46.09845" lon="4.68591">
        <ele>208.39999389648</ele>
        <time>2020-06-10T15:02:15.000Z</time>
      </trkpt>
      <trkpt lat="46.09832" lon="4.68645">
        <ele>208</ele>
        <time>2020-06-10T15:02:22.000Z</time>
      </trkpt>
      <trkpt lat="46.09819" lon="4.68669">
        <ele>208</ele>
        <time>2020-06-10T15:02:26.000Z</time>
      </trkpt>
      <trkpt lat="46.09775" lon="4.68749">
        <ele>207.60000610352</ele>
        <time>2020-06-10T15:02:37.000Z</time>
      </trkpt>
      <trkpt lat="46.09742" lon="4.68892">
        <ele>207</ele>
        <time>2020-06-10T15:02:54.000Z</time>
      </trkpt>
      <trkpt lat="46.09719" lon="4.68998">
        <ele>206.39999389648</ele>
        <time>2020-06-10T15:03:09.000Z</time>
      </trkpt>
      <trkpt lat="46.09717" lon="4.68998">
        <ele>206.39999389648</ele>
        <time>2020-06-10T15:03:10.000Z</time>
      </trkpt>
      <trkpt lat="46.09714" lon="4.68998">
        <ele>206.39999389648</ele>
        <time>2020-06-10T15:03:11.000Z</time>
      </trkpt>
      <trkpt lat="46.0971" lon="4.68996">
        <ele>206.39999389648</ele>
        <time>2020-06-10T15:03:12.000Z</time>
      </trkpt>
      <trkpt lat="46.09706" lon="4.68995">
        <ele>206.39999389648</ele>
        <time>2020-06-10T15:03:13.000Z</time>
      </trkpt>
      <trkpt lat="46.09702" lon="4.68993">
        <ele>206.39999389648</ele>
        <time>2020-06-10T15:03:14.000Z</time>
      </trkpt>
      <trkpt lat="46.09619" lon="4.68985">
        <ele>206.60000610352</ele>
        <time>2020-06-10T15:03:31.000Z</time>
      </trkpt>
      <trkpt lat="46.09591" lon="4.68998">
        <ele>206.60000610352</ele>
        <time>2020-06-10T15:03:37.000Z</time>
      </trkpt>
      <trkpt lat="46.09576" lon="4.69015">
        <ele>206.60000610352</ele>
        <time>2020-06-10T15:03:41.000Z</time>
      </trkpt>
      <trkpt lat="46.09551" lon="4.6905">
        <ele>206.19999694824</ele>
        <time>2020-06-10T15:03:47.000Z</time>
      </trkpt>
      <trkpt lat="46.09545" lon="4.6906">
        <ele>205.80000305176</ele>
        <time>2020-06-10T15:03:49.000Z</time>
      </trkpt>
      <trkpt lat="46.09495" lon="4.69122">
        <ele>205.19999694824</ele>
        <time>2020-06-10T15:04:02.000Z</time>
      </trkpt>
      <trkpt lat="46.09445" lon="4.69181">
        <ele>205.39999389648</ele>
        <time>2020-06-10T15:04:14.000Z</time>
      </trkpt>
      <trkpt lat="46.09431" lon="4.69191">
        <ele>205.39999389648</ele>
        <time>2020-06-10T15:04:17.000Z</time>
      </trkpt>
      <trkpt lat="46.09394" lon="4.69223">
        <ele>205.80000305176</ele>
        <time>2020-06-10T15:04:25.000Z</time>
      </trkpt>
      <trkpt lat="46.09375" lon="4.6924">
        <ele>205.60000610352</ele>
        <time>2020-06-10T15:04:35.000Z</time>
      </trkpt>
      <trkpt lat="46.09375" lon="4.6924">
        <ele>205.60000610352</ele>
        <time>2020-06-10T15:04:36.000Z</time>
      </trkpt>
      <trkpt lat="46.09372" lon="4.6924">
        <ele>205.60000610352</ele>
        <time>2020-06-10T15:06:44.000Z</time>
      </trkpt>
      <trkpt lat="46.09364" lon="4.69249">
        <ele>205.60000610352</ele>
        <time>2020-06-10T15:06:48.000Z</time>
      </trkpt>
      <trkpt lat="46.09305" lon="4.6928">
        <ele>205.60000610352</ele>
        <time>2020-06-10T15:07:01.000Z</time>
      </trkpt>
      <trkpt lat="46.09242" lon="4.69292">
        <ele>204.80000305176</ele>
        <time>2020-06-10T15:07:12.000Z</time>
      </trkpt>
      <trkpt lat="46.09213" lon="4.69322">
        <ele>204</ele>
        <time>2020-06-10T15:07:19.000Z</time>
      </trkpt>
      <trkpt lat="46.09181" lon="4.69395">
        <ele>203.19999694824</ele>
        <time>2020-06-10T15:07:30.000Z</time>
      </trkpt>
      <trkpt lat="46.09161" lon="4.69408">
        <ele>202.80000305176</ele>
        <time>2020-06-10T15:07:34.000Z</time>
      </trkpt>
      <trkpt lat="46.09107" lon="4.69421">
        <ele>202.60000610352</ele>
        <time>2020-06-10T15:07:44.000Z</time>
      </trkpt>
      <trkpt lat="46.09028" lon="4.69428">
        <ele>202.80000305176</ele>
        <time>2020-06-10T15:07:59.000Z</time>
      </trkpt>
      <trkpt lat="46.09003" lon="4.69423">
        <ele>202.60000610352</ele>
        <time>2020-06-10T15:08:04.000Z</time>
      </trkpt>
      <trkpt lat="46.0899" lon="4.69446">
        <ele>202.60000610352</ele>
        <time>2020-06-10T15:08:09.000Z</time>
      </trkpt>
      <trkpt lat="46.08979" lon="4.69491">
        <ele>202.39999389648</ele>
        <time>2020-06-10T15:08:15.000Z</time>
      </trkpt>
      <trkpt lat="46.08951" lon="4.69605">
        <ele>202.39999389648</ele>
        <time>2020-06-10T15:08:30.000Z</time>
      </trkpt>
      <trkpt lat="46.08943" lon="4.69635">
        <ele>202.39999389648</ele>
        <time>2020-06-10T15:08:34.000Z</time>
      </trkpt>
      <trkpt lat="46.08915" lon="4.6974">
        <ele>201.80000305176</ele>
        <time>2020-06-10T15:08:48.000Z</time>
      </trkpt>
      <trkpt lat="46.08909" lon="4.69755">
        <ele>201.39999389648</ele>
        <time>2020-06-10T15:08:51.000Z</time>
      </trkpt>
      <trkpt lat="46.08912" lon="4.69771">
        <ele>201</ele>
        <time>2020-06-10T15:08:55.000Z</time>
      </trkpt>
      <trkpt lat="46.08915" lon="4.69795">
        <ele>200.80000305176</ele>
        <time>2020-06-10T15:08:59.000Z</time>
      </trkpt>
      <trkpt lat="46.08924" lon="4.69897">
        <ele>198.39999389648</ele>
        <time>2020-06-10T15:09:15.000Z</time>
      </trkpt>
      <trkpt lat="46.08928" lon="4.69986">
        <ele>195.60000610352</ele>
        <time>2020-06-10T15:09:30.000Z</time>
      </trkpt>
      <trkpt lat="46.08911" lon="4.70018">
        <ele>194.60000610352</ele>
        <time>2020-06-10T15:09:36.000Z</time>
      </trkpt>
      <trkpt lat="46.08844" lon="4.70095">
        <ele>193</ele>
        <time>2020-06-10T15:09:51.000Z</time>
      </trkpt>
      <trkpt lat="46.08769" lon="4.70198">
        <ele>194.60000610352</ele>
        <time>2020-06-10T15:10:10.000Z</time>
      </trkpt>
      <trkpt lat="46.0876" lon="4.70208">
        <ele>194.80000305176</ele>
        <time>2020-06-10T15:10:19.000Z</time>
      </trkpt>
      <trkpt lat="46.08755" lon="4.70218">
        <ele>194.39999389648</ele>
        <time>2020-06-10T15:10:29.000Z</time>
      </trkpt>
      <trkpt lat="46.08753" lon="4.70222">
        <ele>194.39999389648</ele>
        <time>2020-06-10T15:10:30.000Z</time>
      </trkpt>
      <trkpt lat="46.08724" lon="4.70305">
        <ele>193</ele>
        <time>2020-06-10T15:10:43.000Z</time>
      </trkpt>
      <trkpt lat="46.087" lon="4.7043">
        <ele>189.39999389648</ele>
        <time>2020-06-10T15:10:56.000Z</time>
      </trkpt>
      <trkpt lat="46.08697" lon="4.7044">
        <ele>189.19999694824</ele>
        <time>2020-06-10T15:10:57.000Z</time>
      </trkpt>
      <trkpt lat="46.08683" lon="4.70534">
        <ele>186</ele>
        <time>2020-06-10T15:11:06.000Z</time>
      </trkpt>
      <trkpt lat="46.08682" lon="4.70553">
        <ele>185.60000610352</ele>
        <time>2020-06-10T15:11:08.000Z</time>
      </trkpt>
      <trkpt lat="46.08684" lon="4.7059">
        <ele>184.80000305176</ele>
        <time>2020-06-10T15:11:12.000Z</time>
      </trkpt>
      <trkpt lat="46.08689" lon="4.70637">
        <ele>184.60000610352</ele>
        <time>2020-06-10T15:11:17.000Z</time>
      </trkpt>
      <trkpt lat="46.08692" lon="4.70676">
        <ele>184.60000610352</ele>
        <time>2020-06-10T15:11:21.000Z</time>
      </trkpt>
      <trkpt lat="46.08695" lon="4.70703">
        <ele>184.39999389648</ele>
        <time>2020-06-10T15:11:24.000Z</time>
      </trkpt>
      <trkpt lat="46.0871" lon="4.7082">
        <ele>184</ele>
        <time>2020-06-10T15:11:37.000Z</time>
      </trkpt>
      <trkpt lat="46.08709" lon="4.7091">
        <ele>185</ele>
        <time>2020-06-10T15:11:48.000Z</time>
      </trkpt>
      <trkpt lat="46.08706" lon="4.70932">
        <ele>185.39999389648</ele>
        <time>2020-06-10T15:11:51.000Z</time>
      </trkpt>
      <trkpt lat="46.08667" lon="4.71033">
        <ele>188.80000305176</ele>
        <time>2020-06-10T15:12:06.000Z</time>
      </trkpt>
      <trkpt lat="46.0864" lon="4.7116">
        <ele>191.60000610352</ele>
        <time>2020-06-10T15:12:22.000Z</time>
      </trkpt>
      <trkpt lat="46.08622" lon="4.71295">
        <ele>191.39999389648</ele>
        <time>2020-06-10T15:12:38.000Z</time>
      </trkpt>
      <trkpt lat="46.0861" lon="4.71368">
        <ele>191</ele>
        <time>2020-06-10T15:12:47.000Z</time>
      </trkpt>
      <trkpt lat="46.08599" lon="4.71417">
        <ele>190.80000305176</ele>
        <time>2020-06-10T15:12:55.000Z</time>
      </trkpt>
      <trkpt lat="46.08598" lon="4.71424">
        <ele>190.80000305176</ele>
        <time>2020-06-10T15:12:56.000Z</time>
      </trkpt>
      <trkpt lat="46.08596" lon="4.71468">
        <ele>190.80000305176</ele>
        <time>2020-06-10T15:13:02.000Z</time>
      </trkpt>
      <trkpt lat="46.08596" lon="4.71474">
        <ele>190.80000305176</ele>
        <time>2020-06-10T15:13:03.000Z</time>
      </trkpt>
      <trkpt lat="46.08599" lon="4.71478">
        <ele>190.80000305176</ele>
        <time>2020-06-10T15:13:04.000Z</time>
      </trkpt>
      <trkpt lat="46.08604" lon="4.71481">
        <ele>190.80000305176</ele>
        <time>2020-06-10T15:13:05.000Z</time>
      </trkpt>
      <trkpt lat="46.08609" lon="4.71483">
        <ele>190.80000305176</ele>
        <time>2020-06-10T15:13:06.000Z</time>
      </trkpt>
      <trkpt lat="46.08615" lon="4.71485">
        <ele>190.80000305176</ele>
        <time>2020-06-10T15:13:07.000Z</time>
      </trkpt>
      <trkpt lat="46.08653" lon="4.71503">
        <ele>190.80000305176</ele>
        <time>2020-06-10T15:13:14.000Z</time>
      </trkpt>
      <trkpt lat="46.08727" lon="4.7152">
        <ele>190.39999389648</ele>
        <time>2020-06-10T15:13:27.000Z</time>
      </trkpt>
      <trkpt lat="46.08743" lon="4.71547">
        <ele>190.39999389648</ele>
        <time>2020-06-10T15:13:32.000Z</time>
      </trkpt>
      <trkpt lat="46.08745" lon="4.71561">
        <ele>190.60000610352</ele>
        <time>2020-06-10T15:13:34.000Z</time>
      </trkpt>
      <trkpt lat="46.0874" lon="4.7159">
        <ele>191.19999694824</ele>
        <time>2020-06-10T15:13:39.000Z</time>
      </trkpt>
      <trkpt lat="46.08701" lon="4.71659">
        <ele>191.39999389648</ele>
        <time>2020-06-10T15:13:52.000Z</time>
      </trkpt>
      <trkpt lat="46.08685" lon="4.71675">
        <ele>191</ele>
        <time>2020-06-10T15:13:56.000Z</time>
      </trkpt>
      <trkpt lat="46.08631" lon="4.7171">
        <ele>190.80000305176</ele>
        <time>2020-06-10T15:14:09.000Z</time>
      </trkpt>
      <trkpt lat="46.08583" lon="4.71783">
        <ele>190.60000610352</ele>
        <time>2020-06-10T15:14:24.000Z</time>
      </trkpt>
      <trkpt lat="46.0857" lon="4.71813">
        <ele>190.60000610352</ele>
        <time>2020-06-10T15:14:30.000Z</time>
      </trkpt>
      <trkpt lat="46.08519" lon="4.71801">
        <ele>190.39999389648</ele>
        <time>2020-06-10T15:14:41.000Z</time>
      </trkpt>
      <trkpt lat="46.08498" lon="4.71798">
        <ele>189.80000305176</ele>
        <time>2020-06-10T15:14:45.000Z</time>
      </trkpt>
      <trkpt lat="46.08467" lon="4.71802">
        <ele>189.60000610352</ele>
        <time>2020-06-10T15:14:51.000Z</time>
      </trkpt>
      <trkpt lat="46.08434" lon="4.71783">
        <ele>189.80000305176</ele>
        <time>2020-06-10T15:14:58.000Z</time>
      </trkpt>
      <trkpt lat="46.08421" lon="4.7177">
        <ele>190</ele>
        <time>2020-06-10T15:15:01.000Z</time>
      </trkpt>
      <trkpt lat="46.08385" lon="4.71737">
        <ele>190</ele>
        <time>2020-06-10T15:15:11.000Z</time>
      </trkpt>
      <trkpt lat="46.08359" lon="4.7176">
        <ele>190</ele>
        <time>2020-06-10T15:15:18.000Z</time>
      </trkpt>
      <trkpt lat="46.08311" lon="4.71869">
        <ele>189.39999389648</ele>
        <time>2020-06-10T15:15:33.000Z</time>
      </trkpt>
      <trkpt lat="46.08273" lon="4.71999">
        <ele>188.39999389648</ele>
        <time>2020-06-10T15:15:48.000Z</time>
      </trkpt>
      <trkpt lat="46.08268" lon="4.72018">
        <ele>188.39999389648</ele>
        <time>2020-06-10T15:15:50.000Z</time>
      </trkpt>
      <trkpt lat="46.08233" lon="4.72161">
        <ele>185.19999694824</ele>
        <time>2020-06-10T15:16:04.000Z</time>
      </trkpt>
      <trkpt lat="46.08203" lon="4.72241">
        <ele>183.60000610352</ele>
        <time>2020-06-10T15:16:12.000Z</time>
      </trkpt>
      <trkpt lat="46.08194" lon="4.72269">
        <ele>183</ele>
        <time>2020-06-10T15:16:15.000Z</time>
      </trkpt>
      <trkpt lat="46.08184" lon="4.72304">
        <ele>182.39999389648</ele>
        <time>2020-06-10T15:16:19.000Z</time>
      </trkpt>
      <trkpt lat="46.08146" lon="4.72418">
        <ele>181.19999694824</ele>
        <time>2020-06-10T15:16:32.000Z</time>
      </trkpt>
      <trkpt lat="46.08109" lon="4.72543">
        <ele>180</ele>
        <time>2020-06-10T15:16:46.000Z</time>
      </trkpt>
      <trkpt lat="46.081" lon="4.72655">
        <ele>180</ele>
        <time>2020-06-10T15:16:59.000Z</time>
      </trkpt>
      <trkpt lat="46.081" lon="4.72681">
        <ele>180.60000610352</ele>
        <time>2020-06-10T15:17:08.000Z</time>
      </trkpt>
      <trkpt lat="46.081" lon="4.72682">
        <ele>181.60000610352</ele>
        <time>2020-06-10T15:17:09.000Z</time>
      </trkpt>
      <trkpt lat="46.08098" lon="4.727">
        <ele>182.80000305176</ele>
        <time>2020-06-10T15:17:13.000Z</time>
      </trkpt>
      <trkpt lat="46.08102" lon="4.72808">
        <ele>181.80000305176</ele>
        <time>2020-06-10T15:17:26.000Z</time>
      </trkpt>
      <trkpt lat="46.08102" lon="4.72901">
        <ele>180.60000610352</ele>
        <time>2020-06-10T15:17:36.000Z</time>
      </trkpt>
      <trkpt lat="46.08098" lon="4.73039">
        <ele>178.39999389648</ele>
        <time>2020-06-10T15:17:50.000Z</time>
      </trkpt>
      <trkpt lat="46.081" lon="4.73106">
        <ele>177.60000610352</ele>
        <time>2020-06-10T15:17:58.000Z</time>
      </trkpt>
      <trkpt lat="46.08108" lon="4.73145">
        <ele>177.60000610352</ele>
        <time>2020-06-10T15:18:03.000Z</time>
      </trkpt>
      <trkpt lat="46.08118" lon="4.73215">
        <ele>178.19999694824</ele>
        <time>2020-06-10T15:18:12.000Z</time>
      </trkpt>
      <trkpt lat="46.08177" lon="4.73344">
        <ele>177.60000610352</ele>
        <time>2020-06-10T15:18:30.000Z</time>
      </trkpt>
      <trkpt lat="46.08171" lon="4.7338">
        <ele>177.19999694824</ele>
        <time>2020-06-10T15:18:37.000Z</time>
      </trkpt>
      <trkpt lat="46.08161" lon="4.73389">
        <ele>177.19999694824</ele>
        <time>2020-06-10T15:18:39.000Z</time>
      </trkpt>
      <trkpt lat="46.08148" lon="4.73408">
        <ele>177</ele>
        <time>2020-06-10T15:18:43.000Z</time>
      </trkpt>
      <trkpt lat="46.08133" lon="4.73439">
        <ele>176.80000305176</ele>
        <time>2020-06-10T15:18:49.000Z</time>
      </trkpt>
      <trkpt lat="46.08133" lon="4.73494">
        <ele>176.39999389648</ele>
        <time>2020-06-10T15:18:59.000Z</time>
      </trkpt>
      <trkpt lat="46.08132" lon="4.73499">
        <ele>176.60000610352</ele>
        <time>2020-06-10T15:19:00.000Z</time>
      </trkpt>
      <trkpt lat="46.08132" lon="4.73524">
        <ele>176.39999389648</ele>
        <time>2020-06-10T15:19:04.000Z</time>
      </trkpt>
      <trkpt lat="46.08132" lon="4.73586">
        <ele>176.19999694824</ele>
        <time>2020-06-10T15:19:14.000Z</time>
      </trkpt>
      <trkpt lat="46.08135" lon="4.73641">
        <ele>176</ele>
        <time>2020-06-10T15:19:25.000Z</time>
      </trkpt>
      <trkpt lat="46.08135" lon="4.73654">
        <ele>176</ele>
        <time>2020-06-10T15:19:27.000Z</time>
      </trkpt>
      <trkpt lat="46.08135" lon="4.73693">
        <ele>176</ele>
        <time>2020-06-10T15:19:33.000Z</time>
      </trkpt>
      <trkpt lat="46.08135" lon="4.73794">
        <ele>175.19999694824</ele>
        <time>2020-06-10T15:19:47.000Z</time>
      </trkpt>
      <trkpt lat="46.08136" lon="4.73806">
        <ele>175.19999694824</ele>
        <time>2020-06-10T15:19:49.000Z</time>
      </trkpt>
      <trkpt lat="46.08134" lon="4.73841">
        <ele>175.39999389648</ele>
        <time>2020-06-10T15:19:59.000Z</time>
      </trkpt>
      <trkpt lat="46.08133" lon="4.73841">
        <ele>175.60000610352</ele>
        <time>2020-06-10T15:20:01.000Z</time>
      </trkpt>
      <trkpt lat="46.08132" lon="4.73845">
        <ele>176</ele>
        <time>2020-06-10T15:20:04.000Z</time>
      </trkpt>
      <trkpt lat="46.08134" lon="4.73864">
        <ele>176.19999694824</ele>
        <time>2020-06-10T15:20:18.000Z</time>
      </trkpt>
      <trkpt lat="46.08107" lon="4.73867">
        <ele>176.19999694824</ele>
        <time>2020-06-10T15:20:30.000Z</time>
      </trkpt>
      <trkpt lat="46.08046" lon="4.7387">
        <ele>176.19999694824</ele>
        <time>2020-06-10T15:20:42.000Z</time>
      </trkpt>
      <trkpt lat="46.08035" lon="4.73871">
        <ele>176.19999694824</ele>
        <time>2020-06-10T15:20:44.000Z</time>
      </trkpt>
      <trkpt lat="46.07986" lon="4.7388">
        <ele>176.19999694824</ele>
        <time>2020-06-10T15:20:53.000Z</time>
      </trkpt>
      <trkpt lat="46.07898" lon="4.73889">
        <ele>178.39999389648</ele>
        <time>2020-06-10T15:21:10.000Z</time>
      </trkpt>
      <trkpt lat="46.07812" lon="4.73911">
        <ele>181.39999389648</ele>
        <time>2020-06-10T15:21:27.000Z</time>
      </trkpt>
      <trkpt lat="46.07712" lon="4.73945">
        <ele>183.19999694824</ele>
        <time>2020-06-10T15:21:46.000Z</time>
      </trkpt>
      <trkpt lat="46.0763" lon="4.73954">
        <ele>184.39999389648</ele>
        <time>2020-06-10T15:22:01.000Z</time>
      </trkpt>
      <trkpt lat="46.07573" lon="4.73952">
        <ele>186</ele>
        <time>2020-06-10T15:22:15.000Z</time>
      </trkpt>
      <trkpt lat="46.07561" lon="4.73952">
        <ele>186.19999694824</ele>
        <time>2020-06-10T15:22:18.000Z</time>
      </trkpt>
      <trkpt lat="46.07547" lon="4.7395">
        <ele>186.39999389648</ele>
        <time>2020-06-10T15:22:21.000Z</time>
      </trkpt>
      <trkpt lat="46.07521" lon="4.7395">
        <ele>186.80000305176</ele>
        <time>2020-06-10T15:22:26.000Z</time>
      </trkpt>
      <trkpt lat="46.075" lon="4.73946">
        <ele>187</ele>
        <time>2020-06-10T15:22:30.000Z</time>
      </trkpt>
      <trkpt lat="46.07426" lon="4.73907">
        <ele>185.39999389648</ele>
        <time>2020-06-10T15:22:43.000Z</time>
      </trkpt>
      <trkpt lat="46.07404" lon="4.73892">
        <ele>185.19999694824</ele>
        <time>2020-06-10T15:22:52.000Z</time>
      </trkpt>
      <trkpt lat="46.07344" lon="4.73869">
        <ele>185.60000610352</ele>
        <time>2020-06-10T15:23:05.000Z</time>
      </trkpt>
      <trkpt lat="46.07262" lon="4.73844">
        <ele>185.60000610352</ele>
        <time>2020-06-10T15:23:19.000Z</time>
      </trkpt>
      <trkpt lat="46.07202" lon="4.73827">
        <ele>183.80000305176</ele>
        <time>2020-06-10T15:23:28.000Z</time>
      </trkpt>
      <trkpt lat="46.07179" lon="4.73832">
        <ele>182.60000610352</ele>
        <time>2020-06-10T15:23:32.000Z</time>
      </trkpt>
      <trkpt lat="46.07174" lon="4.73835">
        <ele>182.60000610352</ele>
        <time>2020-06-10T15:23:33.000Z</time>
      </trkpt>
      <trkpt lat="46.0717" lon="4.7384">
        <ele>182.60000610352</ele>
        <time>2020-06-10T15:23:34.000Z</time>
      </trkpt>
      <trkpt lat="46.07166" lon="4.73844">
        <ele>182.60000610352</ele>
        <time>2020-06-10T15:23:35.000Z</time>
      </trkpt>
      <trkpt lat="46.07162" lon="4.73849">
        <ele>182.60000610352</ele>
        <time>2020-06-10T15:23:36.000Z</time>
      </trkpt>
      <trkpt lat="46.07159" lon="4.73853">
        <ele>182.60000610352</ele>
        <time>2020-06-10T15:23:37.000Z</time>
      </trkpt>
      <trkpt lat="46.07155" lon="4.73857">
        <ele>182.60000610352</ele>
        <time>2020-06-10T15:23:38.000Z</time>
      </trkpt>
      <trkpt lat="46.07152" lon="4.7386">
        <ele>182.60000610352</ele>
        <time>2020-06-10T15:23:39.000Z</time>
      </trkpt>
      <trkpt lat="46.07148" lon="4.73862">
        <ele>182.80000305176</ele>
        <time>2020-06-10T15:23:40.000Z</time>
      </trkpt>
      <trkpt lat="46.07146" lon="4.73864">
        <ele>183</ele>
        <time>2020-06-10T15:23:41.000Z</time>
      </trkpt>
      <trkpt lat="46.07145" lon="4.73865">
        <ele>183.19999694824</ele>
        <time>2020-06-10T15:23:42.000Z</time>
      </trkpt>
      <trkpt lat="46.07144" lon="4.73867">
        <ele>184.39999389648</ele>
        <time>2020-06-10T15:23:46.000Z</time>
      </trkpt>
      <trkpt lat="46.07143" lon="4.7387">
        <ele>184.60000610352</ele>
        <time>2020-06-10T15:23:47.000Z</time>
      </trkpt>
      <trkpt lat="46.07143" lon="4.73874">
        <ele>184.60000610352</ele>
        <time>2020-06-10T15:23:48.000Z</time>
      </trkpt>
      <trkpt lat="46.07151" lon="4.73896">
        <ele>184.80000305176</ele>
        <time>2020-06-10T15:23:52.000Z</time>
      </trkpt>
      <trkpt lat="46.07197" lon="4.7403">
        <ele>184</ele>
        <time>2020-06-10T15:24:10.000Z</time>
      </trkpt>
      <trkpt lat="46.07221" lon="4.74099">
        <ele>187.19999694824</ele>
        <time>2020-06-10T15:24:21.000Z</time>
      </trkpt>
      <trkpt lat="46.07265" lon="4.7423">
        <ele>188.19999694824</ele>
        <time>2020-06-10T15:24:38.000Z</time>
      </trkpt>
      <trkpt lat="46.0729" lon="4.74322">
        <ele>184.80000305176</ele>
        <time>2020-06-10T15:24:46.000Z</time>
      </trkpt>
      <trkpt lat="46.07298" lon="4.74394">
        <ele>181.80000305176</ele>
        <time>2020-06-10T15:24:52.000Z</time>
      </trkpt>
      <trkpt lat="46.07332" lon="4.74514">
        <ele>180</ele>
        <time>2020-06-10T15:25:04.000Z</time>
      </trkpt>
      <trkpt lat="46.07352" lon="4.74545">
        <ele>179</ele>
        <time>2020-06-10T15:25:08.000Z</time>
      </trkpt>
      <trkpt lat="46.07382" lon="4.74599">
        <ele>178.19999694824</ele>
        <time>2020-06-10T15:25:15.000Z</time>
      </trkpt>
      <trkpt lat="46.07438" lon="4.74712">
        <ele>178.19999694824</ele>
        <time>2020-06-10T15:25:29.000Z</time>
      </trkpt>
      <trkpt lat="46.07508" lon="4.74794">
        <ele>177.39999389648</ele>
        <time>2020-06-10T15:25:43.000Z</time>
      </trkpt>
      <trkpt lat="46.0764" lon="4.74901">
        <ele>177.80000305176</ele>
        <time>2020-06-10T15:26:07.000Z</time>
      </trkpt>
      <trkpt lat="46.07736" lon="4.74979">
        <ele>177.39999389648</ele>
        <time>2020-06-10T15:26:25.000Z</time>
      </trkpt>
      <trkpt lat="46.07849" lon="4.75085">
        <ele>177.60000610352</ele>
        <time>2020-06-10T15:26:47.000Z</time>
      </trkpt>
      <trkpt lat="46.07922" lon="4.75215">
        <ele>177.19999694824</ele>
        <time>2020-06-10T15:27:06.000Z</time>
      </trkpt>
      <trkpt lat="46.07993" lon="4.75369">
        <ele>178</ele>
        <time>2020-06-10T15:27:27.000Z</time>
      </trkpt>
      <trkpt lat="46.08005" lon="4.75394">
        <ele>178.19999694824</ele>
        <time>2020-06-10T15:27:31.000Z</time>
      </trkpt>
      <trkpt lat="46.08044" lon="4.75478">
        <ele>181.19999694824</ele>
        <time>2020-06-10T15:27:45.000Z</time>
      </trkpt>
      <trkpt lat="46.08084" lon="4.75563">
        <ele>182.60000610352</ele>
        <time>2020-06-10T15:27:57.000Z</time>
      </trkpt>
      <trkpt lat="46.08087" lon="4.7557">
        <ele>182.60000610352</ele>
        <time>2020-06-10T15:27:58.000Z</time>
      </trkpt>
      <trkpt lat="46.08108" lon="4.75573">
        <ele>181.80000305176</ele>
        <time>2020-06-10T15:28:03.000Z</time>
      </trkpt>
      <trkpt lat="46.0815" lon="4.75523">
        <ele>178.19999694824</ele>
        <time>2020-06-10T15:28:12.000Z</time>
      </trkpt>
      <trkpt lat="46.08155" lon="4.75517">
        <ele>177.60000610352</ele>
        <time>2020-06-10T15:28:13.000Z</time>
      </trkpt>
      <trkpt lat="46.0817" lon="4.75491">
        <ele>175.80000305176</ele>
        <time>2020-06-10T15:28:17.000Z</time>
      </trkpt>
      <trkpt lat="46.082" lon="4.75436">
        <ele>174.80000305176</ele>
        <time>2020-06-10T15:28:25.000Z</time>
      </trkpt>
      <trkpt lat="46.08217" lon="4.75411">
        <ele>174.39999389648</ele>
        <time>2020-06-10T15:28:29.000Z</time>
      </trkpt>
      <trkpt lat="46.08241" lon="4.75374">
        <ele>174.19999694824</ele>
        <time>2020-06-10T15:28:35.000Z</time>
      </trkpt>
      <trkpt lat="46.08257" lon="4.75351">
        <ele>174</ele>
        <time>2020-06-10T15:28:39.000Z</time>
      </trkpt>
      <trkpt lat="46.08294" lon="4.75317">
        <ele>173.39999389648</ele>
        <time>2020-06-10T15:28:47.000Z</time>
      </trkpt>
      <trkpt lat="46.08328" lon="4.75306">
        <ele>173.80000305176</ele>
        <time>2020-06-10T15:28:53.000Z</time>
      </trkpt>
      <trkpt lat="46.08345" lon="4.75301">
        <ele>174</ele>
        <time>2020-06-10T15:28:56.000Z</time>
      </trkpt>
      <trkpt lat="46.08415" lon="4.75297">
        <ele>174.19999694824</ele>
        <time>2020-06-10T15:29:08.000Z</time>
      </trkpt>
      <trkpt lat="46.08432" lon="4.75295">
        <ele>174.19999694824</ele>
        <time>2020-06-10T15:29:11.000Z</time>
      </trkpt>
      <trkpt lat="46.08512" lon="4.75291">
        <ele>173.60000610352</ele>
        <time>2020-06-10T15:29:25.000Z</time>
      </trkpt>
      <trkpt lat="46.08593" lon="4.75297">
        <ele>174.39999389648</ele>
        <time>2020-06-10T15:29:39.000Z</time>
      </trkpt>
      <trkpt lat="46.08627" lon="4.75302">
        <ele>174.39999389648</ele>
        <time>2020-06-10T15:29:45.000Z</time>
      </trkpt>
      <trkpt lat="46.08661" lon="4.7531">
        <ele>175</ele>
        <time>2020-06-10T15:29:51.000Z</time>
      </trkpt>
      <trkpt lat="46.08673" lon="4.75311">
        <ele>175.19999694824</ele>
        <time>2020-06-10T15:29:53.000Z</time>
      </trkpt>
      <trkpt lat="46.08775" lon="4.7534">
        <ele>175</ele>
        <time>2020-06-10T15:30:10.000Z</time>
      </trkpt>
      <trkpt lat="46.08843" lon="4.75361">
        <ele>174.60000610352</ele>
        <time>2020-06-10T15:30:22.000Z</time>
      </trkpt>
      <trkpt lat="46.08926" lon="4.75401">
        <ele>174.80000305176</ele>
        <time>2020-06-10T15:30:37.000Z</time>
      </trkpt>
      <trkpt lat="46.09015" lon="4.75437">
        <ele>174.60000610352</ele>
        <time>2020-06-10T15:30:53.000Z</time>
      </trkpt>
      <trkpt lat="46.09102" lon="4.75471">
        <ele>174.19999694824</ele>
        <time>2020-06-10T15:31:09.000Z</time>
      </trkpt>
      <trkpt lat="46.09169" lon="4.755">
        <ele>174.39999389648</ele>
        <time>2020-06-10T15:31:21.000Z</time>
      </trkpt>
      <trkpt lat="46.09225" lon="4.75523">
        <ele>174.39999389648</ele>
        <time>2020-06-10T15:31:31.000Z</time>
      </trkpt>
      <trkpt lat="46.09298" lon="4.75553">
        <ele>174.19999694824</ele>
        <time>2020-06-10T15:31:45.000Z</time>
      </trkpt>
      <trkpt lat="46.09381" lon="4.75597">
        <ele>175.80000305176</ele>
        <time>2020-06-10T15:31:59.000Z</time>
      </trkpt>
      <trkpt lat="46.09481" lon="4.75654">
        <ele>175</ele>
        <time>2020-06-10T15:32:17.000Z</time>
      </trkpt>
      <trkpt lat="46.09545" lon="4.75689">
        <ele>175</ele>
        <time>2020-06-10T15:32:29.000Z</time>
      </trkpt>
      <trkpt lat="46.09555" lon="4.75695">
        <ele>175</ele>
        <time>2020-06-10T15:32:31.000Z</time>
      </trkpt>
      <trkpt lat="46.09577" lon="4.75708">
        <ele>175.39999389648</ele>
        <time>2020-06-10T15:32:35.000Z</time>
      </trkpt>
      <trkpt lat="46.0967" lon="4.75774">
        <ele>176.19999694824</ele>
        <time>2020-06-10T15:32:53.000Z</time>
      </trkpt>
      <trkpt lat="46.09748" lon="4.75843">
        <ele>175.80000305176</ele>
        <time>2020-06-10T15:33:09.000Z</time>
      </trkpt>
      <trkpt lat="46.09787" lon="4.75881">
        <ele>175.80000305176</ele>
        <time>2020-06-10T15:33:17.000Z</time>
      </trkpt>
      <trkpt lat="46.09805" lon="4.75901">
        <ele>175.80000305176</ele>
        <time>2020-06-10T15:33:21.000Z</time>
      </trkpt>
      <trkpt lat="46.09853" lon="4.75958">
        <ele>175.60000610352</ele>
        <time>2020-06-10T15:33:32.000Z</time>
      </trkpt>
      <trkpt lat="46.09879" lon="4.75988">
        <ele>175.39999389648</ele>
        <time>2020-06-10T15:33:38.000Z</time>
      </trkpt>
      <trkpt lat="46.09934" lon="4.76049">
        <ele>175.60000610352</ele>
        <time>2020-06-10T15:33:50.000Z</time>
      </trkpt>
      <trkpt lat="46.09957" lon="4.76075">
        <ele>175.60000610352</ele>
        <time>2020-06-10T15:33:55.000Z</time>
      </trkpt>
      <trkpt lat="46.10012" lon="4.76138">
        <ele>175.60000610352</ele>
        <time>2020-06-10T15:34:07.000Z</time>
      </trkpt>
      <trkpt lat="46.10021" lon="4.76149">
        <ele>175.60000610352</ele>
        <time>2020-06-10T15:34:09.000Z</time>
      </trkpt>
      <trkpt lat="46.1003" lon="4.76161">
        <ele>175.60000610352</ele>
        <time>2020-06-10T15:34:11.000Z</time>
      </trkpt>
      <trkpt lat="46.10063" lon="4.76198">
        <ele>175.60000610352</ele>
        <time>2020-06-10T15:34:18.000Z</time>
      </trkpt>
      <trkpt lat="46.1008" lon="4.76218">
        <ele>175.80000305176</ele>
        <time>2020-06-10T15:34:22.000Z</time>
      </trkpt>
      <trkpt lat="46.10123" lon="4.76264">
        <ele>176</ele>
        <time>2020-06-10T15:34:31.000Z</time>
      </trkpt>
      <trkpt lat="46.10165" lon="4.76284">
        <ele>176</ele>
        <time>2020-06-10T15:34:39.000Z</time>
      </trkpt>
      <trkpt lat="46.10176" lon="4.76288">
        <ele>176</ele>
        <time>2020-06-10T15:34:41.000Z</time>
      </trkpt>
      <trkpt lat="46.10201" lon="4.76286">
        <ele>175.60000610352</ele>
        <time>2020-06-10T15:34:46.000Z</time>
      </trkpt>
      <trkpt lat="46.10212" lon="4.76297">
        <ele>175.60000610352</ele>
        <time>2020-06-10T15:34:49.000Z</time>
      </trkpt>
      <trkpt lat="46.10215" lon="4.7631">
        <ele>175.60000610352</ele>
        <time>2020-06-10T15:34:51.000Z</time>
      </trkpt>
      <trkpt lat="46.10241" lon="4.76374">
        <ele>175.39999389648</ele>
        <time>2020-06-10T15:35:00.000Z</time>
      </trkpt>
      <trkpt lat="46.10304" lon="4.76474">
        <ele>175.60000610352</ele>
        <time>2020-06-10T15:35:16.000Z</time>
      </trkpt>
      <trkpt lat="46.10401" lon="4.76571">
        <ele>175.80000305176</ele>
        <time>2020-06-10T15:35:36.000Z</time>
      </trkpt>
      <trkpt lat="46.10467" lon="4.76641">
        <ele>175.39999389648</ele>
        <time>2020-06-10T15:35:51.000Z</time>
      </trkpt>
      <trkpt lat="46.10519" lon="4.76692">
        <ele>175.39999389648</ele>
        <time>2020-06-10T15:36:02.000Z</time>
      </trkpt>
      <trkpt lat="46.10576" lon="4.76748">
        <ele>175.80000305176</ele>
        <time>2020-06-10T15:36:14.000Z</time>
      </trkpt>
      <trkpt lat="46.1064" lon="4.76814">
        <ele>175</ele>
        <time>2020-06-10T15:36:28.000Z</time>
      </trkpt>
      <trkpt lat="46.10715" lon="4.76884">
        <ele>175.19999694824</ele>
        <time>2020-06-10T15:36:42.000Z</time>
      </trkpt>
      <trkpt lat="46.10765" lon="4.76939">
        <ele>175.19999694824</ele>
        <time>2020-06-10T15:36:53.000Z</time>
      </trkpt>
      <trkpt lat="46.10828" lon="4.77014">
        <ele>175.60000610352</ele>
        <time>2020-06-10T15:37:07.000Z</time>
      </trkpt>
      <trkpt lat="46.10875" lon="4.77081">
        <ele>175.80000305176</ele>
        <time>2020-06-10T15:37:18.000Z</time>
      </trkpt>
      <trkpt lat="46.10919" lon="4.77139">
        <ele>175.60000610352</ele>
        <time>2020-06-10T15:37:28.000Z</time>
      </trkpt>
      <trkpt lat="46.10934" lon="4.77154">
        <ele>175.80000305176</ele>
        <time>2020-06-10T15:37:31.000Z</time>
      </trkpt>
      <trkpt lat="46.11005" lon="4.77224">
        <ele>176.19999694824</ele>
        <time>2020-06-10T15:37:45.000Z</time>
      </trkpt>
      <trkpt lat="46.11041" lon="4.77254">
        <ele>176</ele>
        <time>2020-06-10T15:37:52.000Z</time>
      </trkpt>
      <trkpt lat="46.11054" lon="4.7727">
        <ele>176</ele>
        <time>2020-06-10T15:37:55.000Z</time>
      </trkpt>
      <trkpt lat="46.11072" lon="4.77286">
        <ele>176</ele>
        <time>2020-06-10T15:37:59.000Z</time>
      </trkpt>
      <trkpt lat="46.11119" lon="4.77292">
        <ele>176</ele>
        <time>2020-06-10T15:38:07.000Z</time>
      </trkpt>
      <trkpt lat="46.11141" lon="4.77297">
        <ele>176</ele>
        <time>2020-06-10T15:38:11.000Z</time>
      </trkpt>
      <trkpt lat="46.11209" lon="4.77313">
        <ele>175.19999694824</ele>
        <time>2020-06-10T15:38:23.000Z</time>
      </trkpt>
      <trkpt lat="46.11299" lon="4.77324">
        <ele>175</ele>
        <time>2020-06-10T15:38:38.000Z</time>
      </trkpt>
      <trkpt lat="46.11379" lon="4.77336">
        <ele>175.19999694824</ele>
        <time>2020-06-10T15:38:52.000Z</time>
      </trkpt>
      <trkpt lat="46.11467" lon="4.77355">
        <ele>175.60000610352</ele>
        <time>2020-06-10T15:39:07.000Z</time>
      </trkpt>
      <trkpt lat="46.11507" lon="4.77367">
        <ele>175.39999389648</ele>
        <time>2020-06-10T15:39:14.000Z</time>
      </trkpt>
      <trkpt lat="46.11557" lon="4.77388">
        <ele>175.39999389648</ele>
        <time>2020-06-10T15:39:23.000Z</time>
      </trkpt>
      <trkpt lat="46.11603" lon="4.77412">
        <ele>176</ele>
        <time>2020-06-10T15:39:31.000Z</time>
      </trkpt>
      <trkpt lat="46.11625" lon="4.77423">
        <ele>176.19999694824</ele>
        <time>2020-06-10T15:39:35.000Z</time>
      </trkpt>
      <trkpt lat="46.11638" lon="4.77431">
        <ele>176.39999389648</ele>
        <time>2020-06-10T15:39:38.000Z</time>
      </trkpt>
      <trkpt lat="46.11708" lon="4.77486">
        <ele>177</ele>
        <time>2020-06-10T15:39:52.000Z</time>
      </trkpt>
      <trkpt lat="46.1181" lon="4.77555">
        <ele>177</ele>
        <time>2020-06-10T15:40:11.000Z</time>
      </trkpt>
      <trkpt lat="46.11906" lon="4.77609">
        <ele>176</ele>
        <time>2020-06-10T15:40:29.000Z</time>
      </trkpt>
      <trkpt lat="46.11934" lon="4.77621">
        <ele>175.80000305176</ele>
        <time>2020-06-10T15:40:34.000Z</time>
      </trkpt>
      <trkpt lat="46.12006" lon="4.77658">
        <ele>175.60000610352</ele>
        <time>2020-06-10T15:40:48.000Z</time>
      </trkpt>
      <trkpt lat="46.1202" lon="4.77666">
        <ele>175.80000305176</ele>
        <time>2020-06-10T15:40:51.000Z</time>
      </trkpt>
      <trkpt lat="46.12041" lon="4.7768">
        <ele>176</ele>
        <time>2020-06-10T15:40:55.000Z</time>
      </trkpt>
      <trkpt lat="46.12131" lon="4.77767">
        <ele>175.60000610352</ele>
        <time>2020-06-10T15:41:14.000Z</time>
      </trkpt>
      <trkpt lat="46.12145" lon="4.77781">
        <ele>175.60000610352</ele>
        <time>2020-06-10T15:41:17.000Z</time>
      </trkpt>
      <trkpt lat="46.12169" lon="4.77798">
        <ele>175.60000610352</ele>
        <time>2020-06-10T15:41:22.000Z</time>
      </trkpt>
      <trkpt lat="46.12173" lon="4.77803">
        <ele>175.60000610352</ele>
        <time>2020-06-10T15:41:23.000Z</time>
      </trkpt>
      <trkpt lat="46.12177" lon="4.77808">
        <ele>175.60000610352</ele>
        <time>2020-06-10T15:41:24.000Z</time>
      </trkpt>
      <trkpt lat="46.12182" lon="4.77814">
        <ele>175.60000610352</ele>
        <time>2020-06-10T15:41:25.000Z</time>
      </trkpt>
      <trkpt lat="46.12185" lon="4.7782">
        <ele>175.60000610352</ele>
        <time>2020-06-10T15:41:26.000Z</time>
      </trkpt>
      <trkpt lat="46.12189" lon="4.77826">
        <ele>175.60000610352</ele>
        <time>2020-06-10T15:41:27.000Z</time>
      </trkpt>
      <trkpt lat="46.12195" lon="4.77839">
        <ele>175.60000610352</ele>
        <time>2020-06-10T15:41:29.000Z</time>
      </trkpt>
      <trkpt lat="46.12199" lon="4.77845">
        <ele>175.60000610352</ele>
        <time>2020-06-10T15:41:30.000Z</time>
      </trkpt>
      <trkpt lat="46.12234" lon="4.77895">
        <ele>175.60000610352</ele>
        <time>2020-06-10T15:41:39.000Z</time>
      </trkpt>
      <trkpt lat="46.12255" lon="4.77922">
        <ele>175.60000610352</ele>
        <time>2020-06-10T15:41:44.000Z</time>
      </trkpt>
      <trkpt lat="46.12333" lon="4.78001">
        <ele>175.80000305176</ele>
        <time>2020-06-10T15:42:01.000Z</time>
      </trkpt>
      <trkpt lat="46.1239" lon="4.78073">
        <ele>175.60000610352</ele>
        <time>2020-06-10T15:42:15.000Z</time>
      </trkpt>
      <trkpt lat="46.12432" lon="4.78131">
        <ele>175.39999389648</ele>
        <time>2020-06-10T15:42:26.000Z</time>
      </trkpt>
      <trkpt lat="46.12477" lon="4.78193">
        <ele>175</ele>
        <time>2020-06-10T15:42:38.000Z</time>
      </trkpt>
      <trkpt lat="46.12518" lon="4.78244">
        <ele>174.80000305176</ele>
        <time>2020-06-10T15:42:48.000Z</time>
      </trkpt>
      <trkpt lat="46.12563" lon="4.783">
        <ele>175.19999694824</ele>
        <time>2020-06-10T15:42:59.000Z</time>
      </trkpt>
      <trkpt lat="46.12612" lon="4.78366">
        <ele>175.19999694824</ele>
        <time>2020-06-10T15:43:10.000Z</time>
      </trkpt>
      <trkpt lat="46.12674" lon="4.78446">
        <ele>175.19999694824</ele>
        <time>2020-06-10T15:43:23.000Z</time>
      </trkpt>
      <trkpt lat="46.12734" lon="4.78525">
        <ele>175.19999694824</ele>
        <time>2020-06-10T15:43:37.000Z</time>
      </trkpt>
      <trkpt lat="46.12752" lon="4.78545">
        <ele>175.39999389648</ele>
        <time>2020-06-10T15:43:41.000Z</time>
      </trkpt>
      <trkpt lat="46.1277" lon="4.78571">
        <ele>175.60000610352</ele>
        <time>2020-06-10T15:43:45.000Z</time>
      </trkpt>
      <trkpt lat="46.12861" lon="4.7869">
        <ele>176.60000610352</ele>
        <time>2020-06-10T15:44:05.000Z</time>
      </trkpt>
      <trkpt lat="46.12943" lon="4.78797">
        <ele>176.39999389648</ele>
        <time>2020-06-10T15:44:24.000Z</time>
      </trkpt>
      <trkpt lat="46.13007" lon="4.78873">
        <ele>176.19999694824</ele>
        <time>2020-06-10T15:44:39.000Z</time>
      </trkpt>
      <trkpt lat="46.1302" lon="4.78885">
        <ele>176.39999389648</ele>
        <time>2020-06-10T15:44:42.000Z</time>
      </trkpt>
      <trkpt lat="46.13066" lon="4.78913">
        <ele>175.80000305176</ele>
        <time>2020-06-10T15:44:51.000Z</time>
      </trkpt>
      <trkpt lat="46.13086" lon="4.7894">
        <ele>175.39999389648</ele>
        <time>2020-06-10T15:44:56.000Z</time>
      </trkpt>
      <trkpt lat="46.13168" lon="4.79043">
        <ele>175.39999389648</ele>
        <time>2020-06-10T15:45:15.000Z</time>
      </trkpt>
      <trkpt lat="46.13232" lon="4.79123">
        <ele>175</ele>
        <time>2020-06-10T15:45:30.000Z</time>
      </trkpt>
      <trkpt lat="46.13268" lon="4.79161">
        <ele>175</ele>
        <time>2020-06-10T15:45:39.000Z</time>
      </trkpt>
      <trkpt lat="46.13296" lon="4.79188">
        <ele>175</ele>
        <time>2020-06-10T15:45:45.000Z</time>
      </trkpt>
      <trkpt lat="46.13344" lon="4.79231">
        <ele>174.80000305176</ele>
        <time>2020-06-10T15:45:55.000Z</time>
      </trkpt>
      <trkpt lat="46.13358" lon="4.79243">
        <ele>175</ele>
        <time>2020-06-10T15:45:59.000Z</time>
      </trkpt>
      <trkpt lat="46.13396" lon="4.79275">
        <ele>175.80000305176</ele>
        <time>2020-06-10T15:46:11.000Z</time>
      </trkpt>
      <trkpt lat="46.13443" lon="4.79318">
        <ele>175.60000610352</ele>
        <time>2020-06-10T15:46:21.000Z</time>
      </trkpt>
      <trkpt lat="46.13524" lon="4.79395">
        <ele>175.19999694824</ele>
        <time>2020-06-10T15:46:38.000Z</time>
      </trkpt>
      <trkpt lat="46.13581" lon="4.7945">
        <ele>175.19999694824</ele>
        <time>2020-06-10T15:46:50.000Z</time>
      </trkpt>
      <trkpt lat="46.13637" lon="4.79507">
        <ele>175.19999694824</ele>
        <time>2020-06-10T15:47:02.000Z</time>
      </trkpt>
      <trkpt lat="46.13715" lon="4.79586">
        <ele>175.19999694824</ele>
        <time>2020-06-10T15:47:18.000Z</time>
      </trkpt>
      <trkpt lat="46.13783" lon="4.79659">
        <ele>175.19999694824</ele>
        <time>2020-06-10T15:47:33.000Z</time>
      </trkpt>
      <trkpt lat="46.13837" lon="4.79719">
        <ele>174.39999389648</ele>
        <time>2020-06-10T15:47:46.000Z</time>
      </trkpt>
      <trkpt lat="46.13852" lon="4.79742">
        <ele>174.39999389648</ele>
        <time>2020-06-10T15:47:50.000Z</time>
      </trkpt>
      <trkpt lat="46.13893" lon="4.79786">
        <ele>174.39999389648</ele>
        <time>2020-06-10T15:47:59.000Z</time>
      </trkpt>
      <trkpt lat="46.13948" lon="4.79844">
        <ele>174.60000610352</ele>
        <time>2020-06-10T15:48:11.000Z</time>
      </trkpt>
      <trkpt lat="46.13967" lon="4.79865">
        <ele>174.80000305176</ele>
        <time>2020-06-10T15:48:15.000Z</time>
      </trkpt>
      <trkpt lat="46.14033" lon="4.79935">
        <ele>175</ele>
        <time>2020-06-10T15:48:29.000Z</time>
      </trkpt>
      <trkpt lat="46.14089" lon="4.79997">
        <ele>174.80000305176</ele>
        <time>2020-06-10T15:48:42.000Z</time>
      </trkpt>
      <trkpt lat="46.14104" lon="4.80013">
        <ele>174.80000305176</ele>
        <time>2020-06-10T15:48:45.000Z</time>
      </trkpt>
      <trkpt lat="46.14186" lon="4.80078">
        <ele>175</ele>
        <time>2020-06-10T15:49:00.000Z</time>
      </trkpt>
      <trkpt lat="46.14252" lon="4.80122">
        <ele>174.39999389648</ele>
        <time>2020-06-10T15:49:13.000Z</time>
      </trkpt>
      <trkpt lat="46.14294" lon="4.80145">
        <ele>174.19999694824</ele>
        <time>2020-06-10T15:49:21.000Z</time>
      </trkpt>
      <trkpt lat="46.14305" lon="4.80152">
        <ele>174.19999694824</ele>
        <time>2020-06-10T15:49:23.000Z</time>
      </trkpt>
      <trkpt lat="46.14375" lon="4.80187">
        <ele>174.80000305176</ele>
        <time>2020-06-10T15:49:36.000Z</time>
      </trkpt>
      <trkpt lat="46.1446" lon="4.80213">
        <ele>174.60000610352</ele>
        <time>2020-06-10T15:49:51.000Z</time>
      </trkpt>
      <trkpt lat="46.14512" lon="4.80226">
        <ele>174.60000610352</ele>
        <time>2020-06-10T15:50:00.000Z</time>
      </trkpt>
      <trkpt lat="46.14587" lon="4.80246">
        <ele>174.80000305176</ele>
        <time>2020-06-10T15:50:13.000Z</time>
      </trkpt>
      <trkpt lat="46.14598" lon="4.80247">
        <ele>174.60000610352</ele>
        <time>2020-06-10T15:50:15.000Z</time>
      </trkpt>
      <trkpt lat="46.14604" lon="4.80247">
        <ele>174.60000610352</ele>
        <time>2020-06-10T15:50:16.000Z</time>
      </trkpt>
      <trkpt lat="46.14615" lon="4.80244">
        <ele>174.39999389648</ele>
        <time>2020-06-10T15:50:18.000Z</time>
      </trkpt>
      <trkpt lat="46.14625" lon="4.80237">
        <ele>174.39999389648</ele>
        <time>2020-06-10T15:50:20.000Z</time>
      </trkpt>
      <trkpt lat="46.14631" lon="4.80237">
        <ele>174.19999694824</ele>
        <time>2020-06-10T15:50:21.000Z</time>
      </trkpt>
      <trkpt lat="46.14637" lon="4.80238">
        <ele>174.19999694824</ele>
        <time>2020-06-10T15:50:22.000Z</time>
      </trkpt>
      <trkpt lat="46.14642" lon="4.8024">
        <ele>174.19999694824</ele>
        <time>2020-06-10T15:50:23.000Z</time>
      </trkpt>
      <trkpt lat="46.14648" lon="4.80243">
        <ele>174.19999694824</ele>
        <time>2020-06-10T15:50:24.000Z</time>
      </trkpt>
      <trkpt lat="46.14653" lon="4.80246">
        <ele>174.19999694824</ele>
        <time>2020-06-10T15:50:25.000Z</time>
      </trkpt>
      <trkpt lat="46.1469" lon="4.80264">
        <ele>175.19999694824</ele>
        <time>2020-06-10T15:50:32.000Z</time>
      </trkpt>
      <trkpt lat="46.14695" lon="4.80267">
        <ele>175.19999694824</ele>
        <time>2020-06-10T15:50:33.000Z</time>
      </trkpt>
      <trkpt lat="46.147" lon="4.80269">
        <ele>175.19999694824</ele>
        <time>2020-06-10T15:50:34.000Z</time>
      </trkpt>
      <trkpt lat="46.14705" lon="4.80272">
        <ele>175.19999694824</ele>
        <time>2020-06-10T15:50:35.000Z</time>
      </trkpt>
      <trkpt lat="46.14711" lon="4.80274">
        <ele>175.19999694824</ele>
        <time>2020-06-10T15:50:36.000Z</time>
      </trkpt>
      <trkpt lat="46.14716" lon="4.80277">
        <ele>175.19999694824</ele>
        <time>2020-06-10T15:50:37.000Z</time>
      </trkpt>
      <trkpt lat="46.14721" lon="4.8028">
        <ele>175.19999694824</ele>
        <time>2020-06-10T15:50:38.000Z</time>
      </trkpt>
      <trkpt lat="46.14778" lon="4.803">
        <ele>175</ele>
        <time>2020-06-10T15:50:48.000Z</time>
      </trkpt>
      <trkpt lat="46.14788" lon="4.80304">
        <ele>175</ele>
        <time>2020-06-10T15:50:50.000Z</time>
      </trkpt>
      <trkpt lat="46.14799" lon="4.80307">
        <ele>175</ele>
        <time>2020-06-10T15:50:52.000Z</time>
      </trkpt>
      <trkpt lat="46.1484" lon="4.80327">
        <ele>175.39999389648</ele>
        <time>2020-06-10T15:50:59.000Z</time>
      </trkpt>
      <trkpt lat="46.14926" lon="4.80361">
        <ele>175.19999694824</ele>
        <time>2020-06-10T15:51:14.000Z</time>
      </trkpt>
      <trkpt lat="46.14966" lon="4.80376">
        <ele>175.19999694824</ele>
        <time>2020-06-10T15:51:21.000Z</time>
      </trkpt>
      <trkpt lat="46.15048" lon="4.80402">
        <ele>175.60000610352</ele>
        <time>2020-06-10T15:51:35.000Z</time>
      </trkpt>
      <trkpt lat="46.15072" lon="4.80409">
        <ele>175.60000610352</ele>
        <time>2020-06-10T15:51:39.000Z</time>
      </trkpt>
      <trkpt lat="46.15145" lon="4.80441">
        <ele>174.80000305176</ele>
        <time>2020-06-10T15:51:52.000Z</time>
      </trkpt>
      <trkpt lat="46.15235" lon="4.8047">
        <ele>174.80000305176</ele>
        <time>2020-06-10T15:52:08.000Z</time>
      </trkpt>
      <trkpt lat="46.15305" lon="4.80493">
        <ele>174.60000610352</ele>
        <time>2020-06-10T15:52:20.000Z</time>
      </trkpt>
      <trkpt lat="46.1531" lon="4.80495">
        <ele>174.60000610352</ele>
        <time>2020-06-10T15:52:21.000Z</time>
      </trkpt>
      <trkpt lat="46.15326" lon="4.80499">
        <ele>174.60000610352</ele>
        <time>2020-06-10T15:52:24.000Z</time>
      </trkpt>
      <trkpt lat="46.15379" lon="4.80513">
        <ele>174.60000610352</ele>
        <time>2020-06-10T15:52:33.000Z</time>
      </trkpt>
      <trkpt lat="46.15421" lon="4.80519">
        <ele>174.80000305176</ele>
        <time>2020-06-10T15:52:40.000Z</time>
      </trkpt>
      <trkpt lat="46.15452" lon="4.80525">
        <ele>175</ele>
        <time>2020-06-10T15:52:45.000Z</time>
      </trkpt>
      <trkpt lat="46.15484" lon="4.80521">
        <ele>174.80000305176</ele>
        <time>2020-06-10T15:52:51.000Z</time>
      </trkpt>
      <trkpt lat="46.155" lon="4.80521">
        <ele>175</ele>
        <time>2020-06-10T15:52:54.000Z</time>
      </trkpt>
      <trkpt lat="46.15524" lon="4.80515">
        <ele>174.80000305176</ele>
        <time>2020-06-10T15:52:58.000Z</time>
      </trkpt>
      <trkpt lat="46.15535" lon="4.80513">
        <ele>174.60000610352</ele>
        <time>2020-06-10T15:53:00.000Z</time>
      </trkpt>
      <trkpt lat="46.15557" lon="4.80507">
        <ele>174.60000610352</ele>
        <time>2020-06-10T15:53:04.000Z</time>
      </trkpt>
      <trkpt lat="46.1562" lon="4.80482">
        <ele>175</ele>
        <time>2020-06-10T15:53:15.000Z</time>
      </trkpt>
      <trkpt lat="46.15627" lon="4.80479">
        <ele>175</ele>
        <time>2020-06-10T15:53:16.000Z</time>
      </trkpt>
      <trkpt lat="46.15648" lon="4.80473">
        <ele>175</ele>
        <time>2020-06-10T15:53:20.000Z</time>
      </trkpt>
      <trkpt lat="46.15712" lon="4.80456">
        <ele>174.80000305176</ele>
        <time>2020-06-10T15:53:31.000Z</time>
      </trkpt>
      <trkpt lat="46.15775" lon="4.8044">
        <ele>175.19999694824</ele>
        <time>2020-06-10T15:53:41.000Z</time>
      </trkpt>
      <trkpt lat="46.15858" lon="4.80379">
        <ele>175</ele>
        <time>2020-06-10T15:53:56.000Z</time>
      </trkpt>
      <trkpt lat="46.15862" lon="4.80375">
        <ele>175</ele>
        <time>2020-06-10T15:53:57.000Z</time>
      </trkpt>
      <trkpt lat="46.15889" lon="4.80347">
        <ele>174.80000305176</ele>
        <time>2020-06-10T15:54:03.000Z</time>
      </trkpt>
      <trkpt lat="46.15939" lon="4.80282">
        <ele>174.80000305176</ele>
        <time>2020-06-10T15:54:14.000Z</time>
      </trkpt>
      <trkpt lat="46.15958" lon="4.80257">
        <ele>174.80000305176</ele>
        <time>2020-06-10T15:54:18.000Z</time>
      </trkpt>
      <trkpt lat="46.15992" lon="4.80206">
        <ele>174.60000610352</ele>
        <time>2020-06-10T15:54:27.000Z</time>
      </trkpt>
      <trkpt lat="46.16033" lon="4.80144">
        <ele>174.39999389648</ele>
        <time>2020-06-10T15:54:38.000Z</time>
      </trkpt>
      <trkpt lat="46.1604" lon="4.80134">
        <ele>174.39999389648</ele>
        <time>2020-06-10T15:54:40.000Z</time>
      </trkpt>
      <trkpt lat="46.16057" lon="4.8011">
        <ele>174.39999389648</ele>
        <time>2020-06-10T15:54:44.000Z</time>
      </trkpt>
      <trkpt lat="46.16117" lon="4.80016">
        <ele>174</ele>
        <time>2020-06-10T15:55:00.000Z</time>
      </trkpt>
      <trkpt lat="46.16178" lon="4.79904">
        <ele>174</ele>
        <time>2020-06-10T15:55:18.000Z</time>
      </trkpt>
      <trkpt lat="46.16238" lon="4.79795">
        <ele>175</ele>
        <time>2020-06-10T15:55:36.000Z</time>
      </trkpt>
      <trkpt lat="46.16288" lon="4.79699">
        <ele>175</ele>
        <time>2020-06-10T15:55:52.000Z</time>
      </trkpt>
      <trkpt lat="46.16295" lon="4.79687">
        <ele>175.19999694824</ele>
        <time>2020-06-10T15:55:54.000Z</time>
      </trkpt>
      <trkpt lat="46.16325" lon="4.79621">
        <ele>175.39999389648</ele>
        <time>2020-06-10T15:56:04.000Z</time>
      </trkpt>
      <trkpt lat="46.1634" lon="4.79581">
        <ele>175.39999389648</ele>
        <time>2020-06-10T15:56:10.000Z</time>
      </trkpt>
      <trkpt lat="46.16345" lon="4.79551">
        <ele>175.19999694824</ele>
        <time>2020-06-10T15:56:14.000Z</time>
      </trkpt>
      <trkpt lat="46.1636" lon="4.79513">
        <ele>174.80000305176</ele>
        <time>2020-06-10T15:56:20.000Z</time>
      </trkpt>
      <trkpt lat="46.16421" lon="4.794">
        <ele>174.39999389648</ele>
        <time>2020-06-10T15:56:39.000Z</time>
      </trkpt>
      <trkpt lat="46.16454" lon="4.79337">
        <ele>174.80000305176</ele>
        <time>2020-06-10T15:56:51.000Z</time>
      </trkpt>
      <trkpt lat="46.1649" lon="4.79258">
        <ele>175.39999389648</ele>
        <time>2020-06-10T15:57:08.000Z</time>
      </trkpt>
      <trkpt lat="46.16506" lon="4.7923">
        <ele>176.19999694824</ele>
        <time>2020-06-10T15:57:19.000Z</time>
      </trkpt>
      <trkpt lat="46.16516" lon="4.79171">
        <ele>178</ele>
        <time>2020-06-10T15:57:32.000Z</time>
      </trkpt>
      <trkpt lat="46.16516" lon="4.79166">
        <ele>178.19999694824</ele>
        <time>2020-06-10T15:57:33.000Z</time>
      </trkpt>
      <trkpt lat="46.16535" lon="4.79089">
        <ele>178</ele>
        <time>2020-06-10T15:57:43.000Z</time>
      </trkpt>
      <trkpt lat="46.16539" lon="4.79075">
        <ele>177.60000610352</ele>
        <time>2020-06-10T15:57:45.000Z</time>
      </trkpt>
      <trkpt lat="46.16562" lon="4.7903">
        <ele>175.80000305176</ele>
        <time>2020-06-10T15:57:53.000Z</time>
      </trkpt>
      <trkpt lat="46.16619" lon="4.78925">
        <ele>176.19999694824</ele>
        <time>2020-06-10T15:58:10.000Z</time>
      </trkpt>
      <trkpt lat="46.16678" lon="4.78811">
        <ele>175.60000610352</ele>
        <time>2020-06-10T15:58:27.000Z</time>
      </trkpt>
      <trkpt lat="46.1672" lon="4.78728">
        <ele>175.39999389648</ele>
        <time>2020-06-10T15:58:39.000Z</time>
      </trkpt>
      <trkpt lat="46.16793" lon="4.78649">
        <ele>174.80000305176</ele>
        <time>2020-06-10T15:58:55.000Z</time>
      </trkpt>
      <trkpt lat="46.16818" lon="4.78619">
        <ele>174.80000305176</ele>
        <time>2020-06-10T15:59:01.000Z</time>
      </trkpt>
      <trkpt lat="46.16823" lon="4.78614">
        <ele>174.80000305176</ele>
        <time>2020-06-10T15:59:02.000Z</time>
      </trkpt>
      <trkpt lat="46.16838" lon="4.78604">
        <ele>174.80000305176</ele>
        <time>2020-06-10T15:59:05.000Z</time>
      </trkpt>
      <trkpt lat="46.16868" lon="4.78593">
        <ele>175</ele>
        <time>2020-06-10T15:59:11.000Z</time>
      </trkpt>
      <trkpt lat="46.16944" lon="4.7854">
        <ele>175.39999389648</ele>
        <time>2020-06-10T15:59:26.000Z</time>
      </trkpt>
      <trkpt lat="46.16994" lon="4.78502">
        <ele>174.39999389648</ele>
        <time>2020-06-10T15:59:36.000Z</time>
      </trkpt>
      <trkpt lat="46.17071" lon="4.78459">
        <ele>175.80000305176</ele>
        <time>2020-06-10T15:59:51.000Z</time>
      </trkpt>
      <trkpt lat="46.1715" lon="4.78409">
        <ele>175.80000305176</ele>
        <time>2020-06-10T16:00:06.000Z</time>
      </trkpt>
      <trkpt lat="46.17193" lon="4.78386">
        <ele>176.19999694824</ele>
        <time>2020-06-10T16:00:15.000Z</time>
      </trkpt>
      <trkpt lat="46.17271" lon="4.78341">
        <ele>175.80000305176</ele>
        <time>2020-06-10T16:00:29.000Z</time>
      </trkpt>
      <trkpt lat="46.17344" lon="4.78303">
        <ele>176</ele>
        <time>2020-06-10T16:00:42.000Z</time>
      </trkpt>
      <trkpt lat="46.1741" lon="4.78285">
        <ele>176.60000610352</ele>
        <time>2020-06-10T16:00:54.000Z</time>
      </trkpt>
      <trkpt lat="46.17473" lon="4.78274">
        <ele>176.60000610352</ele>
        <time>2020-06-10T16:01:05.000Z</time>
      </trkpt>
      <trkpt lat="46.17528" lon="4.7826">
        <ele>176.19999694824</ele>
        <time>2020-06-10T16:01:15.000Z</time>
      </trkpt>
      <trkpt lat="46.1756" lon="4.78251">
        <ele>176</ele>
        <time>2020-06-10T16:01:21.000Z</time>
      </trkpt>
      <trkpt lat="46.17587" lon="4.7825">
        <ele>176</ele>
        <time>2020-06-10T16:01:26.000Z</time>
      </trkpt>
      <trkpt lat="46.17622" lon="4.78245">
        <ele>176</ele>
        <time>2020-06-10T16:01:33.000Z</time>
      </trkpt>
      <trkpt lat="46.17677" lon="4.78236">
        <ele>176</ele>
        <time>2020-06-10T16:01:44.000Z</time>
      </trkpt>
      <trkpt lat="46.17753" lon="4.78225">
        <ele>176</ele>
        <time>2020-06-10T16:01:56.000Z</time>
      </trkpt>
      <trkpt lat="46.17842" lon="4.78219">
        <ele>176</ele>
        <time>2020-06-10T16:02:11.000Z</time>
      </trkpt>
      <trkpt lat="46.1786" lon="4.78217">
        <ele>176</ele>
        <time>2020-06-10T16:02:14.000Z</time>
      </trkpt>
      <trkpt lat="46.17939" lon="4.78212">
        <ele>176</ele>
        <time>2020-06-10T16:02:29.000Z</time>
      </trkpt>
      <trkpt lat="46.17984" lon="4.78209">
        <ele>176</ele>
        <time>2020-06-10T16:02:37.000Z</time>
      </trkpt>
      <trkpt lat="46.18046" lon="4.78203">
        <ele>176.39999389648</ele>
        <time>2020-06-10T16:02:48.000Z</time>
      </trkpt>
      <trkpt lat="46.18115" lon="4.78204">
        <ele>176.39999389648</ele>
        <time>2020-06-10T16:03:01.000Z</time>
      </trkpt>
      <trkpt lat="46.1812" lon="4.78203">
        <ele>176.39999389648</ele>
        <time>2020-06-10T16:03:02.000Z</time>
      </trkpt>
      <trkpt lat="46.1813" lon="4.78204">
        <ele>176.39999389648</ele>
        <time>2020-06-10T16:03:04.000Z</time>
      </trkpt>
      <trkpt lat="46.18156" lon="4.78205">
        <ele>176.39999389648</ele>
        <time>2020-06-10T16:03:09.000Z</time>
      </trkpt>
      <trkpt lat="46.1819" lon="4.78201">
        <ele>176.60000610352</ele>
        <time>2020-06-10T16:03:15.000Z</time>
      </trkpt>
      <trkpt lat="46.18223" lon="4.782">
        <ele>176.60000610352</ele>
        <time>2020-06-10T16:03:21.000Z</time>
      </trkpt>
      <trkpt lat="46.18261" lon="4.78196">
        <ele>176.60000610352</ele>
        <time>2020-06-10T16:03:27.000Z</time>
      </trkpt>
      <trkpt lat="46.18279" lon="4.78196">
        <ele>176.60000610352</ele>
        <time>2020-06-10T16:03:30.000Z</time>
      </trkpt>
      <trkpt lat="46.1829" lon="4.78194">
        <ele>176.60000610352</ele>
        <time>2020-06-10T16:03:32.000Z</time>
      </trkpt>
      <trkpt lat="46.18314" lon="4.78194">
        <ele>176.60000610352</ele>
        <time>2020-06-10T16:03:36.000Z</time>
      </trkpt>
      <trkpt lat="46.1836" lon="4.78192">
        <ele>176.39999389648</ele>
        <time>2020-06-10T16:03:44.000Z</time>
      </trkpt>
      <trkpt lat="46.1843" lon="4.78187">
        <ele>176.19999694824</ele>
        <time>2020-06-10T16:03:56.000Z</time>
      </trkpt>
      <trkpt lat="46.18503" lon="4.78186">
        <ele>175.80000305176</ele>
        <time>2020-06-10T16:04:09.000Z</time>
      </trkpt>
      <trkpt lat="46.18514" lon="4.78182">
        <ele>175.80000305176</ele>
        <time>2020-06-10T16:04:11.000Z</time>
      </trkpt>
      <trkpt lat="46.18537" lon="4.78181">
        <ele>175.60000610352</ele>
        <time>2020-06-10T16:04:15.000Z</time>
      </trkpt>
      <trkpt lat="46.18595" lon="4.78172">
        <ele>175.60000610352</ele>
        <time>2020-06-10T16:04:25.000Z</time>
      </trkpt>
      <trkpt lat="46.18666" lon="4.78159">
        <ele>175</ele>
        <time>2020-06-10T16:04:38.000Z</time>
      </trkpt>
      <trkpt lat="46.18737" lon="4.7815">
        <ele>175.60000610352</ele>
        <time>2020-06-10T16:04:51.000Z</time>
      </trkpt>
      <trkpt lat="46.18759" lon="4.78149">
        <ele>175.80000305176</ele>
        <time>2020-06-10T16:04:55.000Z</time>
      </trkpt>
      <trkpt lat="46.18781" lon="4.78137">
        <ele>175.60000610352</ele>
        <time>2020-06-10T16:05:00.000Z</time>
      </trkpt>
      <trkpt lat="46.18782" lon="4.78168">
        <ele>175.60000610352</ele>
        <time>2020-06-10T16:05:07.000Z</time>
      </trkpt>
      <trkpt lat="46.18777" lon="4.78202">
        <ele>178.80000305176</ele>
        <time>2020-06-10T16:05:14.000Z</time>
      </trkpt>
      <trkpt lat="46.18777" lon="4.78213">
        <ele>179.60000610352</ele>
        <time>2020-06-10T16:05:17.000Z</time>
      </trkpt>
      <trkpt lat="46.18792" lon="4.7822">
        <ele>180.39999389648</ele>
        <time>2020-06-10T16:05:22.000Z</time>
      </trkpt>
      <trkpt lat="46.18813" lon="4.78205">
        <ele>180.80000305176</ele>
        <time>2020-06-10T16:05:27.000Z</time>
      </trkpt>
      <trkpt lat="46.1882" lon="4.78195">
        <ele>180.80000305176</ele>
        <time>2020-06-10T16:05:29.000Z</time>
      </trkpt>
      <trkpt lat="46.1883" lon="4.78163">
        <ele>180.80000305176</ele>
        <time>2020-06-10T16:05:34.000Z</time>
      </trkpt>
      <trkpt lat="46.18829" lon="4.78061">
        <ele>184.60000610352</ele>
        <time>2020-06-10T16:05:49.000Z</time>
      </trkpt>
      <trkpt lat="46.18827" lon="4.77937">
        <ele>186</ele>
        <time>2020-06-10T16:06:06.000Z</time>
      </trkpt>
      <trkpt lat="46.18826" lon="4.778">
        <ele>183.80000305176</ele>
        <time>2020-06-10T16:06:21.000Z</time>
      </trkpt>
      <trkpt lat="46.18823" lon="4.77766">
        <ele>182</ele>
        <time>2020-06-10T16:06:26.000Z</time>
      </trkpt>
      <trkpt lat="46.1883" lon="4.7777">
        <ele>181.19999694824</ele>
        <time>2020-06-10T16:06:30.000Z</time>
      </trkpt>
      <trkpt lat="46.1883" lon="4.77782">
        <ele>181.19999694824</ele>
        <time>2020-06-10T16:06:32.000Z</time>
      </trkpt>
      <trkpt lat="46.1885" lon="4.77819">
        <ele>180.80000305176</ele>
        <time>2020-06-10T16:06:40.000Z</time>
      </trkpt>
      <trkpt lat="46.18866" lon="4.77816">
        <ele>180.60000610352</ele>
        <time>2020-06-10T16:06:43.000Z</time>
      </trkpt>
      <trkpt lat="46.18886" lon="4.77817">
        <ele>179.60000610352</ele>
        <time>2020-06-10T16:06:52.000Z</time>
      </trkpt>
      <trkpt lat="46.18886" lon="4.77817">
        <ele>179.60000610352</ele>
        <time>2020-06-10T16:06:53.000Z</time>
      </trkpt>
      <trkpt lat="46.1889" lon="4.77814">
        <ele>180.19999694824</ele>
        <time>2020-06-10T16:08:01.000Z</time>
      </trkpt>
      <trkpt lat="46.18939" lon="4.77815">
        <ele>180</ele>
        <time>2020-06-10T16:08:13.000Z</time>
      </trkpt>
      <trkpt lat="46.18981" lon="4.77823">
        <ele>178.39999389648</ele>
        <time>2020-06-10T16:08:21.000Z</time>
      </trkpt>
      <trkpt lat="46.1906" lon="4.77836">
        <ele>178.39999389648</ele>
        <time>2020-06-10T16:08:36.000Z</time>
      </trkpt>
      <trkpt lat="46.19128" lon="4.77845">
        <ele>178.39999389648</ele>
        <time>2020-06-10T16:08:48.000Z</time>
      </trkpt>
      <trkpt lat="46.19176" lon="4.77857">
        <ele>178.19999694824</ele>
        <time>2020-06-10T16:08:57.000Z</time>
      </trkpt>
      <trkpt lat="46.1926" lon="4.77898">
        <ele>179</ele>
        <time>2020-06-10T16:09:13.000Z</time>
      </trkpt>
      <trkpt lat="46.19265" lon="4.77901">
        <ele>179</ele>
        <time>2020-06-10T16:09:14.000Z</time>
      </trkpt>
      <trkpt lat="46.19319" lon="4.77926">
        <ele>179</ele>
        <time>2020-06-10T16:09:24.000Z</time>
      </trkpt>
      <trkpt lat="46.1936" lon="4.77953">
        <ele>178.80000305176</ele>
        <time>2020-06-10T16:09:32.000Z</time>
      </trkpt>
      <trkpt lat="46.19412" lon="4.77984">
        <ele>179</ele>
        <time>2020-06-10T16:09:42.000Z</time>
      </trkpt>
      <trkpt lat="46.19421" lon="4.77989">
        <ele>179</ele>
        <time>2020-06-10T16:09:44.000Z</time>
      </trkpt>
      <trkpt lat="46.19426" lon="4.77989">
        <ele>179</ele>
        <time>2020-06-10T16:09:45.000Z</time>
      </trkpt>
      <trkpt lat="46.1943" lon="4.77987">
        <ele>179</ele>
        <time>2020-06-10T16:09:46.000Z</time>
      </trkpt>
      <trkpt lat="46.19434" lon="4.77983">
        <ele>179.19999694824</ele>
        <time>2020-06-10T16:09:47.000Z</time>
      </trkpt>
      <trkpt lat="46.1944" lon="4.77969">
        <ele>179.19999694824</ele>
        <time>2020-06-10T16:09:49.000Z</time>
      </trkpt>
      <trkpt lat="46.19474" lon="4.7784">
        <ele>177.80000305176</ele>
        <time>2020-06-10T16:10:05.000Z</time>
      </trkpt>
      <trkpt lat="46.19505" lon="4.77756">
        <ele>177.39999389648</ele>
        <time>2020-06-10T16:10:17.000Z</time>
      </trkpt>
      <trkpt lat="46.19513" lon="4.77735">
        <ele>177.19999694824</ele>
        <time>2020-06-10T16:10:20.000Z</time>
      </trkpt>
      <trkpt lat="46.19533" lon="4.77721">
        <ele>177.19999694824</ele>
        <time>2020-06-10T16:10:25.000Z</time>
      </trkpt>
      <trkpt lat="46.19621" lon="4.77766">
        <ele>177.60000610352</ele>
        <time>2020-06-10T16:10:41.000Z</time>
      </trkpt>
      <trkpt lat="46.19661" lon="4.77785">
        <ele>176.80000305176</ele>
        <time>2020-06-10T16:10:48.000Z</time>
      </trkpt>
      <trkpt lat="46.19765" lon="4.77835">
        <ele>177.19999694824</ele>
        <time>2020-06-10T16:11:07.000Z</time>
      </trkpt>
      <trkpt lat="46.1985" lon="4.77874">
        <ele>178</ele>
        <time>2020-06-10T16:11:23.000Z</time>
      </trkpt>
      <trkpt lat="46.19898" lon="4.77894">
        <ele>178.19999694824</ele>
        <time>2020-06-10T16:11:32.000Z</time>
      </trkpt>
      <trkpt lat="46.19976" lon="4.77939">
        <ele>178.19999694824</ele>
        <time>2020-06-10T16:11:48.000Z</time>
      </trkpt>
      <trkpt lat="46.19986" lon="4.77946">
        <ele>178.19999694824</ele>
        <time>2020-06-10T16:11:50.000Z</time>
      </trkpt>
      <trkpt lat="46.20002" lon="4.77965">
        <ele>178.39999389648</ele>
        <time>2020-06-10T16:11:54.000Z</time>
      </trkpt>
      <trkpt lat="46.20015" lon="4.77976">
        <ele>178.60000610352</ele>
        <time>2020-06-10T16:11:57.000Z</time>
      </trkpt>
      <trkpt lat="46.20038" lon="4.77984">
        <ele>179.19999694824</ele>
        <time>2020-06-10T16:12:02.000Z</time>
      </trkpt>
      <trkpt lat="46.20067" lon="4.77999">
        <ele>180.80000305176</ele>
        <time>2020-06-10T16:12:08.000Z</time>
      </trkpt>
      <trkpt lat="46.20124" lon="4.78031">
        <ele>181.19999694824</ele>
        <time>2020-06-10T16:12:20.000Z</time>
      </trkpt>
      <trkpt lat="46.20141" lon="4.78059">
        <ele>181.39999389648</ele>
        <time>2020-06-10T16:12:25.000Z</time>
      </trkpt>
      <trkpt lat="46.2016" lon="4.78133">
        <ele>181</ele>
        <time>2020-06-10T16:12:35.000Z</time>
      </trkpt>
      <trkpt lat="46.20172" lon="4.78158">
        <ele>180.80000305176</ele>
        <time>2020-06-10T16:12:39.000Z</time>
      </trkpt>
      <trkpt lat="46.20205" lon="4.78195">
        <ele>180.19999694824</ele>
        <time>2020-06-10T16:12:47.000Z</time>
      </trkpt>
      <trkpt lat="46.20214" lon="4.78201">
        <ele>180.19999694824</ele>
        <time>2020-06-10T16:12:49.000Z</time>
      </trkpt>
      <trkpt lat="46.20242" lon="4.78206">
        <ele>180.19999694824</ele>
        <time>2020-06-10T16:12:55.000Z</time>
      </trkpt>
      <trkpt lat="46.20262" lon="4.78199">
        <ele>180.19999694824</ele>
        <time>2020-06-10T16:13:01.000Z</time>
      </trkpt>
      <trkpt lat="46.20253" lon="4.78186">
        <ele>181.60000610352</ele>
        <time>2020-06-10T16:13:06.000Z</time>
      </trkpt>
      <trkpt lat="46.20199" lon="4.78149">
        <ele>184.39999389648</ele>
        <time>2020-06-10T16:13:19.000Z</time>
      </trkpt>
      <trkpt lat="46.20188" lon="4.78128">
        <ele>185</ele>
        <time>2020-06-10T16:13:23.000Z</time>
      </trkpt>
      <trkpt lat="46.20179" lon="4.78086">
        <ele>186.80000305176</ele>
        <time>2020-06-10T16:13:30.000Z</time>
      </trkpt>
      <trkpt lat="46.20197" lon="4.7798">
        <ele>189.39999389648</ele>
        <time>2020-06-10T16:13:47.000Z</time>
      </trkpt>
      <trkpt lat="46.20202" lon="4.77958">
        <ele>189.60000610352</ele>
        <time>2020-06-10T16:13:50.000Z</time>
      </trkpt>
      <trkpt lat="46.2023" lon="4.77843">
        <ele>188.80000305176</ele>
        <time>2020-06-10T16:14:03.000Z</time>
      </trkpt>
      <trkpt lat="46.20239" lon="4.778">
        <ele>187.19999694824</ele>
        <time>2020-06-10T16:14:07.000Z</time>
      </trkpt>
      <trkpt lat="46.20248" lon="4.77768">
        <ele>185.60000610352</ele>
        <time>2020-06-10T16:14:10.000Z</time>
      </trkpt>
      <trkpt lat="46.20262" lon="4.77715">
        <ele>182.60000610352</ele>
        <time>2020-06-10T16:14:15.000Z</time>
      </trkpt>
      <trkpt lat="46.20307" lon="4.77609">
        <ele>180.80000305176</ele>
        <time>2020-06-10T16:14:29.000Z</time>
      </trkpt>
      <trkpt lat="46.20374" lon="4.77485">
        <ele>182.60000610352</ele>
        <time>2020-06-10T16:14:49.000Z</time>
      </trkpt>
      <trkpt lat="46.20445" lon="4.77382">
        <ele>184.80000305176</ele>
        <time>2020-06-10T16:15:09.000Z</time>
      </trkpt>
      <trkpt lat="46.205" lon="4.77269">
        <ele>187</ele>
        <time>2020-06-10T16:15:28.000Z</time>
      </trkpt>
      <trkpt lat="46.20562" lon="4.77139">
        <ele>188.60000610352</ele>
        <time>2020-06-10T16:15:48.000Z</time>
      </trkpt>
      <trkpt lat="46.20564" lon="4.77133">
        <ele>188.80000305176</ele>
        <time>2020-06-10T16:15:49.000Z</time>
      </trkpt>
      <trkpt lat="46.20577" lon="4.77078">
        <ele>189.39999389648</ele>
        <time>2020-06-10T16:15:57.000Z</time>
      </trkpt>
      <trkpt lat="46.20589" lon="4.7706">
        <ele>189.60000610352</ele>
        <time>2020-06-10T16:16:01.000Z</time>
      </trkpt>
      <trkpt lat="46.20632" lon="4.77024">
        <ele>189.80000305176</ele>
        <time>2020-06-10T16:16:12.000Z</time>
      </trkpt>
      <trkpt lat="46.20634" lon="4.77019">
        <ele>190.60000610352</ele>
        <time>2020-06-10T16:16:17.000Z</time>
      </trkpt>
      <trkpt lat="46.20633" lon="4.7701">
        <ele>192.19999694824</ele>
        <time>2020-06-10T16:16:43.000Z</time>
      </trkpt>
      <trkpt lat="46.20605" lon="4.76973">
        <ele>192.19999694824</ele>
        <time>2020-06-10T16:16:52.000Z</time>
      </trkpt>
      <trkpt lat="46.20609" lon="4.76951">
        <ele>192</ele>
        <time>2020-06-10T16:16:55.000Z</time>
      </trkpt>
      <trkpt lat="46.20654" lon="4.76836">
        <ele>191.60000610352</ele>
        <time>2020-06-10T16:17:12.000Z</time>
      </trkpt>
      <trkpt lat="46.20698" lon="4.76729">
        <ele>190.60000610352</ele>
        <time>2020-06-10T16:17:25.000Z</time>
      </trkpt>
      <trkpt lat="46.20701" lon="4.76721">
        <ele>190.60000610352</ele>
        <time>2020-06-10T16:17:26.000Z</time>
      </trkpt>
      <trkpt lat="46.20713" lon="4.76693">
        <ele>189</ele>
        <time>2020-06-10T16:17:30.000Z</time>
      </trkpt>
      <trkpt lat="46.20739" lon="4.76616">
        <ele>189.60000610352</ele>
        <time>2020-06-10T16:17:41.000Z</time>
      </trkpt>
      <trkpt lat="46.20799" lon="4.76509">
        <ele>192.39999389648</ele>
        <time>2020-06-10T16:17:59.000Z</time>
      </trkpt>
      <trkpt lat="46.20826" lon="4.76483">
        <ele>192.80000305176</ele>
        <time>2020-06-10T16:18:08.000Z</time>
      </trkpt>
      <trkpt lat="46.20829" lon="4.76462">
        <ele>192.80000305176</ele>
        <time>2020-06-10T16:18:11.000Z</time>
      </trkpt>
      <trkpt lat="46.20864" lon="4.76324">
        <ele>194</ele>
        <time>2020-06-10T16:18:32.000Z</time>
      </trkpt>
      <trkpt lat="46.20889" lon="4.76219">
        <ele>197</ele>
        <time>2020-06-10T16:18:49.000Z</time>
      </trkpt>
      <trkpt lat="46.20891" lon="4.76213">
        <ele>197.19999694824</ele>
        <time>2020-06-10T16:18:50.000Z</time>
      </trkpt>
      <trkpt lat="46.20917" lon="4.76113">
        <ele>200</ele>
        <time>2020-06-10T16:19:06.000Z</time>
      </trkpt>
      <trkpt lat="46.20952" lon="4.75976">
        <ele>201.60000610352</ele>
        <time>2020-06-10T16:19:27.000Z</time>
      </trkpt>
      <trkpt lat="46.20985" lon="4.75844">
        <ele>203.80000305176</ele>
        <time>2020-06-10T16:19:47.000Z</time>
      </trkpt>
      <trkpt lat="46.21" lon="4.75785">
        <ele>204.60000610352</ele>
        <time>2020-06-10T16:19:56.000Z</time>
      </trkpt>
      <trkpt lat="46.21048" lon="4.75656">
        <ele>206.80000305176</ele>
        <time>2020-06-10T16:20:17.000Z</time>
      </trkpt>
      <trkpt lat="46.21083" lon="4.7556">
        <ele>209.19999694824</ele>
        <time>2020-06-10T16:20:33.000Z</time>
      </trkpt>
      <trkpt lat="46.21085" lon="4.75554">
        <ele>209.39999389648</ele>
        <time>2020-06-10T16:20:34.000Z</time>
      </trkpt>
      <trkpt lat="46.21107" lon="4.75524">
        <ele>210.39999389648</ele>
        <time>2020-06-10T16:20:42.000Z</time>
      </trkpt>
      <trkpt lat="46.21113" lon="4.75528">
        <ele>210.39999389648</ele>
        <time>2020-06-10T16:20:43.000Z</time>
      </trkpt>
      <trkpt lat="46.2118" lon="4.75575">
        <ele>206.39999389648</ele>
        <time>2020-06-10T16:20:54.000Z</time>
      </trkpt>
      <trkpt lat="46.21188" lon="4.75581">
        <ele>206.39999389648</ele>
        <time>2020-06-10T16:20:55.000Z</time>
      </trkpt>
      <trkpt lat="46.21245" lon="4.7562">
        <ele>203.19999694824</ele>
        <time>2020-06-10T16:21:02.000Z</time>
      </trkpt>
      <trkpt lat="46.21292" lon="4.75651">
        <ele>200.39999389648</ele>
        <time>2020-06-10T16:21:08.000Z</time>
      </trkpt>
      <trkpt lat="46.21313" lon="4.75664">
        <ele>198.80000305176</ele>
        <time>2020-06-10T16:21:11.000Z</time>
      </trkpt>
      <trkpt lat="46.21325" lon="4.75673">
        <ele>198</ele>
        <time>2020-06-10T16:21:13.000Z</time>
      </trkpt>
      <trkpt lat="46.21351" lon="4.75636">
        <ele>197.19999694824</ele>
        <time>2020-06-10T16:21:20.000Z</time>
      </trkpt>
      <trkpt lat="46.21399" lon="4.75533">
        <ele>197</ele>
        <time>2020-06-10T16:21:35.000Z</time>
      </trkpt>
      <trkpt lat="46.21412" lon="4.75511">
        <ele>197.19999694824</ele>
        <time>2020-06-10T16:21:39.000Z</time>
      </trkpt>
      <trkpt lat="46.21426" lon="4.75489">
        <ele>197.80000305176</ele>
        <time>2020-06-10T16:21:45.000Z</time>
      </trkpt>
      <trkpt lat="46.21429" lon="4.7549">
        <ele>198.80000305176</ele>
        <time>2020-06-10T16:21:51.000Z</time>
      </trkpt>
    </trkseg>
  </trk>
</gpx>